<?xml version="1.0" encoding="UTF-8" standalone="no" ?><gpx xmlns="http://www.topografix.com/GPX/1/1" xmlns:gpxx="http://www.garmin.com/xmlschemas/GpxExtensions/v3" xmlns:wptx1="http://www.garmin.com/xmlschemas/WaypointExtension/v1" xmlns:gpxtpx="http://www.garmin.com/xmlschemas/TrackPointExtension/v1" creator="GuideVTT.com" version="1.1" xmlns:xsi="http://www.w3.org/2001/XMLSchema-instance" xsi:schemaLocation="http://www.topografix.com/GPX/1/1 http://www.topografix.com/GPX/1/1/gpx.xsd http://www.garmin.com/xmlschemas/GpxExtensions/v3 http://www8.garmin.com/xmlschemas/GpxExtensionsv3.xsd http://www.garmin.com/xmlschemas/WaypointExtension/v1 http://www8.garmin.com/xmlschemas/WaypointExtensionv1.xsd http://www.garmin.com/xmlschemas/TrackPointExtension/v1 http://www.garmin.com/xmlschemas/TrackPointExtensionv1.xsd">
<metadata><link href="http://www.garmin.com"><text>Garmin International</text></link><time>2013-06-22T15:13:50Z</time></metadata>
<trk><name>p1_20080302.gpx</name><extensions><gpxx:TrackExtension><gpxx:DisplayColor>Cyan</gpxx:DisplayColor></gpxx:TrackExtension></extensions><trkseg>
<trkpt lat="48.18029682" lon="6.38231585"><ele>362.07373</ele><time>2008-03-02T08:54:54Z</time></trkpt>
<trkpt lat="48.18029707" lon="6.38231568"><ele>362.07373</ele><time>2008-03-02T08:54:55Z</time></trkpt>
<trkpt lat="48.18029749" lon="6.38231576"><ele>362.554321</ele><time>2008-03-02T08:54:56Z</time></trkpt>
<trkpt lat="48.18030529" lon="6.38232180"><ele>362.554321</ele><time>2008-03-02T08:55:04Z</time></trkpt>
<trkpt lat="48.18040277" lon="6.38226916"><ele>362.07373</ele><time>2008-03-02T08:55:08Z</time></trkpt>
<trkpt lat="48.18042029" lon="6.38222608"><ele>362.07373</ele><time>2008-03-02T08:55:09Z</time></trkpt>
<trkpt lat="48.18058256" lon="6.38182475"><ele>362.554321</ele><time>2008-03-02T08:55:16Z</time></trkpt>
<trkpt lat="48.18064098" lon="6.38171327"><ele>362.554321</ele><time>2008-03-02T08:55:18Z</time></trkpt>
<trkpt lat="48.18067602" lon="6.38146399"><ele>362.07373</ele><time>2008-03-02T08:55:22Z</time></trkpt>
<trkpt lat="48.18061793" lon="6.38136727"><ele>362.07373</ele><time>2008-03-02T08:55:24Z</time></trkpt>
<trkpt lat="48.18030688" lon="6.38101087"><ele>361.59314</ele><time>2008-03-02T08:55:33Z</time></trkpt>
<trkpt lat="48.18019708" lon="6.38078422"><ele>361.59314</ele><time>2008-03-02T08:55:38Z</time></trkpt>
<trkpt lat="48.18003824" lon="6.38041383"><ele>363.035034</ele><time>2008-03-02T08:55:45Z</time></trkpt>
<trkpt lat="48.17986775" lon="6.38023579"><ele>363.515747</ele><time>2008-03-02T08:55:51Z</time></trkpt>
<trkpt lat="48.17966323" lon="6.37998828"><ele>363.515747</ele><time>2008-03-02T08:55:59Z</time></trkpt>
<trkpt lat="48.17939443" lon="6.37960807"><ele>364.957642</ele><time>2008-03-02T08:56:10Z</time></trkpt>
<trkpt lat="48.17917172" lon="6.37930859"><ele>365.918945</ele><time>2008-03-02T08:56:19Z</time></trkpt>
<trkpt lat="48.17904616" lon="6.37911648"><ele>366.399536</ele><time>2008-03-02T08:56:25Z</time></trkpt>
<trkpt lat="48.17905253" lon="6.37896133"><ele>367.360962</ele><time>2008-03-02T08:56:29Z</time></trkpt>
<trkpt lat="48.17916334" lon="6.37860174"><ele>368.802979</ele><time>2008-03-02T08:56:37Z</time></trkpt>
<trkpt lat="48.17921489" lon="6.37833344"><ele>368.802979</ele><time>2008-03-02T08:56:43Z</time></trkpt>
<trkpt lat="48.17925554" lon="6.37803479"><ele>367.841553</ele><time>2008-03-02T08:56:48Z</time></trkpt>
<trkpt lat="48.17925990" lon="6.37745677"><ele>365.918945</ele><time>2008-03-02T08:56:57Z</time></trkpt>
<trkpt lat="48.17916795" lon="6.37676912"><ele>364.476929</ele><time>2008-03-02T08:57:08Z</time></trkpt>
<trkpt lat="48.17903702" lon="6.37632606"><ele>363.996338</ele><time>2008-03-02T08:57:16Z</time></trkpt>
<trkpt lat="48.17877433" lon="6.37578065"><ele>363.035034</ele><time>2008-03-02T08:57:26Z</time></trkpt>
<trkpt lat="48.17853042" lon="6.37543439"><ele>363.515747</ele><time>2008-03-02T08:57:34Z</time></trkpt>
<trkpt lat="48.17850016" lon="6.37539240"><ele>363.515747</ele><time>2008-03-02T08:57:35Z</time></trkpt>
<trkpt lat="48.17818953" lon="6.37498797"><ele>363.035034</ele><time>2008-03-02T08:57:45Z</time></trkpt>
<trkpt lat="48.17795919" lon="6.37464297"><ele>363.515747</ele><time>2008-03-02T08:57:53Z</time></trkpt>
<trkpt lat="48.17774118" lon="6.37418129"><ele>366.399536</ele><time>2008-03-02T08:58:02Z</time></trkpt>
<trkpt lat="48.17759257" lon="6.37363304"><ele>365.918945</ele><time>2008-03-02T08:58:11Z</time></trkpt>
<trkpt lat="48.17755326" lon="6.37316390"><ele>365.918945</ele><time>2008-03-02T08:58:18Z</time></trkpt>
<trkpt lat="48.17756994" lon="6.37256778"><ele>365.438354</ele><time>2008-03-02T08:58:27Z</time></trkpt>
<trkpt lat="48.17760665" lon="6.37231305"><ele>365.918945</ele><time>2008-03-02T08:58:31Z</time></trkpt>
<trkpt lat="48.17773749" lon="6.37171785"><ele>366.399536</ele><time>2008-03-02T08:58:41Z</time></trkpt>
<trkpt lat="48.17781536" lon="6.37143019"><ele>367.360962</ele><time>2008-03-02T08:58:46Z</time></trkpt>
<trkpt lat="48.17794880" lon="6.37080230"><ele>364.957642</ele><time>2008-03-02T08:58:56Z</time></trkpt>
<trkpt lat="48.17807746" lon="6.37022529"><ele>365.438354</ele><time>2008-03-02T08:59:05Z</time></trkpt>
<trkpt lat="48.17818928" lon="6.36964300"><ele>364.476929</ele><time>2008-03-02T08:59:14Z</time></trkpt>
<trkpt lat="48.17823387" lon="6.36917579"><ele>363.515747</ele><time>2008-03-02T08:59:21Z</time></trkpt>
<trkpt lat="48.17827335" lon="6.36882719"><ele>363.515747</ele><time>2008-03-02T08:59:26Z</time></trkpt>
<trkpt lat="48.17823429" lon="6.36836149"><ele>363.515747</ele><time>2008-03-02T08:59:33Z</time></trkpt>
<trkpt lat="48.17814619" lon="6.36788565"><ele>364.476929</ele><time>2008-03-02T08:59:41Z</time></trkpt>
<trkpt lat="48.17806916" lon="6.36748499"><ele>366.399536</ele><time>2008-03-02T08:59:49Z</time></trkpt>
<trkpt lat="48.17805433" lon="6.36744962"><ele>366.399536</ele><time>2008-03-02T08:59:50Z</time></trkpt>
<trkpt lat="48.17797579" lon="6.36746404"><ele>367.360962</ele><time>2008-03-02T08:59:54Z</time></trkpt>
<trkpt lat="48.17773003" lon="6.36765649"><ele>366.880249</ele><time>2008-03-02T09:00:03Z</time></trkpt>
<trkpt lat="48.17769860" lon="6.36768205"><ele>366.399536</ele><time>2008-03-02T09:00:04Z</time></trkpt>
<trkpt lat="48.17749425" lon="6.36772865"><ele>365.918945</ele><time>2008-03-02T09:00:08Z</time></trkpt>
<trkpt lat="48.17733935" lon="6.36769295"><ele>366.880249</ele><time>2008-03-02T09:00:11Z</time></trkpt>
<trkpt lat="48.17724380" lon="6.36781909"><ele>366.880249</ele><time>2008-03-02T09:00:14Z</time></trkpt>
<trkpt lat="48.17721044" lon="6.36786503"><ele>366.880249</ele><time>2008-03-02T09:00:15Z</time></trkpt>
<trkpt lat="48.17685806" lon="6.36812705"><ele>367.360962</ele><time>2008-03-02T09:00:24Z</time></trkpt>
<trkpt lat="48.17647518" lon="6.36833215"><ele>367.841553</ele><time>2008-03-02T09:00:34Z</time></trkpt>
<trkpt lat="48.17604745" lon="6.36852980"><ele>368.322266</ele><time>2008-03-02T09:00:45Z</time></trkpt>
<trkpt lat="48.17586707" lon="6.36865117"><ele>368.322266</ele><time>2008-03-02T09:00:50Z</time></trkpt>
<trkpt lat="48.17567806" lon="6.36892358"><ele>369.764282</ele><time>2008-03-02T09:00:57Z</time></trkpt>
<trkpt lat="48.17551268" lon="6.36934435"><ele>371.68689</ele><time>2008-03-02T09:01:06Z</time></trkpt>
<trkpt lat="48.17548184" lon="6.36964895"><ele>372.16748</ele><time>2008-03-02T09:01:12Z</time></trkpt>
<trkpt lat="48.17552408" lon="6.37023266"><ele>373.609497</ele><time>2008-03-02T09:01:23Z</time></trkpt>
<trkpt lat="48.17551855" lon="6.37027893"><ele>374.090088</ele><time>2008-03-02T09:01:24Z</time></trkpt>
<trkpt lat="48.17540472" lon="6.37048705"><ele>375.051514</ele><time>2008-03-02T09:01:30Z</time></trkpt>
<trkpt lat="48.17520356" lon="6.37066090"><ele>376.974243</ele><time>2008-03-02T09:01:38Z</time></trkpt>
<trkpt lat="48.17498672" lon="6.37083222"><ele>381.78064</ele><time>2008-03-02T09:01:47Z</time></trkpt>
<trkpt lat="48.17492897" lon="6.37096843"><ele>382.261353</ele><time>2008-03-02T09:01:51Z</time></trkpt>
<trkpt lat="48.17494573" lon="6.37117873"><ele>382.261353</ele><time>2008-03-02T09:01:56Z</time></trkpt>
<trkpt lat="48.17502938" lon="6.37163663"><ele>381.78064</ele><time>2008-03-02T09:02:05Z</time></trkpt>
<trkpt lat="48.17506350" lon="6.37189186"><ele>382.742065</ele><time>2008-03-02T09:02:09Z</time></trkpt>
<trkpt lat="48.17502133" lon="6.37211935"><ele>383.222656</ele><time>2008-03-02T09:02:13Z</time></trkpt>
<trkpt lat="48.17488622" lon="6.37225002"><ele>383.703247</ele><time>2008-03-02T09:02:17Z</time></trkpt>
<trkpt lat="48.17455128" lon="6.37237893"><ele>384.664795</ele><time>2008-03-02T09:02:26Z</time></trkpt>
<trkpt lat="48.17447752" lon="6.37239494"><ele>385.145386</ele><time>2008-03-02T09:02:28Z</time></trkpt>
<trkpt lat="48.17430183" lon="6.37239905"><ele>385.625977</ele><time>2008-03-02T09:02:33Z</time></trkpt>
<trkpt lat="48.17419438" lon="6.37233543"><ele>385.145386</ele><time>2008-03-02T09:02:36Z</time></trkpt>
<trkpt lat="48.17393856" lon="6.37205497"><ele>384.664795</ele><time>2008-03-02T09:02:44Z</time></trkpt>
<trkpt lat="48.17380286" lon="6.37182858"><ele>384.184082</ele><time>2008-03-02T09:02:49Z</time></trkpt>
<trkpt lat="48.17365559" lon="6.37160637"><ele>382.742065</ele><time>2008-03-02T09:02:54Z</time></trkpt>
<trkpt lat="48.17355987" lon="6.37170168"><ele>383.222656</ele><time>2008-03-02T09:02:57Z</time></trkpt>
<trkpt lat="48.17332786" lon="6.37213879"><ele>383.703247</ele><time>2008-03-02T09:03:06Z</time></trkpt>
<trkpt lat="48.17313884" lon="6.37255898"><ele>382.742065</ele><time>2008-03-02T09:03:13Z</time></trkpt>
<trkpt lat="48.17283366" lon="6.37318963"><ele>381.78064</ele><time>2008-03-02T09:03:23Z</time></trkpt>
<trkpt lat="48.17266778" lon="6.37344402"><ele>381.300049</ele><time>2008-03-02T09:03:28Z</time></trkpt>
<trkpt lat="48.17255773" lon="6.37338602"><ele>380.338745</ele><time>2008-03-02T09:03:32Z</time></trkpt>
<trkpt lat="48.17241146" lon="6.37295527"><ele>381.78064</ele><time>2008-03-02T09:03:40Z</time></trkpt>
<trkpt lat="48.17226922" lon="6.37251858"><ele>383.703247</ele><time>2008-03-02T09:03:49Z</time></trkpt>
<trkpt lat="48.17221968" lon="6.37233225"><ele>384.664795</ele><time>2008-03-02T09:03:53Z</time></trkpt>
<trkpt lat="48.17208616" lon="6.37191106"><ele>383.703247</ele><time>2008-03-02T09:04:01Z</time></trkpt>
<trkpt lat="48.17196454" lon="6.37143932"><ele>384.184082</ele><time>2008-03-02T09:04:09Z</time></trkpt>
<trkpt lat="48.17185566" lon="6.37104722"><ele>384.664795</ele><time>2008-03-02T09:04:15Z</time></trkpt>
<trkpt lat="48.17176262" lon="6.37067213"><ele>384.664795</ele><time>2008-03-02T09:04:20Z</time></trkpt>
<trkpt lat="48.17163672" lon="6.37017164"><ele>383.222656</ele><time>2008-03-02T09:04:26Z</time></trkpt>
<trkpt lat="48.17153346" lon="6.36981944"><ele>382.261353</ele><time>2008-03-02T09:04:30Z</time></trkpt>
<trkpt lat="48.17135928" lon="6.36949414"><ele>381.300049</ele><time>2008-03-02T09:04:34Z</time></trkpt>
<trkpt lat="48.17095913" lon="6.36911158"><ele>380.338745</ele><time>2008-03-02T09:04:41Z</time></trkpt>
<trkpt lat="48.17058915" lon="6.36878964"><ele>377.935425</ele><time>2008-03-02T09:04:48Z</time></trkpt>
<trkpt lat="48.17047994" lon="6.36871504"><ele>377.935425</ele><time>2008-03-02T09:04:50Z</time></trkpt>
<trkpt lat="48.17026955" lon="6.36864044"><ele>377.454834</ele><time>2008-03-02T09:04:54Z</time></trkpt>
<trkpt lat="48.17007802" lon="6.36863616"><ele>378.416138</ele><time>2008-03-02T09:04:59Z</time></trkpt>
<trkpt lat="48.16992229" lon="6.36860440"><ele>378.416138</ele><time>2008-03-02T09:05:05Z</time></trkpt>
<trkpt lat="48.16983093" lon="6.36845872"><ele>378.416138</ele><time>2008-03-02T09:05:09Z</time></trkpt>
<trkpt lat="48.16977653" lon="6.36788523"><ele>377.935425</ele><time>2008-03-02T09:05:18Z</time></trkpt>
<trkpt lat="48.16976446" lon="6.36774399"><ele>377.454834</ele><time>2008-03-02T09:05:20Z</time></trkpt>
<trkpt lat="48.16965692" lon="6.36740218"><ele>376.974243</ele><time>2008-03-02T09:05:25Z</time></trkpt>
<trkpt lat="48.16956505" lon="6.36731769"><ele>376.49353</ele><time>2008-03-02T09:05:27Z</time></trkpt>
<trkpt lat="48.16927764" lon="6.36712926"><ele>376.012817</ele><time>2008-03-02T09:05:33Z</time></trkpt>
<trkpt lat="48.16918887" lon="6.36705525"><ele>376.012817</ele><time>2008-03-02T09:05:35Z</time></trkpt>
<trkpt lat="48.16893733" lon="6.36670363"><ele>375.532104</ele><time>2008-03-02T09:05:42Z</time></trkpt>
<trkpt lat="48.16885276" lon="6.36652878"><ele>376.012817</ele><time>2008-03-02T09:05:46Z</time></trkpt>
<trkpt lat="48.16874924" lon="6.36631748"><ele>375.051514</ele><time>2008-03-02T09:05:52Z</time></trkpt>
<trkpt lat="48.16864388" lon="6.36608002"><ele>374.570801</ele><time>2008-03-02T09:05:57Z</time></trkpt>
<trkpt lat="48.16847197" lon="6.36573460"><ele>374.570801</ele><time>2008-03-02T09:06:03Z</time></trkpt>
<trkpt lat="48.16817072" lon="6.36512180"><ele>376.49353</ele><time>2008-03-02T09:06:14Z</time></trkpt>
<trkpt lat="48.16811104" lon="6.36479658"><ele>376.49353</ele><time>2008-03-02T09:06:19Z</time></trkpt>
<trkpt lat="48.16814256" lon="6.36431940"><ele>377.935425</ele><time>2008-03-02T09:06:25Z</time></trkpt>
<trkpt lat="48.16820056" lon="6.36412477"><ele>379.377441</ele><time>2008-03-02T09:06:28Z</time></trkpt>
<trkpt lat="48.16835219" lon="6.36379109"><ele>380.819458</ele><time>2008-03-02T09:06:34Z</time></trkpt>
<trkpt lat="48.16843299" lon="6.36341239"><ele>381.300049</ele><time>2008-03-02T09:06:39Z</time></trkpt>
<trkpt lat="48.16843886" lon="6.36297075"><ele>380.819458</ele><time>2008-03-02T09:06:45Z</time></trkpt>
<trkpt lat="48.16846082" lon="6.36247463"><ele>380.819458</ele><time>2008-03-02T09:06:52Z</time></trkpt>
<trkpt lat="48.16848345" lon="6.36188018"><ele>380.819458</ele><time>2008-03-02T09:07:00Z</time></trkpt>
<trkpt lat="48.16846954" lon="6.36172285"><ele>379.858032</ele><time>2008-03-02T09:07:02Z</time></trkpt>
<trkpt lat="48.16839678" lon="6.36141624"><ele>379.377441</ele><time>2008-03-02T09:07:06Z</time></trkpt>
<trkpt lat="48.16830223" lon="6.36120980"><ele>378.896851</ele><time>2008-03-02T09:07:09Z</time></trkpt>
<trkpt lat="48.16790233" lon="6.36067738"><ele>376.974243</ele><time>2008-03-02T09:07:19Z</time></trkpt>
<trkpt lat="48.16751123" lon="6.36020112"><ele>376.49353</ele><time>2008-03-02T09:07:29Z</time></trkpt>
<trkpt lat="48.16743999" lon="6.36011872"><ele>376.49353</ele><time>2008-03-02T09:07:31Z</time></trkpt>
<trkpt lat="48.16727729" lon="6.36003742"><ele>376.012817</ele><time>2008-03-02T09:07:35Z</time></trkpt>
<trkpt lat="48.16699843" lon="6.36004035"><ele>375.532104</ele><time>2008-03-02T09:07:42Z</time></trkpt>
<trkpt lat="48.16690329" lon="6.35996894"><ele>374.090088</ele><time>2008-03-02T09:07:45Z</time></trkpt>
<trkpt lat="48.16668184" lon="6.35979694"><ele>373.128906</ele><time>2008-03-02T09:07:51Z</time></trkpt>
<trkpt lat="48.16660666" lon="6.35975529"><ele>373.128906</ele><time>2008-03-02T09:07:53Z</time></trkpt>
<trkpt lat="48.16639066" lon="6.35965772"><ele>371.68689</ele><time>2008-03-02T09:07:58Z</time></trkpt>
<trkpt lat="48.16634330" lon="6.35967013"><ele>371.68689</ele><time>2008-03-02T09:07:59Z</time></trkpt>
<trkpt lat="48.16605689" lon="6.35980876"><ele>371.206299</ele><time>2008-03-02T09:08:06Z</time></trkpt>
<trkpt lat="48.16579244" lon="6.35995712"><ele>372.16748</ele><time>2008-03-02T09:08:14Z</time></trkpt>
<trkpt lat="48.16553889" lon="6.36010967"><ele>372.648193</ele><time>2008-03-02T09:08:21Z</time></trkpt>
<trkpt lat="48.16550109" lon="6.36014035"><ele>372.648193</ele><time>2008-03-02T09:08:22Z</time></trkpt>
<trkpt lat="48.16530579" lon="6.36037337"><ele>372.648193</ele><time>2008-03-02T09:08:28Z</time></trkpt>
<trkpt lat="48.16518257" lon="6.36053824"><ele>372.648193</ele><time>2008-03-02T09:08:32Z</time></trkpt>
<trkpt lat="48.16485484" lon="6.36093018"><ele>372.648193</ele><time>2008-03-02T09:08:42Z</time></trkpt>
<trkpt lat="48.16462534" lon="6.36125020"><ele>372.648193</ele><time>2008-03-02T09:08:49Z</time></trkpt>
<trkpt lat="48.16449098" lon="6.36140904"><ele>373.128906</ele><time>2008-03-02T09:08:53Z</time></trkpt>
<trkpt lat="48.16420365" lon="6.36166225"><ele>373.609497</ele><time>2008-03-02T09:09:01Z</time></trkpt>
<trkpt lat="48.16403216" lon="6.36187892"><ele>374.090088</ele><time>2008-03-02T09:09:06Z</time></trkpt>
<trkpt lat="48.16398027" lon="6.36198940"><ele>374.090088</ele><time>2008-03-02T09:09:08Z</time></trkpt>
<trkpt lat="48.16391733" lon="6.36224253"><ele>374.570801</ele><time>2008-03-02T09:09:12Z</time></trkpt>
<trkpt lat="48.16383812" lon="6.36284837"><ele>374.570801</ele><time>2008-03-02T09:09:21Z</time></trkpt>
<trkpt lat="48.16382890" lon="6.36291166"><ele>374.570801</ele><time>2008-03-02T09:09:22Z</time></trkpt>
<trkpt lat="48.16378732" lon="6.36341013"><ele>375.532104</ele><time>2008-03-02T09:09:30Z</time></trkpt>
<trkpt lat="48.16380736" lon="6.36380115"><ele>375.532104</ele><time>2008-03-02T09:09:36Z</time></trkpt>
<trkpt lat="48.16384206" lon="6.36412972"><ele>376.012817</ele><time>2008-03-02T09:09:40Z</time></trkpt>
<trkpt lat="48.16380585" lon="6.36446139"><ele>376.974243</ele><time>2008-03-02T09:09:44Z</time></trkpt>
<trkpt lat="48.16377014" lon="6.36461914"><ele>376.974243</ele><time>2008-03-02T09:09:46Z</time></trkpt>
<trkpt lat="48.16374583" lon="6.36493966"><ele>378.416138</ele><time>2008-03-02T09:09:51Z</time></trkpt>
<trkpt lat="48.16373427" lon="6.36499842"><ele>378.416138</ele><time>2008-03-02T09:09:52Z</time></trkpt>
<trkpt lat="48.16371943" lon="6.36541793"><ele>377.935425</ele><time>2008-03-02T09:09:58Z</time></trkpt>
<trkpt lat="48.16371448" lon="6.36550410"><ele>377.935425</ele><time>2008-03-02T09:09:59Z</time></trkpt>
<trkpt lat="48.16367375" lon="6.36612084"><ele>378.416138</ele><time>2008-03-02T09:10:06Z</time></trkpt>
<trkpt lat="48.16364433" lon="6.36674630"><ele>379.377441</ele><time>2008-03-02T09:10:13Z</time></trkpt>
<trkpt lat="48.16360133" lon="6.36706615"><ele>378.896851</ele><time>2008-03-02T09:10:17Z</time></trkpt>
<trkpt lat="48.16344970" lon="6.36767325"><ele>380.338745</ele><time>2008-03-02T09:10:24Z</time></trkpt>
<trkpt lat="48.16340167" lon="6.36790358"><ele>381.78064</ele><time>2008-03-02T09:10:27Z</time></trkpt>
<trkpt lat="48.16328298" lon="6.36807583"><ele>381.78064</ele><time>2008-03-02T09:10:31Z</time></trkpt>
<trkpt lat="48.16311719" lon="6.36806670"><ele>380.338745</ele><time>2008-03-02T09:10:35Z</time></trkpt>
<trkpt lat="48.16307830" lon="6.36803937"><ele>379.858032</ele><time>2008-03-02T09:10:36Z</time></trkpt>
<trkpt lat="48.16282759" lon="6.36800383"><ele>377.454834</ele><time>2008-03-02T09:10:45Z</time></trkpt>
<trkpt lat="48.16259617" lon="6.36796955"><ele>377.935425</ele><time>2008-03-02T09:10:53Z</time></trkpt>
<trkpt lat="48.16239693" lon="6.36792018"><ele>376.49353</ele><time>2008-03-02T09:11:01Z</time></trkpt>
<trkpt lat="48.16224229" lon="6.36786888"><ele>376.49353</ele><time>2008-03-02T09:11:07Z</time></trkpt>
<trkpt lat="48.16209678" lon="6.36781985"><ele>376.012817</ele><time>2008-03-02T09:11:13Z</time></trkpt>
<trkpt lat="48.16185387" lon="6.36777023"><ele>375.532104</ele><time>2008-03-02T09:11:23Z</time></trkpt>
<trkpt lat="48.16173309" lon="6.36777123"><ele>375.051514</ele><time>2008-03-02T09:11:28Z</time></trkpt>
<trkpt lat="48.16160702" lon="6.36777408"><ele>376.49353</ele><time>2008-03-02T09:11:33Z</time></trkpt>
<trkpt lat="48.16140435" lon="6.36777073"><ele>379.858032</ele><time>2008-03-02T09:11:41Z</time></trkpt>
<trkpt lat="48.16119966" lon="6.36778196"><ele>381.78064</ele><time>2008-03-02T09:11:49Z</time></trkpt>
<trkpt lat="48.16101618" lon="6.36777316"><ele>383.703247</ele><time>2008-03-02T09:11:56Z</time></trkpt>
<trkpt lat="48.16081124" lon="6.36771717"><ele>386.587402</ele><time>2008-03-02T09:12:04Z</time></trkpt>
<trkpt lat="48.16059885" lon="6.36762589"><ele>388.990601</ele><time>2008-03-02T09:12:12Z</time></trkpt>
<trkpt lat="48.16041713" lon="6.36755138"><ele>388.029297</ele><time>2008-03-02T09:12:19Z</time></trkpt>
<trkpt lat="48.16023574" lon="6.36750754"><ele>387.548584</ele><time>2008-03-02T09:12:26Z</time></trkpt>
<trkpt lat="48.16010968" lon="6.36744769"><ele>388.990601</ele><time>2008-03-02T09:12:32Z</time></trkpt>
<trkpt lat="48.15997599" lon="6.36736915"><ele>392.835938</ele><time>2008-03-02T09:12:38Z</time></trkpt>
<trkpt lat="48.15988286" lon="6.36729330"><ele>394.758545</ele><time>2008-03-02T09:12:43Z</time></trkpt>
<trkpt lat="48.15975839" lon="6.36715164"><ele>395.719849</ele><time>2008-03-02T09:12:50Z</time></trkpt>
<trkpt lat="48.15964255" lon="6.36695769"><ele>397.642456</ele><time>2008-03-02T09:12:58Z</time></trkpt>
<trkpt lat="48.15953745" lon="6.36679483"><ele>399.565063</ele><time>2008-03-02T09:13:04Z</time></trkpt>
<trkpt lat="48.15946268" lon="6.36665770"><ele>399.084351</ele><time>2008-03-02T09:13:08Z</time></trkpt>
<trkpt lat="48.15933670" lon="6.36651646"><ele>398.60376</ele><time>2008-03-02T09:13:13Z</time></trkpt>
<trkpt lat="48.15915196" lon="6.36640356"><ele>397.161743</ele><time>2008-03-02T09:13:18Z</time></trkpt>
<trkpt lat="48.15880747" lon="6.36632334"><ele>394.277954</ele><time>2008-03-02T09:13:25Z</time></trkpt>
<trkpt lat="48.15845878" lon="6.36628655"><ele>391.393799</ele><time>2008-03-02T09:13:31Z</time></trkpt>
<trkpt lat="48.15814915" lon="6.36630960"><ele>390.913208</ele><time>2008-03-02T09:13:37Z</time></trkpt>
<trkpt lat="48.15810054" lon="6.36630390"><ele>390.432617</ele><time>2008-03-02T09:13:38Z</time></trkpt>
<trkpt lat="48.15791437" lon="6.36627750"><ele>390.913208</ele><time>2008-03-02T09:13:42Z</time></trkpt>
<trkpt lat="48.15754423" lon="6.36615177"><ele>391.393799</ele><time>2008-03-02T09:13:50Z</time></trkpt>
<trkpt lat="48.15729998" lon="6.36614724"><ele>391.393799</ele><time>2008-03-02T09:13:55Z</time></trkpt>
<trkpt lat="48.15714307" lon="6.36620189"><ele>391.874512</ele><time>2008-03-02T09:13:59Z</time></trkpt>
<trkpt lat="48.15689413" lon="6.36625537"><ele>392.835938</ele><time>2008-03-02T09:14:05Z</time></trkpt>
<trkpt lat="48.15662792" lon="6.36637992"><ele>394.277954</ele><time>2008-03-02T09:14:12Z</time></trkpt>
<trkpt lat="48.15640052" lon="6.36643977"><ele>395.719849</ele><time>2008-03-02T09:14:19Z</time></trkpt>
<trkpt lat="48.15618678" lon="6.36643709"><ele>396.681152</ele><time>2008-03-02T09:14:25Z</time></trkpt>
<trkpt lat="48.15596784" lon="6.36637489"><ele>396.200562</ele><time>2008-03-02T09:14:31Z</time></trkpt>
<trkpt lat="48.15575268" lon="6.36633659"><ele>394.758545</ele><time>2008-03-02T09:14:37Z</time></trkpt>
<trkpt lat="48.15557314" lon="6.36637489"><ele>394.277954</ele><time>2008-03-02T09:14:42Z</time></trkpt>
<trkpt lat="48.15539318" lon="6.36648973"><ele>393.797241</ele><time>2008-03-02T09:14:47Z</time></trkpt>
<trkpt lat="48.15531146" lon="6.36654463"><ele>393.797241</ele><time>2008-03-02T09:14:49Z</time></trkpt>
<trkpt lat="48.15519193" lon="6.36671905"><ele>394.758545</ele><time>2008-03-02T09:14:53Z</time></trkpt>
<trkpt lat="48.15504114" lon="6.36705383"><ele>396.200562</ele><time>2008-03-02T09:15:01Z</time></trkpt>
<trkpt lat="48.15486252" lon="6.36732934"><ele>396.200562</ele><time>2008-03-02T09:15:08Z</time></trkpt>
<trkpt lat="48.15470318" lon="6.36746546"><ele>395.239136</ele><time>2008-03-02T09:15:13Z</time></trkpt>
<trkpt lat="48.15451476" lon="6.36743688"><ele>394.277954</ele><time>2008-03-02T09:15:18Z</time></trkpt>
<trkpt lat="48.15447712" lon="6.36742657"><ele>393.797241</ele><time>2008-03-02T09:15:19Z</time></trkpt>
<trkpt lat="48.15428794" lon="6.36721007"><ele>391.393799</ele><time>2008-03-02T09:15:24Z</time></trkpt>
<trkpt lat="48.15420513" lon="6.36707738"><ele>390.913208</ele><time>2008-03-02T09:15:26Z</time></trkpt>
<trkpt lat="48.15403473" lon="6.36669357"><ele>390.913208</ele><time>2008-03-02T09:15:31Z</time></trkpt>
<trkpt lat="48.15401863" lon="6.36643449"><ele>390.913208</ele><time>2008-03-02T09:15:35Z</time></trkpt>
<trkpt lat="48.15399776" lon="6.36630172"><ele>391.874512</ele><time>2008-03-02T09:15:38Z</time></trkpt>
<trkpt lat="48.15394403" lon="6.36609024"><ele>391.874512</ele><time>2008-03-02T09:15:44Z</time></trkpt>
<trkpt lat="48.15389399" lon="6.36587265"><ele>391.874512</ele><time>2008-03-02T09:15:48Z</time></trkpt>
<trkpt lat="48.15370549" lon="6.36538449"><ele>390.432617</ele><time>2008-03-02T09:15:55Z</time></trkpt>
<trkpt lat="48.15359283" lon="6.36512750"><ele>391.393799</ele><time>2008-03-02T09:15:58Z</time></trkpt>
<trkpt lat="48.15343106" lon="6.36463447"><ele>393.797241</ele><time>2008-03-02T09:16:03Z</time></trkpt>
<trkpt lat="48.15339846" lon="6.36454219"><ele>393.797241</ele><time>2008-03-02T09:16:04Z</time></trkpt>
<trkpt lat="48.15322922" lon="6.36403349"><ele>394.277954</ele><time>2008-03-02T09:16:10Z</time></trkpt>
<trkpt lat="48.15311657" lon="6.36367626"><ele>392.835938</ele><time>2008-03-02T09:16:15Z</time></trkpt>
<trkpt lat="48.15308665" lon="6.36347610"><ele>389.471191</ele><time>2008-03-02T09:16:18Z</time></trkpt>
<trkpt lat="48.15311247" lon="6.36311073"><ele>383.703247</ele><time>2008-03-02T09:16:22Z</time></trkpt>
<trkpt lat="48.15312076" lon="6.36295558"><ele>382.261353</ele><time>2008-03-02T09:16:24Z</time></trkpt>
<trkpt lat="48.15299294" lon="6.36279817"><ele>380.819458</ele><time>2008-03-02T09:16:28Z</time></trkpt>
<trkpt lat="48.15258667" lon="6.36283228"><ele>378.416138</ele><time>2008-03-02T09:16:37Z</time></trkpt>
<trkpt lat="48.15254166" lon="6.36285156"><ele>377.935425</ele><time>2008-03-02T09:16:38Z</time></trkpt>
<trkpt lat="48.15232507" lon="6.36308793"><ele>377.454834</ele><time>2008-03-02T09:16:44Z</time></trkpt>
<trkpt lat="48.15211225" lon="6.36362228"><ele>376.49353</ele><time>2008-03-02T09:16:53Z</time></trkpt>
<trkpt lat="48.15189550" lon="6.36408999"><ele>375.051514</ele><time>2008-03-02T09:17:00Z</time></trkpt>
<trkpt lat="48.15150968" lon="6.36489482"><ele>375.051514</ele><time>2008-03-02T09:17:11Z</time></trkpt>
<trkpt lat="48.15110575" lon="6.36578908"><ele>376.012817</ele><time>2008-03-02T09:17:23Z</time></trkpt>
<trkpt lat="48.15079923" lon="6.36644287"><ele>377.454834</ele><time>2008-03-02T09:17:33Z</time></trkpt>
<trkpt lat="48.15054283" lon="6.36694277"><ele>379.858032</ele><time>2008-03-02T09:17:42Z</time></trkpt>
<trkpt lat="48.15029816" lon="6.36728165"><ele>380.338745</ele><time>2008-03-02T09:17:50Z</time></trkpt>
<trkpt lat="48.15002265" lon="6.36748868"><ele>380.819458</ele><time>2008-03-02T09:17:58Z</time></trkpt>
<trkpt lat="48.14970397" lon="6.36768297"><ele>380.819458</ele><time>2008-03-02T09:18:06Z</time></trkpt>
<trkpt lat="48.14928546" lon="6.36799864"><ele>381.300049</ele><time>2008-03-02T09:18:16Z</time></trkpt>
<trkpt lat="48.14889276" lon="6.36840172"><ele>381.300049</ele><time>2008-03-02T09:18:26Z</time></trkpt>
<trkpt lat="48.14866888" lon="6.36864413"><ele>381.300049</ele><time>2008-03-02T09:18:32Z</time></trkpt>
<trkpt lat="48.14851684" lon="6.36869936"><ele>380.338745</ele><time>2008-03-02T09:18:36Z</time></trkpt>
<trkpt lat="48.14841474" lon="6.36859207"><ele>379.377441</ele><time>2008-03-02T09:18:39Z</time></trkpt>
<trkpt lat="48.14811870" lon="6.36827675"><ele>378.416138</ele><time>2008-03-02T09:18:47Z</time></trkpt>
<trkpt lat="48.14778702" lon="6.36799914"><ele>378.416138</ele><time>2008-03-02T09:18:55Z</time></trkpt>
<trkpt lat="48.14766306" lon="6.36792538"><ele>378.416138</ele><time>2008-03-02T09:18:58Z</time></trkpt>
<trkpt lat="48.14743658" lon="6.36774005"><ele>378.416138</ele><time>2008-03-02T09:19:05Z</time></trkpt>
<trkpt lat="48.14732585" lon="6.36755942"><ele>378.896851</ele><time>2008-03-02T09:19:12Z</time></trkpt>
<trkpt lat="48.14727237" lon="6.36744987"><ele>379.377441</ele><time>2008-03-02T09:19:16Z</time></trkpt>
<trkpt lat="48.14721068" lon="6.36730922"><ele>379.858032</ele><time>2008-03-02T09:19:21Z</time></trkpt>
<trkpt lat="48.14714924" lon="6.36703338"><ele>382.261353</ele><time>2008-03-02T09:19:29Z</time></trkpt>
<trkpt lat="48.14711496" lon="6.36677354"><ele>383.222656</ele><time>2008-03-02T09:19:36Z</time></trkpt>
<trkpt lat="48.14708495" lon="6.36645704"><ele>385.625977</ele><time>2008-03-02T09:19:45Z</time></trkpt>
<trkpt lat="48.14703307" lon="6.36615227"><ele>388.029297</ele><time>2008-03-02T09:19:54Z</time></trkpt>
<trkpt lat="48.14692402" lon="6.36610877"><ele>389.471191</ele><time>2008-03-02T09:19:59Z</time></trkpt>
<trkpt lat="48.14677055" lon="6.36624003"><ele>390.913208</ele><time>2008-03-02T09:20:06Z</time></trkpt>
<trkpt lat="48.14656972" lon="6.36632737"><ele>391.393799</ele><time>2008-03-02T09:20:13Z</time></trkpt>
<trkpt lat="48.14629345" lon="6.36634983"><ele>391.874512</ele><time>2008-03-02T09:20:22Z</time></trkpt>
<trkpt lat="48.14599246" lon="6.36640448"><ele>392.835938</ele><time>2008-03-02T09:20:32Z</time></trkpt>
<trkpt lat="48.14576975" lon="6.36649417"><ele>392.835938</ele><time>2008-03-02T09:20:39Z</time></trkpt>
<trkpt lat="48.14551452" lon="6.36656617"><ele>391.874512</ele><time>2008-03-02T09:20:45Z</time></trkpt>
<trkpt lat="48.14519333" lon="6.36659039"><ele>390.913208</ele><time>2008-03-02T09:20:51Z</time></trkpt>
<trkpt lat="48.14499065" lon="6.36673322"><ele>389.951904</ele><time>2008-03-02T09:20:55Z</time></trkpt>
<trkpt lat="48.14491379" lon="6.36684939"><ele>389.951904</ele><time>2008-03-02T09:20:57Z</time></trkpt>
<trkpt lat="48.14470785" lon="6.36739187"><ele>390.432617</ele><time>2008-03-02T09:21:06Z</time></trkpt>
<trkpt lat="48.14456628" lon="6.36773134"><ele>390.432617</ele><time>2008-03-02T09:21:13Z</time></trkpt>
<trkpt lat="48.14439646" lon="6.36790887"><ele>389.951904</ele><time>2008-03-02T09:21:19Z</time></trkpt>
<trkpt lat="48.14413595" lon="6.36809025"><ele>389.951904</ele><time>2008-03-02T09:21:27Z</time></trkpt>
<trkpt lat="48.14391492" lon="6.36826317"><ele>390.913208</ele><time>2008-03-02T09:21:34Z</time></trkpt>
<trkpt lat="48.14380956" lon="6.36850876"><ele>393.316528</ele><time>2008-03-02T09:21:40Z</time></trkpt>
<trkpt lat="48.14372717" lon="6.36889634"><ele>394.277954</ele><time>2008-03-02T09:21:48Z</time></trkpt>
<trkpt lat="48.14371736" lon="6.36895023"><ele>393.797241</ele><time>2008-03-02T09:21:49Z</time></trkpt>
<trkpt lat="48.14362960" lon="6.36943898"><ele>392.355347</ele><time>2008-03-02T09:21:56Z</time></trkpt>
<trkpt lat="48.14359616" lon="6.36959170"><ele>391.393799</ele><time>2008-03-02T09:21:58Z</time></trkpt>
<trkpt lat="48.14344469" lon="6.36982430"><ele>390.913208</ele><time>2008-03-02T09:22:02Z</time></trkpt>
<trkpt lat="48.14338904" lon="6.36985464"><ele>390.913208</ele><time>2008-03-02T09:22:03Z</time></trkpt>
<trkpt lat="48.14291362" lon="6.37002597"><ele>390.432617</ele><time>2008-03-02T09:22:11Z</time></trkpt>
<trkpt lat="48.14240433" lon="6.37026049"><ele>392.835938</ele><time>2008-03-02T09:22:19Z</time></trkpt>
<trkpt lat="48.14222295" lon="6.37046518"><ele>394.758545</ele><time>2008-03-02T09:22:24Z</time></trkpt>
<trkpt lat="48.14220803" lon="6.37051178"><ele>395.239136</ele><time>2008-03-02T09:22:25Z</time></trkpt>
<trkpt lat="48.14206042" lon="6.37088327"><ele>397.161743</ele><time>2008-03-02T09:22:35Z</time></trkpt>
<trkpt lat="48.14189563" lon="6.37099885"><ele>398.123169</ele><time>2008-03-02T09:22:42Z</time></trkpt>
<trkpt lat="48.14167972" lon="6.37106733"><ele>398.60376</ele><time>2008-03-02T09:22:50Z</time></trkpt>
<trkpt lat="48.14140244" lon="6.37106264"><ele>398.123169</ele><time>2008-03-02T09:22:58Z</time></trkpt>
<trkpt lat="48.14103515" lon="6.37097362"><ele>396.681152</ele><time>2008-03-02T09:23:06Z</time></trkpt>
<trkpt lat="48.14070909" lon="6.37083549"><ele>394.758545</ele><time>2008-03-02T09:23:12Z</time></trkpt>
<trkpt lat="48.14048354" lon="6.37066584"><ele>393.316528</ele><time>2008-03-02T09:23:16Z</time></trkpt>
<trkpt lat="48.14017734" lon="6.37060725"><ele>392.355347</ele><time>2008-03-02T09:23:21Z</time></trkpt>
<trkpt lat="48.13997224" lon="6.37062896"><ele>392.355347</ele><time>2008-03-02T09:23:26Z</time></trkpt>
<trkpt lat="48.13980360" lon="6.37062477"><ele>393.797241</ele><time>2008-03-02T09:23:32Z</time></trkpt>
<trkpt lat="48.13962137" lon="6.37067196"><ele>395.239136</ele><time>2008-03-02T09:23:38Z</time></trkpt>
<trkpt lat="48.13942323" lon="6.37082174"><ele>398.123169</ele><time>2008-03-02T09:23:45Z</time></trkpt>
<trkpt lat="48.13922734" lon="6.37105275"><ele>400.045898</ele><time>2008-03-02T09:23:53Z</time></trkpt>
<trkpt lat="48.13906414" lon="6.37110740"><ele>398.60376</ele><time>2008-03-02T09:23:57Z</time></trkpt>
<trkpt lat="48.13886843" lon="6.37117127"><ele>397.161743</ele><time>2008-03-02T09:24:01Z</time></trkpt>
<trkpt lat="48.13868453" lon="6.37134704"><ele>396.681152</ele><time>2008-03-02T09:24:05Z</time></trkpt>
<trkpt lat="48.13849594" lon="6.37158198"><ele>397.642456</ele><time>2008-03-02T09:24:10Z</time></trkpt>
<trkpt lat="48.13830273" lon="6.37166412"><ele>397.161743</ele><time>2008-03-02T09:24:14Z</time></trkpt>
<trkpt lat="48.13824766" lon="6.37167016"><ele>397.161743</ele><time>2008-03-02T09:24:15Z</time></trkpt>
<trkpt lat="48.13802219" lon="6.37168994"><ele>397.642456</ele><time>2008-03-02T09:24:19Z</time></trkpt>
<trkpt lat="48.13785464" lon="6.37174442"><ele>397.161743</ele><time>2008-03-02T09:24:22Z</time></trkpt>
<trkpt lat="48.13761257" lon="6.37200242"><ele>399.565063</ele><time>2008-03-02T09:24:27Z</time></trkpt>
<trkpt lat="48.13760360" lon="6.37228698"><ele>401.00708</ele><time>2008-03-02T09:24:30Z</time></trkpt>
<trkpt lat="48.13765037" lon="6.37243115"><ele>400.526489</ele><time>2008-03-02T09:24:32Z</time></trkpt>
<trkpt lat="48.13775715" lon="6.37266048"><ele>399.565063</ele><time>2008-03-02T09:24:37Z</time></trkpt>
<trkpt lat="48.13789529" lon="6.37297447"><ele>399.084351</ele><time>2008-03-02T09:24:44Z</time></trkpt>
<trkpt lat="48.13796997" lon="6.37321469"><ele>401.00708</ele><time>2008-03-02T09:24:49Z</time></trkpt>
<trkpt lat="48.13797559" lon="6.37361728"><ele>402.449097</ele><time>2008-03-02T09:24:57Z</time></trkpt>
<trkpt lat="48.13786059" lon="6.37386622"><ele>401.968506</ele><time>2008-03-02T09:25:03Z</time></trkpt>
<trkpt lat="48.13768507" lon="6.37402749"><ele>402.449097</ele><time>2008-03-02T09:25:10Z</time></trkpt>
<trkpt lat="48.13739539" lon="6.37416897"><ele>404.371704</ele><time>2008-03-02T09:25:20Z</time></trkpt>
<trkpt lat="48.13713983" lon="6.37425623"><ele>404.852295</ele><time>2008-03-02T09:25:27Z</time></trkpt>
<trkpt lat="48.13680824" lon="6.37432278"><ele>405.813721</ele><time>2008-03-02T09:25:36Z</time></trkpt>
<trkpt lat="48.13657405" lon="6.37435338"><ele>405.813721</ele><time>2008-03-02T09:25:42Z</time></trkpt>
<trkpt lat="48.13626149" lon="6.37452856"><ele>403.891113</ele><time>2008-03-02T09:25:49Z</time></trkpt>
<trkpt lat="48.13605496" lon="6.37477046"><ele>401.968506</ele><time>2008-03-02T09:25:54Z</time></trkpt>
<trkpt lat="48.13596158" lon="6.37487859"><ele>401.00708</ele><time>2008-03-02T09:25:57Z</time></trkpt>
<trkpt lat="48.13580987" lon="6.37484154"><ele>400.526489</ele><time>2008-03-02T09:26:01Z</time></trkpt>
<trkpt lat="48.13562195" lon="6.37467876"><ele>400.045898</ele><time>2008-03-02T09:26:07Z</time></trkpt>
<trkpt lat="48.13541332" lon="6.37470282"><ele>399.084351</ele><time>2008-03-02T09:26:12Z</time></trkpt>
<trkpt lat="48.13533420" lon="6.37485939"><ele>398.60376</ele><time>2008-03-02T09:26:16Z</time></trkpt>
<trkpt lat="48.13531140" lon="6.37494028"><ele>399.565063</ele><time>2008-03-02T09:26:18Z</time></trkpt>
<trkpt lat="48.13516187" lon="6.37519542"><ele>400.045898</ele><time>2008-03-02T09:26:24Z</time></trkpt>
<trkpt lat="48.13498283" lon="6.37540648"><ele>401.968506</ele><time>2008-03-02T09:26:30Z</time></trkpt>
<trkpt lat="48.13488333" lon="6.37553732"><ele>402.929688</ele><time>2008-03-02T09:26:34Z</time></trkpt>
<trkpt lat="48.13467689" lon="6.37568635"><ele>404.852295</ele><time>2008-03-02T09:26:41Z</time></trkpt>
<trkpt lat="48.13458620" lon="6.37569842"><ele>405.333008</ele><time>2008-03-02T09:26:46Z</time></trkpt>
<trkpt lat="48.13449232" lon="6.37568425"><ele>404.371704</ele><time>2008-03-02T09:26:51Z</time></trkpt>
<trkpt lat="48.13438319" lon="6.37567386"><ele>406.294312</ele><time>2008-03-02T09:26:58Z</time></trkpt>
<trkpt lat="48.13427598" lon="6.37573396"><ele>407.736328</ele><time>2008-03-02T09:27:04Z</time></trkpt>
<trkpt lat="48.13407943" lon="6.37585868"><ele>407.255615</ele><time>2008-03-02T09:27:12Z</time></trkpt>
<trkpt lat="48.13405193" lon="6.37591442"><ele>407.736328</ele><time>2008-03-02T09:27:14Z</time></trkpt>
<trkpt lat="48.13405554" lon="6.37607309"><ele>410.139648</ele><time>2008-03-02T09:27:18Z</time></trkpt>
<trkpt lat="48.13415604" lon="6.37624408"><ele>410.620239</ele><time>2008-03-02T09:27:24Z</time></trkpt>
<trkpt lat="48.13431504" lon="6.37636696"><ele>410.620239</ele><time>2008-03-02T09:27:29Z</time></trkpt>
<trkpt lat="48.13439660" lon="6.37656570"><ele>407.255615</ele><time>2008-03-02T09:27:33Z</time></trkpt>
<trkpt lat="48.13440842" lon="6.37662839"><ele>407.255615</ele><time>2008-03-02T09:27:34Z</time></trkpt>
<trkpt lat="48.13436735" lon="6.37690147"><ele>408.217041</ele><time>2008-03-02T09:27:38Z</time></trkpt>
<trkpt lat="48.13424740" lon="6.37714413"><ele>405.813721</ele><time>2008-03-02T09:27:43Z</time></trkpt>
<trkpt lat="48.13413114" lon="6.37752006"><ele>411.581665</ele><time>2008-03-02T09:27:50Z</time></trkpt>
<trkpt lat="48.13401757" lon="6.37776598"><ele>412.542847</ele><time>2008-03-02T09:27:56Z</time></trkpt>
<trkpt lat="48.13387214" lon="6.37804887"><ele>413.984863</ele><time>2008-03-02T09:28:03Z</time></trkpt>
<trkpt lat="48.13387239" lon="6.37809254"><ele>412.542847</ele><time>2008-03-02T09:28:04Z</time></trkpt>
<trkpt lat="48.13397826" lon="6.37817469"><ele>409.659058</ele><time>2008-03-02T09:28:08Z</time></trkpt>
<trkpt lat="48.13414112" lon="6.37820754"><ele>411.100952</ele><time>2008-03-02T09:28:14Z</time></trkpt>
<trkpt lat="48.13422703" lon="6.37824962"><ele>412.062256</ele><time>2008-03-02T09:28:21Z</time></trkpt>
<trkpt lat="48.13427095" lon="6.37828348"><ele>415.907471</ele><time>2008-03-02T09:28:26Z</time></trkpt>
<trkpt lat="48.13433424" lon="6.37837266"><ele>418.791504</ele><time>2008-03-02T09:28:34Z</time></trkpt>
<trkpt lat="48.13434153" lon="6.37838507"><ele>418.791504</ele><time>2008-03-02T09:28:35Z</time></trkpt>
<trkpt lat="48.13441990" lon="6.37851558"><ele>420.233398</ele><time>2008-03-02T09:28:43Z</time></trkpt>
<trkpt lat="48.13447346" lon="6.37866167"><ele>418.310791</ele><time>2008-03-02T09:28:51Z</time></trkpt>
<trkpt lat="48.13449902" lon="6.37880123"><ele>417.349609</ele><time>2008-03-02T09:28:58Z</time></trkpt>
<trkpt lat="48.13456172" lon="6.37897424"><ele>416.868896</ele><time>2008-03-02T09:29:05Z</time></trkpt>
<trkpt lat="48.13459927" lon="6.37913969"><ele>416.388184</ele><time>2008-03-02T09:29:12Z</time></trkpt>
<trkpt lat="48.13465157" lon="6.37930909"><ele>419.752808</ele><time>2008-03-02T09:29:20Z</time></trkpt>
<trkpt lat="48.13467647" lon="6.37940272"><ele>420.714111</ele><time>2008-03-02T09:29:25Z</time></trkpt>
<trkpt lat="48.13472148" lon="6.37953532"><ele>420.233398</ele><time>2008-03-02T09:29:32Z</time></trkpt>
<trkpt lat="48.13472492" lon="6.37963439"><ele>422.156006</ele><time>2008-03-02T09:29:37Z</time></trkpt>
<trkpt lat="48.13462584" lon="6.37982240"><ele>427.92395</ele><time>2008-03-02T09:29:46Z</time></trkpt>
<trkpt lat="48.13454546" lon="6.37998576"><ele>426.962769</ele><time>2008-03-02T09:29:53Z</time></trkpt>
<trkpt lat="48.13450933" lon="6.38007696"><ele>429.846558</ele><time>2008-03-02T09:29:56Z</time></trkpt>
<trkpt lat="48.13439794" lon="6.38025390"><ele>437.056519</ele><time>2008-03-02T09:30:03Z</time></trkpt>
<trkpt lat="48.13428344" lon="6.38037887"><ele>439.459717</ele><time>2008-03-02T09:30:11Z</time></trkpt>
<trkpt lat="48.13416048" lon="6.38047569"><ele>438.017822</ele><time>2008-03-02T09:30:20Z</time></trkpt>
<trkpt lat="48.13404230" lon="6.38058079"><ele>437.537109</ele><time>2008-03-02T09:30:27Z</time></trkpt>
<trkpt lat="48.13396954" lon="6.38066730"><ele>438.498535</ele><time>2008-03-02T09:30:32Z</time></trkpt>
<trkpt lat="48.13392042" lon="6.38063377"><ele>438.017822</ele><time>2008-03-02T09:30:36Z</time></trkpt>
<trkpt lat="48.13382789" lon="6.38044056"><ele>437.537109</ele><time>2008-03-02T09:30:42Z</time></trkpt>
<trkpt lat="48.13369696" lon="6.38025063"><ele>436.095215</ele><time>2008-03-02T09:30:47Z</time></trkpt>
<trkpt lat="48.13354382" lon="6.38008090"><ele>435.614502</ele><time>2008-03-02T09:30:51Z</time></trkpt>
<trkpt lat="48.13334442" lon="6.37987294"><ele>435.614502</ele><time>2008-03-02T09:30:56Z</time></trkpt>
<trkpt lat="48.13321576" lon="6.37970497"><ele>436.095215</ele><time>2008-03-02T09:31:00Z</time></trkpt>
<trkpt lat="48.13304619" lon="6.37952325"><ele>435.614502</ele><time>2008-03-02T09:31:05Z</time></trkpt>
<trkpt lat="48.13290990" lon="6.37931722"><ele>436.575928</ele><time>2008-03-02T09:31:10Z</time></trkpt>
<trkpt lat="48.13280018" lon="6.37910348"><ele>437.537109</ele><time>2008-03-02T09:31:15Z</time></trkpt>
<trkpt lat="48.13273388" lon="6.37893945"><ele>439.459717</ele><time>2008-03-02T09:31:20Z</time></trkpt>
<trkpt lat="48.13265383" lon="6.37875052"><ele>442.343872</ele><time>2008-03-02T09:31:25Z</time></trkpt>
<trkpt lat="48.13259047" lon="6.37854257"><ele>443.785767</ele><time>2008-03-02T09:31:30Z</time></trkpt>
<trkpt lat="48.13252886" lon="6.37824987"><ele>445.708374</ele><time>2008-03-02T09:31:37Z</time></trkpt>
<trkpt lat="48.13244378" lon="6.37799607"><ele>447.630981</ele><time>2008-03-02T09:31:44Z</time></trkpt>
<trkpt lat="48.13237664" lon="6.37777302"><ele>450.515015</ele><time>2008-03-02T09:31:50Z</time></trkpt>
<trkpt lat="48.13224329" lon="6.37741369"><ele>451.476318</ele><time>2008-03-02T09:31:59Z</time></trkpt>
<trkpt lat="48.13218637" lon="6.37716986"><ele>451.476318</ele><time>2008-03-02T09:32:05Z</time></trkpt>
<trkpt lat="48.13213575" lon="6.37696987"><ele>451.476318</ele><time>2008-03-02T09:32:10Z</time></trkpt>
<trkpt lat="48.13219828" lon="6.37680190"><ele>452.437622</ele><time>2008-03-02T09:32:16Z</time></trkpt>
<trkpt lat="48.13231160" lon="6.37661875"><ele>452.918213</ele><time>2008-03-02T09:32:22Z</time></trkpt>
<trkpt lat="48.13240347" lon="6.37642454"><ele>451.476318</ele><time>2008-03-02T09:32:27Z</time></trkpt>
<trkpt lat="48.13252450" lon="6.37616546"><ele>449.553711</ele><time>2008-03-02T09:32:33Z</time></trkpt>
<trkpt lat="48.13266263" lon="6.37576363"><ele>448.592407</ele><time>2008-03-02T09:32:41Z</time></trkpt>
<trkpt lat="48.13271762" lon="6.37542559"><ele>449.072998</ele><time>2008-03-02T09:32:47Z</time></trkpt>
<trkpt lat="48.13272902" lon="6.37511252"><ele>447.630981</ele><time>2008-03-02T09:32:52Z</time></trkpt>
<trkpt lat="48.13272667" lon="6.37490499"><ele>447.150269</ele><time>2008-03-02T09:32:55Z</time></trkpt>
<trkpt lat="48.13270153" lon="6.37448849"><ele>446.669678</ele><time>2008-03-02T09:33:01Z</time></trkpt>
<trkpt lat="48.13268619" lon="6.37413226"><ele>444.74707</ele><time>2008-03-02T09:33:06Z</time></trkpt>
<trkpt lat="48.13268946" lon="6.37398004"><ele>444.266479</ele><time>2008-03-02T09:33:08Z</time></trkpt>
<trkpt lat="48.13271309" lon="6.37376564"><ele>443.305054</ele><time>2008-03-02T09:33:11Z</time></trkpt>
<trkpt lat="48.13283002" lon="6.37320287"><ele>440.421265</ele><time>2008-03-02T09:33:19Z</time></trkpt>
<trkpt lat="48.13297712" lon="6.37282804"><ele>440.901855</ele><time>2008-03-02T09:33:25Z</time></trkpt>
<trkpt lat="48.13311316" lon="6.37262696"><ele>440.901855</ele><time>2008-03-02T09:33:29Z</time></trkpt>
<trkpt lat="48.13318717" lon="6.37253635"><ele>441.382446</ele><time>2008-03-02T09:33:31Z</time></trkpt>
<trkpt lat="48.13347568" lon="6.37220208"><ele>441.382446</ele><time>2008-03-02T09:33:39Z</time></trkpt>
<trkpt lat="48.13351566" lon="6.37215924"><ele>441.382446</ele><time>2008-03-02T09:33:40Z</time></trkpt>
<trkpt lat="48.13374113" lon="6.37185205"><ele>440.421265</ele><time>2008-03-02T09:33:46Z</time></trkpt>
<trkpt lat="48.13392067" lon="6.37141049"><ele>439.459717</ele><time>2008-03-02T09:33:52Z</time></trkpt>
<trkpt lat="48.13411647" lon="6.37054958"><ele>437.537109</ele><time>2008-03-02T09:34:02Z</time></trkpt>
<trkpt lat="48.13417146" lon="6.37027575"><ele>437.056519</ele><time>2008-03-02T09:34:05Z</time></trkpt>
<trkpt lat="48.13440666" lon="6.36966454"><ele>435.614502</ele><time>2008-03-02T09:34:13Z</time></trkpt>
<trkpt lat="48.13458083" lon="6.36932993"><ele>436.095215</ele><time>2008-03-02T09:34:19Z</time></trkpt>
<trkpt lat="48.13452392" lon="6.36927185"><ele>436.095215</ele><time>2008-03-02T09:34:23Z</time></trkpt>
<trkpt lat="48.13437346" lon="6.36927126"><ele>436.095215</ele><time>2008-03-02T09:34:28Z</time></trkpt>
<trkpt lat="48.13423575" lon="6.36918493"><ele>435.133911</ele><time>2008-03-02T09:34:32Z</time></trkpt>
<trkpt lat="48.13390626" lon="6.36904025"><ele>432.25</ele><time>2008-03-02T09:34:39Z</time></trkpt>
<trkpt lat="48.13367760" lon="6.36894043"><ele>431.288574</ele><time>2008-03-02T09:34:43Z</time></trkpt>
<trkpt lat="48.13349739" lon="6.36886608"><ele>429.365967</ele><time>2008-03-02T09:34:46Z</time></trkpt>
<trkpt lat="48.13316555" lon="6.36871554"><ele>426.001343</ele><time>2008-03-02T09:34:51Z</time></trkpt>
<trkpt lat="48.13276296" lon="6.36850398"><ele>421.675415</ele><time>2008-03-02T09:34:56Z</time></trkpt>
<trkpt lat="48.13268308" lon="6.36846458"><ele>421.194824</ele><time>2008-03-02T09:34:57Z</time></trkpt>
<trkpt lat="48.13251796" lon="6.36840574"><ele>420.714111</ele><time>2008-03-02T09:34:59Z</time></trkpt>
<trkpt lat="48.13210842" lon="6.36821363"><ele>418.791504</ele><time>2008-03-02T09:35:04Z</time></trkpt>
<trkpt lat="48.13173543" lon="6.36805412"><ele>418.310791</ele><time>2008-03-02T09:35:09Z</time></trkpt>
<trkpt lat="48.13135698" lon="6.36803795"><ele>416.388184</ele><time>2008-03-02T09:35:14Z</time></trkpt>
<trkpt lat="48.13128758" lon="6.36805873"><ele>415.907471</ele><time>2008-03-02T09:35:15Z</time></trkpt>
<trkpt lat="48.13096723" lon="6.36815152"><ele>415.42688</ele><time>2008-03-02T09:35:20Z</time></trkpt>
<trkpt lat="48.13074033" lon="6.36821623"><ele>415.42688</ele><time>2008-03-02T09:35:24Z</time></trkpt>
<trkpt lat="48.13048216" lon="6.36829343"><ele>416.388184</ele><time>2008-03-02T09:35:29Z</time></trkpt>
<trkpt lat="48.13043330" lon="6.36831245"><ele>416.868896</ele><time>2008-03-02T09:35:30Z</time></trkpt>
<trkpt lat="48.13016499" lon="6.36833718"><ele>418.791504</ele><time>2008-03-02T09:35:36Z</time></trkpt>
<trkpt lat="48.12997095" lon="6.36831874"><ele>419.272217</ele><time>2008-03-02T09:35:40Z</time></trkpt>
<trkpt lat="48.12973056" lon="6.36829452"><ele>420.233398</ele><time>2008-03-02T09:35:45Z</time></trkpt>
<trkpt lat="48.12950567" lon="6.36825864"><ele>421.194824</ele><time>2008-03-02T09:35:50Z</time></trkpt>
<trkpt lat="48.12924173" lon="6.36824314"><ele>421.194824</ele><time>2008-03-02T09:35:56Z</time></trkpt>
<trkpt lat="48.12912354" lon="6.36821816"><ele>421.194824</ele><time>2008-03-02T09:35:59Z</time></trkpt>
<trkpt lat="48.12879724" lon="6.36813593"><ele>420.714111</ele><time>2008-03-02T09:36:06Z</time></trkpt>
<trkpt lat="48.12849892" lon="6.36806628"><ele>420.233398</ele><time>2008-03-02T09:36:13Z</time></trkpt>
<trkpt lat="48.12816650" lon="6.36801884"><ele>420.233398</ele><time>2008-03-02T09:36:21Z</time></trkpt>
<trkpt lat="48.12787816" lon="6.36797525"><ele>419.272217</ele><time>2008-03-02T09:36:28Z</time></trkpt>
<trkpt lat="48.12765478" lon="6.36801389"><ele>421.675415</ele><time>2008-03-02T09:36:34Z</time></trkpt>
<trkpt lat="48.12741062" lon="6.36813182"><ele>421.194824</ele><time>2008-03-02T09:36:41Z</time></trkpt>
<trkpt lat="48.12710887" lon="6.36829435"><ele>419.272217</ele><time>2008-03-02T09:36:49Z</time></trkpt>
<trkpt lat="48.12695540" lon="6.36836224"><ele>417.8302</ele><time>2008-03-02T09:36:52Z</time></trkpt>
<trkpt lat="48.12667477" lon="6.36860322"><ele>416.388184</ele><time>2008-03-02T09:36:58Z</time></trkpt>
<trkpt lat="48.12637428" lon="6.36888192"><ele>417.8302</ele><time>2008-03-02T09:37:05Z</time></trkpt>
<trkpt lat="48.12616993" lon="6.36896549"><ele>418.310791</ele><time>2008-03-02T09:37:10Z</time></trkpt>
<trkpt lat="48.12612835" lon="6.36894302"><ele>418.310791</ele><time>2008-03-02T09:37:11Z</time></trkpt>
<trkpt lat="48.12568680" lon="6.36862652"><ele>418.310791</ele><time>2008-03-02T09:37:21Z</time></trkpt>
<trkpt lat="48.12559568" lon="6.36855620"><ele>418.310791</ele><time>2008-03-02T09:37:23Z</time></trkpt>
<trkpt lat="48.12534783" lon="6.36852779"><ele>418.791504</ele><time>2008-03-02T09:37:28Z</time></trkpt>
<trkpt lat="48.12529796" lon="6.36854145"><ele>418.791504</ele><time>2008-03-02T09:37:29Z</time></trkpt>
<trkpt lat="48.12503125" lon="6.36874965"><ele>419.752808</ele><time>2008-03-02T09:37:35Z</time></trkpt>
<trkpt lat="48.12476738" lon="6.36906565"><ele>421.194824</ele><time>2008-03-02T09:37:42Z</time></trkpt>
<trkpt lat="48.12463663" lon="6.36925609"><ele>422.156006</ele><time>2008-03-02T09:37:46Z</time></trkpt>
<trkpt lat="48.12445005" lon="6.36955080"><ele>423.598022</ele><time>2008-03-02T09:37:52Z</time></trkpt>
<trkpt lat="48.12426397" lon="6.36992513"><ele>427.92395</ele><time>2008-03-02T09:37:59Z</time></trkpt>
<trkpt lat="48.12421150" lon="6.37015186"><ele>430.807983</ele><time>2008-03-02T09:38:03Z</time></trkpt>
<trkpt lat="48.12422348" lon="6.37055797"><ele>435.614502</ele><time>2008-03-02T09:38:10Z</time></trkpt>
<trkpt lat="48.12429582" lon="6.37082602"><ele>433.691895</ele><time>2008-03-02T09:38:15Z</time></trkpt>
<trkpt lat="48.12438366" lon="6.37107639"><ele>431.769165</ele><time>2008-03-02T09:38:20Z</time></trkpt>
<trkpt lat="48.12447502" lon="6.37133522"><ele>432.730713</ele><time>2008-03-02T09:38:25Z</time></trkpt>
<trkpt lat="48.12451266" lon="6.37166706"><ele>433.691895</ele><time>2008-03-02T09:38:31Z</time></trkpt>
<trkpt lat="48.12448994" lon="6.37192296"><ele>435.133911</ele><time>2008-03-02T09:38:36Z</time></trkpt>
<trkpt lat="48.12442012" lon="6.37217090"><ele>435.133911</ele><time>2008-03-02T09:38:41Z</time></trkpt>
<trkpt lat="48.12432675" lon="6.37246627"><ele>436.095215</ele><time>2008-03-02T09:38:47Z</time></trkpt>
<trkpt lat="48.12423488" lon="6.37275495"><ele>439.459717</ele><time>2008-03-02T09:38:53Z</time></trkpt>
<trkpt lat="48.12412265" lon="6.37306172"><ele>443.785767</ele><time>2008-03-02T09:38:59Z</time></trkpt>
<trkpt lat="48.12400899" lon="6.37335300"><ele>444.74707</ele><time>2008-03-02T09:39:05Z</time></trkpt>
<trkpt lat="48.12386365" lon="6.37353949"><ele>441.863159</ele><time>2008-03-02T09:39:11Z</time></trkpt>
<trkpt lat="48.12363926" lon="6.37370889"><ele>440.421265</ele><time>2008-03-02T09:39:18Z</time></trkpt>
<trkpt lat="48.12340792" lon="6.37388567"><ele>438.979126</ele><time>2008-03-02T09:39:25Z</time></trkpt>
<trkpt lat="48.12317742" lon="6.37404350"><ele>438.498535</ele><time>2008-03-02T09:39:32Z</time></trkpt>
<trkpt lat="48.12305044" lon="6.37406537"><ele>438.498535</ele><time>2008-03-02T09:39:36Z</time></trkpt>
<trkpt lat="48.12283804" lon="6.37404987"><ele>437.056519</ele><time>2008-03-02T09:39:42Z</time></trkpt>
<trkpt lat="48.12266143" lon="6.37403604"><ele>435.133911</ele><time>2008-03-02T09:39:47Z</time></trkpt>
<trkpt lat="48.12246982" lon="6.37409555"><ele>434.65332</ele><time>2008-03-02T09:39:53Z</time></trkpt>
<trkpt lat="48.12225449" lon="6.37421222"><ele>436.575928</ele><time>2008-03-02T09:40:00Z</time></trkpt>
<trkpt lat="48.12203279" lon="6.37426763"><ele>436.575928</ele><time>2008-03-02T09:40:07Z</time></trkpt>
<trkpt lat="48.12177865" lon="6.37422857"><ele>437.056519</ele><time>2008-03-02T09:40:15Z</time></trkpt>
<trkpt lat="48.12150800" lon="6.37409287"><ele>438.017822</ele><time>2008-03-02T09:40:24Z</time></trkpt>
<trkpt lat="48.12127842" lon="6.37397544"><ele>438.979126</ele><time>2008-03-02T09:40:32Z</time></trkpt>
<trkpt lat="48.12100324" lon="6.37384677"><ele>440.421265</ele><time>2008-03-02T09:40:42Z</time></trkpt>
<trkpt lat="48.12063963" lon="6.37374678"><ele>441.382446</ele><time>2008-03-02T09:40:55Z</time></trkpt>
<trkpt lat="48.12041240" lon="6.37370319"><ele>441.863159</ele><time>2008-03-02T09:41:03Z</time></trkpt>
<trkpt lat="48.12013848" lon="6.37363228"><ele>442.343872</ele><time>2008-03-02T09:41:12Z</time></trkpt>
<trkpt lat="48.11986338" lon="6.37346615"><ele>442.343872</ele><time>2008-03-02T09:41:21Z</time></trkpt>
<trkpt lat="48.11955577" lon="6.37328627"><ele>442.824463</ele><time>2008-03-02T09:41:30Z</time></trkpt>
<trkpt lat="48.11935284" lon="6.37330295"><ele>443.305054</ele><time>2008-03-02T09:41:36Z</time></trkpt>
<trkpt lat="48.11916215" lon="6.37347906"><ele>443.785767</ele><time>2008-03-02T09:41:43Z</time></trkpt>
<trkpt lat="48.11902184" lon="6.37379774"><ele>444.266479</ele><time>2008-03-02T09:41:51Z</time></trkpt>
<trkpt lat="48.11892704" lon="6.37423117"><ele>444.74707</ele><time>2008-03-02T09:42:00Z</time></trkpt>
<trkpt lat="48.11880852" lon="6.37471883"><ele>445.227661</ele><time>2008-03-02T09:42:10Z</time></trkpt>
<trkpt lat="48.11866066" lon="6.37494732"><ele>445.227661</ele><time>2008-03-02T09:42:16Z</time></trkpt>
<trkpt lat="48.11844458" lon="6.37505519"><ele>445.708374</ele><time>2008-03-02T09:42:22Z</time></trkpt>
<trkpt lat="48.11816697" lon="6.37511898"><ele>445.227661</ele><time>2008-03-02T09:42:29Z</time></trkpt>
<trkpt lat="48.11784938" lon="6.37519710"><ele>445.227661</ele><time>2008-03-02T09:42:37Z</time></trkpt>
<trkpt lat="48.11762500" lon="6.37524705"><ele>444.266479</ele><time>2008-03-02T09:42:43Z</time></trkpt>
<trkpt lat="48.11740288" lon="6.37536423"><ele>443.785767</ele><time>2008-03-02T09:42:49Z</time></trkpt>
<trkpt lat="48.11709618" lon="6.37550639"><ele>443.785767</ele><time>2008-03-02T09:42:56Z</time></trkpt>
<trkpt lat="48.11695486" lon="6.37558979"><ele>443.785767</ele><time>2008-03-02T09:42:59Z</time></trkpt>
<trkpt lat="48.11675219" lon="6.37589497"><ele>443.785767</ele><time>2008-03-02T09:43:05Z</time></trkpt>
<trkpt lat="48.11665949" lon="6.37622212"><ele>443.305054</ele><time>2008-03-02T09:43:10Z</time></trkpt>
<trkpt lat="48.11663325" lon="6.37634676"><ele>443.305054</ele><time>2008-03-02T09:43:12Z</time></trkpt>
<trkpt lat="48.11648522" lon="6.37690458"><ele>442.343872</ele><time>2008-03-02T09:43:21Z</time></trkpt>
<trkpt lat="48.11643519" lon="6.37729023"><ele>443.305054</ele><time>2008-03-02T09:43:28Z</time></trkpt>
<trkpt lat="48.11642613" lon="6.37768393"><ele>445.227661</ele><time>2008-03-02T09:43:36Z</time></trkpt>
<trkpt lat="48.11641683" lon="6.37795332"><ele>447.150269</ele><time>2008-03-02T09:43:42Z</time></trkpt>
<trkpt lat="48.11640929" lon="6.37818592"><ele>450.515015</ele><time>2008-03-02T09:43:47Z</time></trkpt>
<trkpt lat="48.11641138" lon="6.37842757"><ele>453.879639</ele><time>2008-03-02T09:43:52Z</time></trkpt>
<trkpt lat="48.11640057" lon="6.37877952"><ele>460.608765</ele><time>2008-03-02T09:43:59Z</time></trkpt>
<trkpt lat="48.11639252" lon="6.37907817"><ele>465.896118</ele><time>2008-03-02T09:44:05Z</time></trkpt>
<trkpt lat="48.11638909" lon="6.37932602"><ele>469.260742</ele><time>2008-03-02T09:44:10Z</time></trkpt>
<trkpt lat="48.11639294" lon="6.37955703"><ele>472.144653</ele><time>2008-03-02T09:44:15Z</time></trkpt>
<trkpt lat="48.11644357" lon="6.37979466"><ele>471.66394</ele><time>2008-03-02T09:44:20Z</time></trkpt>
<trkpt lat="48.11656862" lon="6.38005366"><ele>468.299316</ele><time>2008-03-02T09:44:26Z</time></trkpt>
<trkpt lat="48.11672025" lon="6.38028265"><ele>464.934814</ele><time>2008-03-02T09:44:32Z</time></trkpt>
<trkpt lat="48.11692058" lon="6.38053109"><ele>464.454102</ele><time>2008-03-02T09:44:38Z</time></trkpt>
<trkpt lat="48.11722434" lon="6.38095555"><ele>462.531372</ele><time>2008-03-02T09:44:47Z</time></trkpt>
<trkpt lat="48.11743665" lon="6.38122167"><ele>461.089478</ele><time>2008-03-02T09:44:53Z</time></trkpt>
<trkpt lat="48.11767504" lon="6.38153365"><ele>460.128174</ele><time>2008-03-02T09:45:00Z</time></trkpt>
<trkpt lat="48.11789699" lon="6.38185786"><ele>459.647583</ele><time>2008-03-02T09:45:07Z</time></trkpt>
<trkpt lat="48.11813612" lon="6.38218165"><ele>459.16687</ele><time>2008-03-02T09:45:14Z</time></trkpt>
<trkpt lat="48.11849093" lon="6.38264023"><ele>459.647583</ele><time>2008-03-02T09:45:24Z</time></trkpt>
<trkpt lat="48.11877776" lon="6.38302328"><ele>460.128174</ele><time>2008-03-02T09:45:32Z</time></trkpt>
<trkpt lat="48.11898865" lon="6.38330877"><ele>460.608765</ele><time>2008-03-02T09:45:38Z</time></trkpt>
<trkpt lat="48.11919526" lon="6.38356232"><ele>461.089478</ele><time>2008-03-02T09:45:43Z</time></trkpt>
<trkpt lat="48.11937413" lon="6.38379249"><ele>461.089478</ele><time>2008-03-02T09:45:47Z</time></trkpt>
<trkpt lat="48.11960757" lon="6.38409583"><ele>460.608765</ele><time>2008-03-02T09:45:52Z</time></trkpt>
<trkpt lat="48.11973103" lon="6.38428928"><ele>460.128174</ele><time>2008-03-02T09:45:55Z</time></trkpt>
<trkpt lat="48.11987487" lon="6.38445835"><ele>459.647583</ele><time>2008-03-02T09:45:58Z</time></trkpt>
<trkpt lat="48.12004577" lon="6.38468265"><ele>459.16687</ele><time>2008-03-02T09:46:02Z</time></trkpt>
<trkpt lat="48.12024132" lon="6.38496554"><ele>459.647583</ele><time>2008-03-02T09:46:07Z</time></trkpt>
<trkpt lat="48.12053637" lon="6.38535169"><ele>459.647583</ele><time>2008-03-02T09:46:14Z</time></trkpt>
<trkpt lat="48.12080316" lon="6.38570834"><ele>459.16687</ele><time>2008-03-02T09:46:20Z</time></trkpt>
<trkpt lat="48.12103165" lon="6.38602702"><ele>458.686157</ele><time>2008-03-02T09:46:25Z</time></trkpt>
<trkpt lat="48.12128060" lon="6.38636833"><ele>457.724976</ele><time>2008-03-02T09:46:30Z</time></trkpt>
<trkpt lat="48.12168058" lon="6.38696764"><ele>454.84082</ele><time>2008-03-02T09:46:37Z</time></trkpt>
<trkpt lat="48.12194788" lon="6.38751498"><ele>450.515015</ele><time>2008-03-02T09:46:42Z</time></trkpt>
<trkpt lat="48.12211099" lon="6.38816885"><ele>447.150269</ele><time>2008-03-02T09:46:47Z</time></trkpt>
<trkpt lat="48.12222683" lon="6.38868609"><ele>447.150269</ele><time>2008-03-02T09:46:51Z</time></trkpt>
<trkpt lat="48.12228919" lon="6.38902548"><ele>447.150269</ele><time>2008-03-02T09:46:54Z</time></trkpt>
<trkpt lat="48.12231056" lon="6.38923570"><ele>447.630981</ele><time>2008-03-02T09:46:56Z</time></trkpt>
<trkpt lat="48.12231023" lon="6.38943778"><ele>448.592407</ele><time>2008-03-02T09:46:58Z</time></trkpt>
<trkpt lat="48.12218400" lon="6.38985596"><ele>451.476318</ele><time>2008-03-02T09:47:03Z</time></trkpt>
<trkpt lat="48.12196313" lon="6.38999878"><ele>452.437622</ele><time>2008-03-02T09:47:07Z</time></trkpt>
<trkpt lat="48.12189742" lon="6.39002552"><ele>451.957031</ele><time>2008-03-02T09:47:08Z</time></trkpt>
<trkpt lat="48.12139777" lon="6.39026139"><ele>449.072998</ele><time>2008-03-02T09:47:16Z</time></trkpt>
<trkpt lat="48.12127364" lon="6.39033222"><ele>448.111816</ele><time>2008-03-02T09:47:18Z</time></trkpt>
<trkpt lat="48.12102847" lon="6.39062500"><ele>446.189087</ele><time>2008-03-02T09:47:23Z</time></trkpt>
<trkpt lat="48.12078237" lon="6.39097360"><ele>445.227661</ele><time>2008-03-02T09:47:29Z</time></trkpt>
<trkpt lat="48.12049177" lon="6.39140409"><ele>444.266479</ele><time>2008-03-02T09:47:37Z</time></trkpt>
<trkpt lat="48.12025515" lon="6.39212217"><ele>444.266479</ele><time>2008-03-02T09:47:48Z</time></trkpt>
<trkpt lat="48.12008869" lon="6.39261318"><ele>443.305054</ele><time>2008-03-02T09:47:55Z</time></trkpt>
<trkpt lat="48.11998769" lon="6.39293178"><ele>442.824463</ele><time>2008-03-02T09:47:59Z</time></trkpt>
<trkpt lat="48.11989305" lon="6.39335163"><ele>441.863159</ele><time>2008-03-02T09:48:04Z</time></trkpt>
<trkpt lat="48.11985559" lon="6.39377433"><ele>441.382446</ele><time>2008-03-02T09:48:09Z</time></trkpt>
<trkpt lat="48.11987009" lon="6.39408236"><ele>441.382446</ele><time>2008-03-02T09:48:13Z</time></trkpt>
<trkpt lat="48.12003748" lon="6.39466273"><ele>442.824463</ele><time>2008-03-02T09:48:22Z</time></trkpt>
<trkpt lat="48.12022054" lon="6.39516086"><ele>443.785767</ele><time>2008-03-02T09:48:30Z</time></trkpt>
<trkpt lat="48.12028550" lon="6.39534837"><ele>444.74707</ele><time>2008-03-02T09:48:33Z</time></trkpt>
<trkpt lat="48.12035029" lon="6.39569018"><ele>446.189087</ele><time>2008-03-02T09:48:38Z</time></trkpt>
<trkpt lat="48.12033763" lon="6.39618916"><ele>447.630981</ele><time>2008-03-02T09:48:45Z</time></trkpt>
<trkpt lat="48.12026194" lon="6.39669115"><ele>448.592407</ele><time>2008-03-02T09:48:52Z</time></trkpt>
<trkpt lat="48.12010839" lon="6.39733773"><ele>449.553711</ele><time>2008-03-02T09:49:01Z</time></trkpt>
<trkpt lat="48.12007436" lon="6.39780586"><ele>450.995605</ele><time>2008-03-02T09:49:07Z</time></trkpt>
<trkpt lat="48.12008333" lon="6.39834540"><ele>453.879639</ele><time>2008-03-02T09:49:14Z</time></trkpt>
<trkpt lat="48.12007452" lon="6.39858177"><ele>456.76355</ele><time>2008-03-02T09:49:17Z</time></trkpt>
<trkpt lat="48.12002968" lon="6.39880255"><ele>460.608765</ele><time>2008-03-02T09:49:20Z</time></trkpt>
<trkpt lat="48.11994930" lon="6.39901889"><ele>462.531372</ele><time>2008-03-02T09:49:23Z</time></trkpt>
<trkpt lat="48.11988057" lon="6.39915325"><ele>463.012085</ele><time>2008-03-02T09:49:25Z</time></trkpt>
<trkpt lat="48.11973766" lon="6.39939406"><ele>463.973389</ele><time>2008-03-02T09:49:29Z</time></trkpt>
<trkpt lat="48.11963565" lon="6.39958114"><ele>464.454102</ele><time>2008-03-02T09:49:32Z</time></trkpt>
<trkpt lat="48.11952157" lon="6.39986093"><ele>465.415527</ele><time>2008-03-02T09:49:36Z</time></trkpt>
<trkpt lat="48.11939215" lon="6.40042244"><ele>467.338135</ele><time>2008-03-02T09:49:43Z</time></trkpt>
<trkpt lat="48.11924170" lon="6.40109357"><ele>471.18335</ele><time>2008-03-02T09:49:51Z</time></trkpt>
<trkpt lat="48.11915000" lon="6.40163446"><ele>472.144653</ele><time>2008-03-02T09:49:57Z</time></trkpt>
<trkpt lat="48.11912117" lon="6.40191492"><ele>472.144653</ele><time>2008-03-02T09:50:00Z</time></trkpt>
<trkpt lat="48.11918202" lon="6.40267214"><ele>471.18335</ele><time>2008-03-02T09:50:08Z</time></trkpt>
<trkpt lat="48.11922384" lon="6.40296316"><ele>470.221924</ele><time>2008-03-02T09:50:11Z</time></trkpt>
<trkpt lat="48.11929442" lon="6.40344956"><ele>469.260742</ele><time>2008-03-02T09:50:16Z</time></trkpt>
<trkpt lat="48.11924052" lon="6.40393009"><ele>466.857422</ele><time>2008-03-02T09:50:21Z</time></trkpt>
<trkpt lat="48.11917439" lon="6.40411575"><ele>466.376709</ele><time>2008-03-02T09:50:23Z</time></trkpt>
<trkpt lat="48.11899259" lon="6.40449394"><ele>464.934814</ele><time>2008-03-02T09:50:27Z</time></trkpt>
<trkpt lat="48.11876854" lon="6.40517254"><ele>462.050781</ele><time>2008-03-02T09:50:33Z</time></trkpt>
<trkpt lat="48.11871414" lon="6.40554336"><ele>461.089478</ele><time>2008-03-02T09:50:36Z</time></trkpt>
<trkpt lat="48.11882797" lon="6.40600545"><ele>458.205566</ele><time>2008-03-02T09:50:40Z</time></trkpt>
<trkpt lat="48.11899083" lon="6.40629454"><ele>456.76355</ele><time>2008-03-02T09:50:43Z</time></trkpt>
<trkpt lat="48.11939785" lon="6.40673795"><ele>456.76355</ele><time>2008-03-02T09:50:49Z</time></trkpt>
<trkpt lat="48.12001878" lon="6.40729593"><ele>456.282959</ele><time>2008-03-02T09:50:58Z</time></trkpt>
<trkpt lat="48.12035632" lon="6.40771125"><ele>456.282959</ele><time>2008-03-02T09:51:04Z</time></trkpt>
<trkpt lat="48.12063125" lon="6.40815835"><ele>455.321533</ele><time>2008-03-02T09:51:10Z</time></trkpt>
<trkpt lat="48.12074633" lon="6.40843839"><ele>453.398926</ele><time>2008-03-02T09:51:13Z</time></trkpt>
<trkpt lat="48.12090324" lon="6.40893736"><ele>452.437622</ele><time>2008-03-02T09:51:18Z</time></trkpt>
<trkpt lat="48.12095236" lon="6.40924129"><ele>451.476318</ele><time>2008-03-02T09:51:21Z</time></trkpt>
<trkpt lat="48.12096435" lon="6.40999717"><ele>451.957031</ele><time>2008-03-02T09:51:28Z</time></trkpt>
<trkpt lat="48.12090249" lon="6.41072882"><ele>451.957031</ele><time>2008-03-02T09:51:34Z</time></trkpt>
<trkpt lat="48.12085547" lon="6.41097743"><ele>451.476318</ele><time>2008-03-02T09:51:36Z</time></trkpt>
<trkpt lat="48.12068556" lon="6.41158537"><ele>450.995605</ele><time>2008-03-02T09:51:41Z</time></trkpt>
<trkpt lat="48.12063678" lon="6.41185770"><ele>451.476318</ele><time>2008-03-02T09:51:43Z</time></trkpt>
<trkpt lat="48.12068414" lon="6.41250235"><ele>451.476318</ele><time>2008-03-02T09:51:47Z</time></trkpt>
<trkpt lat="48.12087785" lon="6.41296989"><ele>451.957031</ele><time>2008-03-02T09:51:50Z</time></trkpt>
<trkpt lat="48.12118093" lon="6.41328187"><ele>448.111816</ele><time>2008-03-02T09:51:53Z</time></trkpt>
<trkpt lat="48.12167153" lon="6.41342662"><ele>446.189087</ele><time>2008-03-02T09:51:57Z</time></trkpt>
<trkpt lat="48.12187194" lon="6.41352008"><ele>446.189087</ele><time>2008-03-02T09:51:59Z</time></trkpt>
<trkpt lat="48.12195886" lon="6.41352662"><ele>445.227661</ele><time>2008-03-02T09:52:01Z</time></trkpt>
<trkpt lat="48.12200094" lon="6.41335999"><ele>443.305054</ele><time>2008-03-02T09:52:04Z</time></trkpt>
<trkpt lat="48.12200069" lon="6.41322604"><ele>441.863159</ele><time>2008-03-02T09:52:06Z</time></trkpt>
<trkpt lat="48.12207637" lon="6.41295413"><ele>439.94043</ele><time>2008-03-02T09:52:10Z</time></trkpt>
<trkpt lat="48.12222708" lon="6.41284257"><ele>438.979126</ele><time>2008-03-02T09:52:13Z</time></trkpt>
<trkpt lat="48.12251986" lon="6.41264392"><ele>437.537109</ele><time>2008-03-02T09:52:20Z</time></trkpt>
<trkpt lat="48.12259723" lon="6.41262674"><ele>437.056519</ele><time>2008-03-02T09:52:24Z</time></trkpt>
<trkpt lat="48.12261273" lon="6.41262833"><ele>437.537109</ele><time>2008-03-02T09:52:30Z</time></trkpt>
<trkpt lat="48.12262463" lon="6.41263328"><ele>438.017822</ele><time>2008-03-02T09:52:31Z</time></trkpt>
<trkpt lat="48.12265414" lon="6.41263612"><ele>438.017822</ele><time>2008-03-02T09:52:38Z</time></trkpt>
<trkpt lat="48.12265112" lon="6.41264752"><ele>436.575928</ele><time>2008-03-02T09:52:40Z</time></trkpt>
<trkpt lat="48.12264978" lon="6.41264895"><ele>436.095215</ele><time>2008-03-02T09:52:41Z</time></trkpt>
<trkpt lat="48.12272463" lon="6.41261014"><ele>421.675415</ele><time>2008-03-02T09:53:34Z</time></trkpt>
<trkpt lat="48.12272279" lon="6.41261056"><ele>421.194824</ele><time>2008-03-02T09:53:35Z</time></trkpt>
<trkpt lat="48.12272186" lon="6.41261400"><ele>432.730713</ele><time>2008-03-02T09:53:52Z</time></trkpt>
<trkpt lat="48.12272396" lon="6.41261559"><ele>434.172607</ele><time>2008-03-02T09:53:53Z</time></trkpt>
<trkpt lat="48.12275489" lon="6.41263906"><ele>443.785767</ele><time>2008-03-02T09:54:20Z</time></trkpt>
<trkpt lat="48.12274936" lon="6.41265054"><ele>446.669678</ele><time>2008-03-02T09:54:23Z</time></trkpt>
<trkpt lat="48.12273678" lon="6.41263143"><ele>443.305054</ele><time>2008-03-02T09:54:26Z</time></trkpt>
<trkpt lat="48.12276084" lon="6.41259438"><ele>442.824463</ele><time>2008-03-02T09:54:30Z</time></trkpt>
<trkpt lat="48.12277878" lon="6.41259782"><ele>443.785767</ele><time>2008-03-02T09:54:32Z</time></trkpt>
<trkpt lat="48.12286545" lon="6.41264157"><ele>445.227661</ele><time>2008-03-02T09:54:39Z</time></trkpt>
<trkpt lat="48.12304582" lon="6.41278214"><ele>447.630981</ele><time>2008-03-02T09:54:46Z</time></trkpt>
<trkpt lat="48.12320382" lon="6.41279153"><ele>449.553711</ele><time>2008-03-02T09:54:52Z</time></trkpt>
<trkpt lat="48.12338705" lon="6.41282212"><ele>452.437622</ele><time>2008-03-02T09:54:59Z</time></trkpt>
<trkpt lat="48.12349929" lon="6.41286160"><ele>453.398926</ele><time>2008-03-02T09:55:04Z</time></trkpt>
<trkpt lat="48.12355234" lon="6.41290058"><ele>454.360229</ele><time>2008-03-02T09:55:07Z</time></trkpt>
<trkpt lat="48.12368134" lon="6.41293536"><ele>458.205566</ele><time>2008-03-02T09:55:13Z</time></trkpt>
<trkpt lat="48.12379274" lon="6.41297417"><ele>458.205566</ele><time>2008-03-02T09:55:19Z</time></trkpt>
<trkpt lat="48.12389608" lon="6.41303586"><ele>458.686157</ele><time>2008-03-02T09:55:25Z</time></trkpt>
<trkpt lat="48.12400245" lon="6.41313728"><ele>458.686157</ele><time>2008-03-02T09:55:32Z</time></trkpt>
<trkpt lat="48.12409993" lon="6.41325865"><ele>459.647583</ele><time>2008-03-02T09:55:38Z</time></trkpt>
<trkpt lat="48.12425299" lon="6.41339477"><ele>462.050781</ele><time>2008-03-02T09:55:47Z</time></trkpt>
<trkpt lat="48.12438374" lon="6.41349737"><ele>463.012085</ele><time>2008-03-02T09:55:55Z</time></trkpt>
<trkpt lat="48.12450235" lon="6.41356124"><ele>464.454102</ele><time>2008-03-02T09:56:01Z</time></trkpt>
<trkpt lat="48.12461642" lon="6.41363810"><ele>466.857422</ele><time>2008-03-02T09:56:07Z</time></trkpt>
<trkpt lat="48.12475749" lon="6.41369987"><ele>468.780029</ele><time>2008-03-02T09:56:14Z</time></trkpt>
<trkpt lat="48.12487417" lon="6.41375570"><ele>465.896118</ele><time>2008-03-02T09:56:20Z</time></trkpt>
<trkpt lat="48.12503334" lon="6.41387464"><ele>463.012085</ele><time>2008-03-02T09:56:29Z</time></trkpt>
<trkpt lat="48.12526183" lon="6.41409466"><ele>459.647583</ele><time>2008-03-02T09:56:41Z</time></trkpt>
<trkpt lat="48.12541002" lon="6.41422927"><ele>458.686157</ele><time>2008-03-02T09:56:49Z</time></trkpt>
<trkpt lat="48.12557976" lon="6.41437202"><ele>457.244263</ele><time>2008-03-02T09:56:57Z</time></trkpt>
<trkpt lat="48.12579492" lon="6.41453580"><ele>457.244263</ele><time>2008-03-02T09:57:06Z</time></trkpt>
<trkpt lat="48.12608167" lon="6.41475767"><ele>455.802246</ele><time>2008-03-02T09:57:17Z</time></trkpt>
<trkpt lat="48.12632474" lon="6.41493503"><ele>454.84082</ele><time>2008-03-02T09:57:25Z</time></trkpt>
<trkpt lat="48.12651258" lon="6.41507157"><ele>453.398926</ele><time>2008-03-02T09:57:31Z</time></trkpt>
<trkpt lat="48.12672556" lon="6.41531398"><ele>451.476318</ele><time>2008-03-02T09:57:37Z</time></trkpt>
<trkpt lat="48.12676345" lon="6.41535756"><ele>451.476318</ele><time>2008-03-02T09:57:38Z</time></trkpt>
<trkpt lat="48.12694919" lon="6.41573894"><ele>449.553711</ele><time>2008-03-02T09:57:45Z</time></trkpt>
<trkpt lat="48.12697199" lon="6.41580423"><ele>449.072998</ele><time>2008-03-02T09:57:46Z</time></trkpt>
<trkpt lat="48.12713888" lon="6.41606734"><ele>446.669678</ele><time>2008-03-02T09:57:50Z</time></trkpt>
<trkpt lat="48.12734633" lon="6.41618829"><ele>444.266479</ele><time>2008-03-02T09:57:53Z</time></trkpt>
<trkpt lat="48.12792677" lon="6.41634495"><ele>438.979126</ele><time>2008-03-02T09:58:00Z</time></trkpt>
<trkpt lat="48.12851518" lon="6.41644855"><ele>434.65332</ele><time>2008-03-02T09:58:06Z</time></trkpt>
<trkpt lat="48.12892104" lon="6.41655207"><ele>432.730713</ele><time>2008-03-02T09:58:11Z</time></trkpt>
<trkpt lat="48.12910963" lon="6.41660437"><ele>432.730713</ele><time>2008-03-02T09:58:14Z</time></trkpt>
<trkpt lat="48.12929328" lon="6.41672348"><ele>432.730713</ele><time>2008-03-02T09:58:18Z</time></trkpt>
<trkpt lat="48.12945588" lon="6.41680679"><ele>433.211304</ele><time>2008-03-02T09:58:22Z</time></trkpt>
<trkpt lat="48.12974146" lon="6.41698038"><ele>434.172607</ele><time>2008-03-02T09:58:29Z</time></trkpt>
<trkpt lat="48.12997162" lon="6.41713528"><ele>434.172607</ele><time>2008-03-02T09:58:35Z</time></trkpt>
<trkpt lat="48.13016508" lon="6.41726076"><ele>434.65332</ele><time>2008-03-02T09:58:40Z</time></trkpt>
<trkpt lat="48.13042726" lon="6.41742295"><ele>436.095215</ele><time>2008-03-02T09:58:47Z</time></trkpt>
<trkpt lat="48.13058023" lon="6.41753543"><ele>437.056519</ele><time>2008-03-02T09:58:51Z</time></trkpt>
<trkpt lat="48.13058468" lon="6.41767943"><ele>436.575928</ele><time>2008-03-02T09:58:55Z</time></trkpt>
<trkpt lat="48.13053832" lon="6.41784154"><ele>436.575928</ele><time>2008-03-02T09:58:59Z</time></trkpt>
<trkpt lat="48.13055157" lon="6.41792653"><ele>436.575928</ele><time>2008-03-02T09:59:01Z</time></trkpt>
<trkpt lat="48.13054964" lon="6.41819266"><ele>437.056519</ele><time>2008-03-02T09:59:07Z</time></trkpt>
<trkpt lat="48.13055442" lon="6.41847253"><ele>437.537109</ele><time>2008-03-02T09:59:12Z</time></trkpt>
<trkpt lat="48.13056825" lon="6.41874880"><ele>438.979126</ele><time>2008-03-02T09:59:18Z</time></trkpt>
<trkpt lat="48.13060697" lon="6.41888115"><ele>441.382446</ele><time>2008-03-02T09:59:22Z</time></trkpt>
<trkpt lat="48.13057445" lon="6.41900646"><ele>442.824463</ele><time>2008-03-02T09:59:26Z</time></trkpt>
<trkpt lat="48.13051754" lon="6.41909086"><ele>441.382446</ele><time>2008-03-02T09:59:29Z</time></trkpt>
<trkpt lat="48.13051988" lon="6.41931835"><ele>441.382446</ele><time>2008-03-02T09:59:34Z</time></trkpt>
<trkpt lat="48.13053120" lon="6.41970685"><ele>443.305054</ele><time>2008-03-02T09:59:41Z</time></trkpt>
<trkpt lat="48.13055098" lon="6.41995562"><ele>443.305054</ele><time>2008-03-02T09:59:46Z</time></trkpt>
<trkpt lat="48.13055458" lon="6.42017892"><ele>445.227661</ele><time>2008-03-02T09:59:51Z</time></trkpt>
<trkpt lat="48.13059457" lon="6.42040699"><ele>448.111816</ele><time>2008-03-02T09:59:57Z</time></trkpt>
<trkpt lat="48.13064955" lon="6.42060354"><ele>447.630981</ele><time>2008-03-02T10:00:02Z</time></trkpt>
<trkpt lat="48.13065994" lon="6.42076045"><ele>448.592407</ele><time>2008-03-02T10:00:06Z</time></trkpt>
<trkpt lat="48.13065282" lon="6.42099355"><ele>448.592407</ele><time>2008-03-02T10:00:11Z</time></trkpt>
<trkpt lat="48.13066422" lon="6.42125004"><ele>448.111816</ele><time>2008-03-02T10:00:16Z</time></trkpt>
<trkpt lat="48.13065668" lon="6.42148457"><ele>447.150269</ele><time>2008-03-02T10:00:21Z</time></trkpt>
<trkpt lat="48.13061393" lon="6.42170794"><ele>447.150269</ele><time>2008-03-02T10:00:25Z</time></trkpt>
<trkpt lat="48.13059482" lon="6.42193694"><ele>445.708374</ele><time>2008-03-02T10:00:29Z</time></trkpt>
<trkpt lat="48.13056297" lon="6.42224623"><ele>444.266479</ele><time>2008-03-02T10:00:35Z</time></trkpt>
<trkpt lat="48.13053908" lon="6.42247556"><ele>446.189087</ele><time>2008-03-02T10:00:40Z</time></trkpt>
<trkpt lat="48.13053908" lon="6.42269407"><ele>446.669678</ele><time>2008-03-02T10:00:46Z</time></trkpt>
<trkpt lat="48.13056758" lon="6.42282634"><ele>445.227661</ele><time>2008-03-02T10:00:50Z</time></trkpt>
<trkpt lat="48.13068132" lon="6.42294754"><ele>444.266479</ele><time>2008-03-02T10:00:56Z</time></trkpt>
<trkpt lat="48.13080856" lon="6.42299255"><ele>443.785767</ele><time>2008-03-02T10:01:02Z</time></trkpt>
<trkpt lat="48.13095432" lon="6.42301410"><ele>446.669678</ele><time>2008-03-02T10:01:09Z</time></trkpt>
<trkpt lat="48.13109379" lon="6.42302809"><ele>446.189087</ele><time>2008-03-02T10:01:17Z</time></trkpt>
<trkpt lat="48.13127928" lon="6.42313379"><ele>446.189087</ele><time>2008-03-02T10:01:27Z</time></trkpt>
<trkpt lat="48.13141398" lon="6.42322062"><ele>446.189087</ele><time>2008-03-02T10:01:35Z</time></trkpt>
<trkpt lat="48.13160182" lon="6.42334484"><ele>447.150269</ele><time>2008-03-02T10:01:46Z</time></trkpt>
<trkpt lat="48.13181103" lon="6.42347652"><ele>448.592407</ele><time>2008-03-02T10:01:58Z</time></trkpt>
<trkpt lat="48.13198923" lon="6.42359790"><ele>450.034424</ele><time>2008-03-02T10:02:09Z</time></trkpt>
<trkpt lat="48.13214740" lon="6.42370619"><ele>450.515015</ele><time>2008-03-02T10:02:19Z</time></trkpt>
<trkpt lat="48.13224253" lon="6.42378297"><ele>449.553711</ele><time>2008-03-02T10:02:25Z</time></trkpt>
<trkpt lat="48.13238192" lon="6.42390819"><ele>448.592407</ele><time>2008-03-02T10:02:31Z</time></trkpt>
<trkpt lat="48.13255543" lon="6.42401800"><ele>448.111816</ele><time>2008-03-02T10:02:36Z</time></trkpt>
<trkpt lat="48.13268099" lon="6.42407457"><ele>449.072998</ele><time>2008-03-02T10:02:40Z</time></trkpt>
<trkpt lat="48.13288249" lon="6.42419527"><ele>450.995605</ele><time>2008-03-02T10:02:45Z</time></trkpt>
<trkpt lat="48.13301317" lon="6.42425302"><ele>454.360229</ele><time>2008-03-02T10:02:50Z</time></trkpt>
<trkpt lat="48.13311542" lon="6.42432427"><ele>457.724976</ele><time>2008-03-02T10:02:55Z</time></trkpt>
<trkpt lat="48.13319908" lon="6.42440876"><ele>458.686157</ele><time>2008-03-02T10:02:59Z</time></trkpt>
<trkpt lat="48.13330066" lon="6.42446660"><ele>457.724976</ele><time>2008-03-02T10:03:04Z</time></trkpt>
<trkpt lat="48.13332388" lon="6.42449107"><ele>457.724976</ele><time>2008-03-02T10:03:05Z</time></trkpt>
<trkpt lat="48.13347392" lon="6.42461965"><ele>458.205566</ele><time>2008-03-02T10:03:12Z</time></trkpt>
<trkpt lat="48.13349060" lon="6.42463298"><ele>458.686157</ele><time>2008-03-02T10:03:13Z</time></trkpt>
<trkpt lat="48.13349068" lon="6.42475753"><ele>463.492798</ele><time>2008-03-02T10:03:20Z</time></trkpt>
<trkpt lat="48.13343234" lon="6.42496456"><ele>470.221924</ele><time>2008-03-02T10:03:30Z</time></trkpt>
<trkpt lat="48.13347643" lon="6.42511636"><ele>471.18335</ele><time>2008-03-02T10:03:37Z</time></trkpt>
<trkpt lat="48.13347316" lon="6.42522675"><ele>473.58667</ele><time>2008-03-02T10:03:43Z</time></trkpt>
<trkpt lat="48.13350233" lon="6.42535047"><ele>474.067261</ele><time>2008-03-02T10:03:49Z</time></trkpt>
<trkpt lat="48.13356645" lon="6.42546756"><ele>475.028687</ele><time>2008-03-02T10:03:57Z</time></trkpt>
<trkpt lat="48.13359705" lon="6.42552615"><ele>475.989868</ele><time>2008-03-02T10:04:02Z</time></trkpt>
<trkpt lat="48.13363787" lon="6.42559455"><ele>476.951294</ele><time>2008-03-02T10:04:08Z</time></trkpt>
<trkpt lat="48.13368942" lon="6.42567183"><ele>477.431885</ele><time>2008-03-02T10:04:15Z</time></trkpt>
<trkpt lat="48.13373325" lon="6.42576294"><ele>477.431885</ele><time>2008-03-02T10:04:22Z</time></trkpt>
<trkpt lat="48.13379117" lon="6.42586176"><ele>477.431885</ele><time>2008-03-02T10:04:31Z</time></trkpt>
<trkpt lat="48.13384448" lon="6.42594592"><ele>477.912476</ele><time>2008-03-02T10:04:39Z</time></trkpt>
<trkpt lat="48.13387164" lon="6.42600208"><ele>479.354492</ele><time>2008-03-02T10:04:45Z</time></trkpt>
<trkpt lat="48.13392956" lon="6.42611808"><ele>480.315918</ele><time>2008-03-02T10:04:54Z</time></trkpt>
<trkpt lat="48.13396233" lon="6.42619603"><ele>482.719238</ele><time>2008-03-02T10:05:01Z</time></trkpt>
<trkpt lat="48.13402235" lon="6.42628606"><ele>483.199829</ele><time>2008-03-02T10:05:09Z</time></trkpt>
<trkpt lat="48.13406543" lon="6.42638530"><ele>483.68042</ele><time>2008-03-02T10:05:16Z</time></trkpt>
<trkpt lat="48.13414078" lon="6.42652997"><ele>482.719238</ele><time>2008-03-02T10:05:26Z</time></trkpt>
<trkpt lat="48.13420566" lon="6.42663675"><ele>482.238525</ele><time>2008-03-02T10:05:34Z</time></trkpt>
<trkpt lat="48.13425084" lon="6.42673357"><ele>481.757813</ele><time>2008-03-02T10:05:40Z</time></trkpt>
<trkpt lat="48.13430632" lon="6.42685032"><ele>483.199829</ele><time>2008-03-02T10:05:46Z</time></trkpt>
<trkpt lat="48.13439090" lon="6.42701587"><ele>482.719238</ele><time>2008-03-02T10:05:54Z</time></trkpt>
<trkpt lat="48.13447815" lon="6.42717814"><ele>482.719238</ele><time>2008-03-02T10:06:01Z</time></trkpt>
<trkpt lat="48.13457245" lon="6.42733765"><ele>482.719238</ele><time>2008-03-02T10:06:08Z</time></trkpt>
<trkpt lat="48.13468535" lon="6.42756949"><ele>483.199829</ele><time>2008-03-02T10:06:17Z</time></trkpt>
<trkpt lat="48.13476356" lon="6.42774040"><ele>484.161133</ele><time>2008-03-02T10:06:24Z</time></trkpt>
<trkpt lat="48.13484847" lon="6.42791617"><ele>486.08374</ele><time>2008-03-02T10:06:31Z</time></trkpt>
<trkpt lat="48.13493606" lon="6.42806009"><ele>486.564453</ele><time>2008-03-02T10:06:37Z</time></trkpt>
<trkpt lat="48.13506095" lon="6.42825505"><ele>487.045044</ele><time>2008-03-02T10:06:46Z</time></trkpt>
<trkpt lat="48.13517779" lon="6.42841749"><ele>488.967773</ele><time>2008-03-02T10:06:55Z</time></trkpt>
<trkpt lat="48.13525214" lon="6.42853475"><ele>490.40979</ele><time>2008-03-02T10:07:01Z</time></trkpt>
<trkpt lat="48.13535507" lon="6.42870080"><ele>491.370972</ele><time>2008-03-02T10:07:09Z</time></trkpt>
<trkpt lat="48.13544325" lon="6.42882477"><ele>492.332397</ele><time>2008-03-02T10:07:16Z</time></trkpt>
<trkpt lat="48.13551416" lon="6.42893239"><ele>492.812988</ele><time>2008-03-02T10:07:22Z</time></trkpt>
<trkpt lat="48.13559513" lon="6.42905703"><ele>492.332397</ele><time>2008-03-02T10:07:28Z</time></trkpt>
<trkpt lat="48.13573033" lon="6.42925627"><ele>491.851685</ele><time>2008-03-02T10:07:37Z</time></trkpt>
<trkpt lat="48.13584893" lon="6.42943597"><ele>491.851685</ele><time>2008-03-02T10:07:43Z</time></trkpt>
<trkpt lat="48.13598698" lon="6.42963538"><ele>491.370972</ele><time>2008-03-02T10:07:48Z</time></trkpt>
<trkpt lat="48.13609167" lon="6.42979874"><ele>492.332397</ele><time>2008-03-02T10:07:53Z</time></trkpt>
<trkpt lat="48.13620164" lon="6.42996403"><ele>492.332397</ele><time>2008-03-02T10:07:58Z</time></trkpt>
<trkpt lat="48.13635017" lon="6.43026779"><ele>490.890381</ele><time>2008-03-02T10:08:04Z</time></trkpt>
<trkpt lat="48.13646106" lon="6.43059234"><ele>489.448364</ele><time>2008-03-02T10:08:08Z</time></trkpt>
<trkpt lat="48.13648503" lon="6.43067708"><ele>488.487183</ele><time>2008-03-02T10:08:09Z</time></trkpt>
<trkpt lat="48.13663364" lon="6.43112266"><ele>485.603027</ele><time>2008-03-02T10:08:14Z</time></trkpt>
<trkpt lat="48.13669483" lon="6.43132123"><ele>483.68042</ele><time>2008-03-02T10:08:16Z</time></trkpt>
<trkpt lat="48.13687446" lon="6.43164704"><ele>480.315918</ele><time>2008-03-02T10:08:20Z</time></trkpt>
<trkpt lat="48.13703824" lon="6.43181308"><ele>477.912476</ele><time>2008-03-02T10:08:23Z</time></trkpt>
<trkpt lat="48.13730193" lon="6.43211986"><ele>474.067261</ele><time>2008-03-02T10:08:28Z</time></trkpt>
<trkpt lat="48.13744929" lon="6.43227492"><ele>473.106079</ele><time>2008-03-02T10:08:32Z</time></trkpt>
<trkpt lat="48.13748114" lon="6.43241063"><ele>472.625366</ele><time>2008-03-02T10:08:37Z</time></trkpt>
<trkpt lat="48.13752623" lon="6.43246159"><ele>473.58667</ele><time>2008-03-02T10:08:41Z</time></trkpt>
<trkpt lat="48.13767644" lon="6.43248958"><ele>475.509277</ele><time>2008-03-02T10:08:47Z</time></trkpt>
<trkpt lat="48.13782807" lon="6.43265563"><ele>476.951294</ele><time>2008-03-02T10:08:52Z</time></trkpt>
<trkpt lat="48.13785246" lon="6.43269519"><ele>477.431885</ele><time>2008-03-02T10:08:53Z</time></trkpt>
<trkpt lat="48.13788439" lon="6.43290658"><ele>478.393188</ele><time>2008-03-02T10:08:57Z</time></trkpt>
<trkpt lat="48.13799587" lon="6.43319484"><ele>476.951294</ele><time>2008-03-02T10:09:02Z</time></trkpt>
<trkpt lat="48.13813132" lon="6.43344387"><ele>476.470581</ele><time>2008-03-02T10:09:06Z</time></trkpt>
<trkpt lat="48.13821455" lon="6.43386028"><ele>475.028687</ele><time>2008-03-02T10:09:11Z</time></trkpt>
<trkpt lat="48.13823425" lon="6.43447610"><ele>474.067261</ele><time>2008-03-02T10:09:16Z</time></trkpt>
<trkpt lat="48.13823777" lon="6.43459747"><ele>474.067261</ele><time>2008-03-02T10:09:17Z</time></trkpt>
<trkpt lat="48.13820575" lon="6.43519099"><ele>471.66394</ele><time>2008-03-02T10:09:22Z</time></trkpt>
<trkpt lat="48.13820249" lon="6.43555879"><ele>467.818726</ele><time>2008-03-02T10:09:25Z</time></trkpt>
<trkpt lat="48.13826652" lon="6.43602960"><ele>465.415527</ele><time>2008-03-02T10:09:29Z</time></trkpt>
<trkpt lat="48.13820852" lon="6.43624208"><ele>463.492798</ele><time>2008-03-02T10:09:32Z</time></trkpt>
<trkpt lat="48.13817047" lon="6.43628005"><ele>463.973389</ele><time>2008-03-02T10:09:33Z</time></trkpt>
<trkpt lat="48.13790585" lon="6.43653067"><ele>460.608765</ele><time>2008-03-02T10:09:40Z</time></trkpt>
<trkpt lat="48.13767753" lon="6.43697927"><ele>456.76355</ele><time>2008-03-02T10:09:46Z</time></trkpt>
<trkpt lat="48.13758616" lon="6.43726316"><ele>454.84082</ele><time>2008-03-02T10:09:49Z</time></trkpt>
<trkpt lat="48.13751986" lon="6.43778754"><ele>450.995605</ele><time>2008-03-02T10:09:54Z</time></trkpt>
<trkpt lat="48.13751953" lon="6.43814125"><ele>449.072998</ele><time>2008-03-02T10:09:57Z</time></trkpt>
<trkpt lat="48.13758105" lon="6.43862279"><ele>445.708374</ele><time>2008-03-02T10:10:01Z</time></trkpt>
<trkpt lat="48.13764232" lon="6.43924414"><ele>444.74707</ele><time>2008-03-02T10:10:06Z</time></trkpt>
<trkpt lat="48.13763939" lon="6.43949158"><ele>444.266479</ele><time>2008-03-02T10:10:08Z</time></trkpt>
<trkpt lat="48.13752707" lon="6.44002005"><ele>442.824463</ele><time>2008-03-02T10:10:13Z</time></trkpt>
<trkpt lat="48.13753252" lon="6.44021468"><ele>442.343872</ele><time>2008-03-02T10:10:15Z</time></trkpt>
<trkpt lat="48.13752422" lon="6.44040939"><ele>443.305054</ele><time>2008-03-02T10:10:17Z</time></trkpt>
<trkpt lat="48.13743152" lon="6.44095799"><ele>443.785767</ele><time>2008-03-02T10:10:23Z</time></trkpt>
<trkpt lat="48.13741819" lon="6.44104877"><ele>442.824463</ele><time>2008-03-02T10:10:24Z</time></trkpt>
<trkpt lat="48.13745163" lon="6.44142612"><ele>441.863159</ele><time>2008-03-02T10:10:28Z</time></trkpt>
<trkpt lat="48.13752883" lon="6.44170775"><ele>440.421265</ele><time>2008-03-02T10:10:31Z</time></trkpt>
<trkpt lat="48.13759337" lon="6.44189727"><ele>439.459717</ele><time>2008-03-02T10:10:33Z</time></trkpt>
<trkpt lat="48.13775137" lon="6.44235047"><ele>437.537109</ele><time>2008-03-02T10:10:38Z</time></trkpt>
<trkpt lat="48.13796394" lon="6.44271609"><ele>435.614502</ele><time>2008-03-02T10:10:43Z</time></trkpt>
<trkpt lat="48.13828295" lon="6.44310770"><ele>435.133911</ele><time>2008-03-02T10:10:50Z</time></trkpt>
<trkpt lat="48.13863633" lon="6.44348480"><ele>433.691895</ele><time>2008-03-02T10:10:57Z</time></trkpt>
<trkpt lat="48.13880866" lon="6.44357407"><ele>431.769165</ele><time>2008-03-02T10:11:01Z</time></trkpt>
<trkpt lat="48.13894202" lon="6.44350592"><ele>431.288574</ele><time>2008-03-02T10:11:05Z</time></trkpt>
<trkpt lat="48.13905107" lon="6.44335387"><ele>430.807983</ele><time>2008-03-02T10:11:08Z</time></trkpt>
<trkpt lat="48.13925140" lon="6.44330040"><ele>430.327271</ele><time>2008-03-02T10:11:12Z</time></trkpt>
<trkpt lat="48.13941585" lon="6.44339184"><ele>431.288574</ele><time>2008-03-02T10:11:16Z</time></trkpt>
<trkpt lat="48.13951149" lon="6.44356258"><ele>431.288574</ele><time>2008-03-02T10:11:22Z</time></trkpt>
<trkpt lat="48.13960260" lon="6.44373198"><ele>431.769165</ele><time>2008-03-02T10:11:26Z</time></trkpt>
<trkpt lat="48.13961995" lon="6.44376693"><ele>431.769165</ele><time>2008-03-02T10:11:29Z</time></trkpt>
<trkpt lat="48.13962313" lon="6.44376534"><ele>431.769165</ele><time>2008-03-02T10:11:32Z</time></trkpt>
<trkpt lat="48.13963998" lon="6.44378915"><ele>431.769165</ele><time>2008-03-02T10:11:35Z</time></trkpt>
<trkpt lat="48.13964275" lon="6.44379124"><ele>431.769165</ele><time>2008-03-02T10:11:38Z</time></trkpt>
<trkpt lat="48.13964342" lon="6.44380457"><ele>432.25</ele><time>2008-03-02T10:11:39Z</time></trkpt>
<trkpt lat="48.13969245" lon="6.44396064"><ele>434.65332</ele><time>2008-03-02T10:11:43Z</time></trkpt>
<trkpt lat="48.13977258" lon="6.44422064"><ele>434.65332</ele><time>2008-03-02T10:11:49Z</time></trkpt>
<trkpt lat="48.13986395" lon="6.44441938"><ele>434.65332</ele><time>2008-03-02T10:11:53Z</time></trkpt>
<trkpt lat="48.13992622" lon="6.44452524"><ele>433.691895</ele><time>2008-03-02T10:11:55Z</time></trkpt>
<trkpt lat="48.14011180" lon="6.44487225"><ele>431.769165</ele><time>2008-03-02T10:12:01Z</time></trkpt>
<trkpt lat="48.14018933" lon="6.44497527"><ele>431.288574</ele><time>2008-03-02T10:12:03Z</time></trkpt>
<trkpt lat="48.14026259" lon="6.44509354"><ele>430.807983</ele><time>2008-03-02T10:12:05Z</time></trkpt>
<trkpt lat="48.14048018" lon="6.44537584"><ele>429.365967</ele><time>2008-03-02T10:12:10Z</time></trkpt>
<trkpt lat="48.14076643" lon="6.44575277"><ele>429.365967</ele><time>2008-03-02T10:12:16Z</time></trkpt>
<trkpt lat="48.14091939" lon="6.44600565"><ele>429.846558</ele><time>2008-03-02T10:12:21Z</time></trkpt>
<trkpt lat="48.14103389" lon="6.44617514"><ele>430.807983</ele><time>2008-03-02T10:12:26Z</time></trkpt>
<trkpt lat="48.14120002" lon="6.44649105"><ele>435.133911</ele><time>2008-03-02T10:12:34Z</time></trkpt>
<trkpt lat="48.14132164" lon="6.44670630"><ele>435.614502</ele><time>2008-03-02T10:12:39Z</time></trkpt>
<trkpt lat="48.14145525" lon="6.44694887"><ele>435.614502</ele><time>2008-03-02T10:12:44Z</time></trkpt>
<trkpt lat="48.14161099" lon="6.44720854"><ele>436.095215</ele><time>2008-03-02T10:12:49Z</time></trkpt>
<trkpt lat="48.14184367" lon="6.44739663"><ele>436.095215</ele><time>2008-03-02T10:12:54Z</time></trkpt>
<trkpt lat="48.14188817" lon="6.44741273"><ele>436.095215</ele><time>2008-03-02T10:12:55Z</time></trkpt>
<trkpt lat="48.14213427" lon="6.44753158"><ele>435.133911</ele><time>2008-03-02T10:13:01Z</time></trkpt>
<trkpt lat="48.14230618" lon="6.44758673"><ele>435.133911</ele><time>2008-03-02T10:13:05Z</time></trkpt>
<trkpt lat="48.14260734" lon="6.44762529"><ele>439.459717</ele><time>2008-03-02T10:13:10Z</time></trkpt>
<trkpt lat="48.14286316" lon="6.44773082"><ele>440.421265</ele><time>2008-03-02T10:13:14Z</time></trkpt>
<trkpt lat="48.14303708" lon="6.44780835"><ele>438.979126</ele><time>2008-03-02T10:13:17Z</time></trkpt>
<trkpt lat="48.14324713" lon="6.44771758"><ele>438.498535</ele><time>2008-03-02T10:13:21Z</time></trkpt>
<trkpt lat="48.14333992" lon="6.44760802"><ele>438.498535</ele><time>2008-03-02T10:13:23Z</time></trkpt>
<trkpt lat="48.14339616" lon="6.44739186"><ele>431.769165</ele><time>2008-03-02T10:13:27Z</time></trkpt>
<trkpt lat="48.14339683" lon="6.44733452"><ele>430.327271</ele><time>2008-03-02T10:13:28Z</time></trkpt>
<trkpt lat="48.14343422" lon="6.44704099"><ele>424.559448</ele><time>2008-03-02T10:13:34Z</time></trkpt>
<trkpt lat="48.14342122" lon="6.44684066"><ele>422.636719</ele><time>2008-03-02T10:13:38Z</time></trkpt>
<trkpt lat="48.14341427" lon="6.44678987"><ele>422.636719</ele><time>2008-03-02T10:13:39Z</time></trkpt>
<trkpt lat="48.14344939" lon="6.44652206"><ele>422.636719</ele><time>2008-03-02T10:13:43Z</time></trkpt>
<trkpt lat="48.14355148" lon="6.44622845"><ele>422.156006</ele><time>2008-03-02T10:13:48Z</time></trkpt>
<trkpt lat="48.14371082" lon="6.44612510"><ele>421.675415</ele><time>2008-03-02T10:13:52Z</time></trkpt>
<trkpt lat="48.14389078" lon="6.44586015"><ele>417.8302</ele><time>2008-03-02T10:13:58Z</time></trkpt>
<trkpt lat="48.14399195" lon="6.44551154"><ele>412.062256</ele><time>2008-03-02T10:14:03Z</time></trkpt>
<trkpt lat="48.14399756" lon="6.44535312"><ele>410.620239</ele><time>2008-03-02T10:14:05Z</time></trkpt>
<trkpt lat="48.14398885" lon="6.44496135"><ele>404.371704</ele><time>2008-03-02T10:14:11Z</time></trkpt>
<trkpt lat="48.14399304" lon="6.44481258"><ele>402.449097</ele><time>2008-03-02T10:14:15Z</time></trkpt>
<trkpt lat="48.14394065" lon="6.44453849"><ele>400.045898</ele><time>2008-03-02T10:14:22Z</time></trkpt>
<trkpt lat="48.14395038" lon="6.44438267"><ele>395.239136</ele><time>2008-03-02T10:14:27Z</time></trkpt>
<trkpt lat="48.14397493" lon="6.44430094"><ele>391.874512</ele><time>2008-03-02T10:14:30Z</time></trkpt>
<trkpt lat="48.14408667" lon="6.44428083"><ele>389.951904</ele><time>2008-03-02T10:14:35Z</time></trkpt>
<trkpt lat="48.14412673" lon="6.44430128"><ele>388.51001</ele><time>2008-03-02T10:14:36Z</time></trkpt>
<trkpt lat="48.14423787" lon="6.44435878"><ele>387.067993</ele><time>2008-03-02T10:14:38Z</time></trkpt>
<trkpt lat="48.14457432" lon="6.44454008"><ele>383.703247</ele><time>2008-03-02T10:14:43Z</time></trkpt>
<trkpt lat="48.14465194" lon="6.44457780"><ele>383.703247</ele><time>2008-03-02T10:14:44Z</time></trkpt>
<trkpt lat="48.14502854" lon="6.44464393"><ele>380.338745</ele><time>2008-03-02T10:14:49Z</time></trkpt>
<trkpt lat="48.14509870" lon="6.44465449"><ele>380.338745</ele><time>2008-03-02T10:14:50Z</time></trkpt>
<trkpt lat="48.14523415" lon="6.44458040"><ele>379.858032</ele><time>2008-03-02T10:14:54Z</time></trkpt>
<trkpt lat="48.14537228" lon="6.44395393"><ele>377.454834</ele><time>2008-03-02T10:15:04Z</time></trkpt>
<trkpt lat="48.14548795" lon="6.44351003"><ele>376.49353</ele><time>2008-03-02T10:15:11Z</time></trkpt>
<trkpt lat="48.14565425" lon="6.44287845"><ele>377.935425</ele><time>2008-03-02T10:15:21Z</time></trkpt>
<trkpt lat="48.14570856" lon="6.44241694"><ele>377.454834</ele><time>2008-03-02T10:15:28Z</time></trkpt>
<trkpt lat="48.14569507" lon="6.44196114"><ele>376.49353</ele><time>2008-03-02T10:15:35Z</time></trkpt>
<trkpt lat="48.14567034" lon="6.44149426"><ele>376.49353</ele><time>2008-03-02T10:15:43Z</time></trkpt>
<trkpt lat="48.14565383" lon="6.44133534"><ele>376.974243</ele><time>2008-03-02T10:15:46Z</time></trkpt>
<trkpt lat="48.14572809" lon="6.44101608"><ele>376.012817</ele><time>2008-03-02T10:15:52Z</time></trkpt>
<trkpt lat="48.14574326" lon="6.44095514"><ele>376.012817</ele><time>2008-03-02T10:15:53Z</time></trkpt>
<trkpt lat="48.14573413" lon="6.44059338"><ele>376.012817</ele><time>2008-03-02T10:15:59Z</time></trkpt>
<trkpt lat="48.14570035" lon="6.44048785"><ele>376.012817</ele><time>2008-03-02T10:16:01Z</time></trkpt>
<trkpt lat="48.14552207" lon="6.44004679"><ele>375.532104</ele><time>2008-03-02T10:16:10Z</time></trkpt>
<trkpt lat="48.14544730" lon="6.43990036"><ele>376.49353</ele><time>2008-03-02T10:16:13Z</time></trkpt>
<trkpt lat="48.14523113" lon="6.43971948"><ele>377.935425</ele><time>2008-03-02T10:16:19Z</time></trkpt>
<trkpt lat="48.14519182" lon="6.43971353"><ele>378.416138</ele><time>2008-03-02T10:16:20Z</time></trkpt>
<trkpt lat="48.14490214" lon="6.43973582"><ele>378.416138</ele><time>2008-03-02T10:16:28Z</time></trkpt>
<trkpt lat="48.14477574" lon="6.43975619"><ele>378.416138</ele><time>2008-03-02T10:16:31Z</time></trkpt>
<trkpt lat="48.14458589" lon="6.43965947"><ele>378.416138</ele><time>2008-03-02T10:16:36Z</time></trkpt>
<trkpt lat="48.14449679" lon="6.43952016"><ele>378.896851</ele><time>2008-03-02T10:16:39Z</time></trkpt>
<trkpt lat="48.14442345" lon="6.43935068"><ele>379.377441</ele><time>2008-03-02T10:16:42Z</time></trkpt>
<trkpt lat="48.14436830" lon="6.43905186"><ele>379.377441</ele><time>2008-03-02T10:16:47Z</time></trkpt>
<trkpt lat="48.14441297" lon="6.43877425"><ele>381.300049</ele><time>2008-03-02T10:16:52Z</time></trkpt>
<trkpt lat="48.14443074" lon="6.43872312"><ele>380.338745</ele><time>2008-03-02T10:16:53Z</time></trkpt>
<trkpt lat="48.14455136" lon="6.43850637"><ele>377.454834</ele><time>2008-03-02T10:16:57Z</time></trkpt>
<trkpt lat="48.14488144" lon="6.43822943"><ele>377.935425</ele><time>2008-03-02T10:17:05Z</time></trkpt>
<trkpt lat="48.14523658" lon="6.43799515"><ele>380.819458</ele><time>2008-03-02T10:17:13Z</time></trkpt>
<trkpt lat="48.14545895" lon="6.43783506"><ele>381.300049</ele><time>2008-03-02T10:17:18Z</time></trkpt>
<trkpt lat="48.14559474" lon="6.43762417"><ele>379.858032</ele><time>2008-03-02T10:17:22Z</time></trkpt>
<trkpt lat="48.14570814" lon="6.43716820"><ele>376.974243</ele><time>2008-03-02T10:17:29Z</time></trkpt>
<trkpt lat="48.14573488" lon="6.43682630"><ele>376.49353</ele><time>2008-03-02T10:17:34Z</time></trkpt>
<trkpt lat="48.14571166" lon="6.43646579"><ele>376.49353</ele><time>2008-03-02T10:17:39Z</time></trkpt>
<trkpt lat="48.14568526" lon="6.43632967"><ele>376.974243</ele><time>2008-03-02T10:17:41Z</time></trkpt>
<trkpt lat="48.14545794" lon="6.43585936"><ele>383.222656</ele><time>2008-03-02T10:17:49Z</time></trkpt>
<trkpt lat="48.14520154" lon="6.43545837"><ele>388.990601</ele><time>2008-03-02T10:17:57Z</time></trkpt>
<trkpt lat="48.14506844" lon="6.43514933"><ele>394.277954</ele><time>2008-03-02T10:18:02Z</time></trkpt>
<trkpt lat="48.14503432" lon="6.43477986"><ele>389.951904</ele><time>2008-03-02T10:18:08Z</time></trkpt>
<trkpt lat="48.14498277" lon="6.43438532"><ele>391.874512</ele><time>2008-03-02T10:18:14Z</time></trkpt>
<trkpt lat="48.14497238" lon="6.43431466"><ele>392.355347</ele><time>2008-03-02T10:18:15Z</time></trkpt>
<trkpt lat="48.14486157" lon="6.43400730"><ele>395.239136</ele><time>2008-03-02T10:18:20Z</time></trkpt>
<trkpt lat="48.14469418" lon="6.43370639"><ele>397.161743</ele><time>2008-03-02T10:18:26Z</time></trkpt>
<trkpt lat="48.14437944" lon="6.43332442"><ele>397.161743</ele><time>2008-03-02T10:18:34Z</time></trkpt>
<trkpt lat="48.14414542" lon="6.43303240"><ele>397.642456</ele><time>2008-03-02T10:18:40Z</time></trkpt>
<trkpt lat="48.14396169" lon="6.43279159"><ele>392.835938</ele><time>2008-03-02T10:18:45Z</time></trkpt>
<trkpt lat="48.14385214" lon="6.43255647"><ele>392.355347</ele><time>2008-03-02T10:18:49Z</time></trkpt>
<trkpt lat="48.14381308" lon="6.43217853"><ele>390.913208</ele><time>2008-03-02T10:18:55Z</time></trkpt>
<trkpt lat="48.14384007" lon="6.43209823"><ele>390.432617</ele><time>2008-03-02T10:18:58Z</time></trkpt>
<trkpt lat="48.14385415" lon="6.43208248"><ele>388.029297</ele><time>2008-03-02T10:19:01Z</time></trkpt>
<trkpt lat="48.14384342" lon="6.43206127"><ele>387.067993</ele><time>2008-03-02T10:19:04Z</time></trkpt>
<trkpt lat="48.14383269" lon="6.43202472"><ele>388.51001</ele><time>2008-03-02T10:19:08Z</time></trkpt>
<trkpt lat="48.14385742" lon="6.43189330"><ele>388.990601</ele><time>2008-03-02T10:19:16Z</time></trkpt>
<trkpt lat="48.14386714" lon="6.43184979"><ele>394.277954</ele><time>2008-03-02T10:19:22Z</time></trkpt>
<trkpt lat="48.14389212" lon="6.43185826"><ele>394.758545</ele><time>2008-03-02T10:19:26Z</time></trkpt>
<trkpt lat="48.14389573" lon="6.43185457"><ele>395.719849</ele><time>2008-03-02T10:19:29Z</time></trkpt>
<trkpt lat="48.14396789" lon="6.43175676"><ele>396.681152</ele><time>2008-03-02T10:19:33Z</time></trkpt>
<trkpt lat="48.14407493" lon="6.43162047"><ele>393.797241</ele><time>2008-03-02T10:19:37Z</time></trkpt>
<trkpt lat="48.14414073" lon="6.43155299"><ele>392.835938</ele><time>2008-03-02T10:19:39Z</time></trkpt>
<trkpt lat="48.14439227" lon="6.43136163"><ele>390.913208</ele><time>2008-03-02T10:19:46Z</time></trkpt>
<trkpt lat="48.14462084" lon="6.43124412"><ele>390.432617</ele><time>2008-03-02T10:19:52Z</time></trkpt>
<trkpt lat="48.14469905" lon="6.43124093"><ele>389.471191</ele><time>2008-03-02T10:19:54Z</time></trkpt>
<trkpt lat="48.14497163" lon="6.43126323"><ele>391.393799</ele><time>2008-03-02T10:20:00Z</time></trkpt>
<trkpt lat="48.14512535" lon="6.43116684"><ele>390.432617</ele><time>2008-03-02T10:20:04Z</time></trkpt>
<trkpt lat="48.14525477" lon="6.43098822"><ele>390.432617</ele><time>2008-03-02T10:20:08Z</time></trkpt>
<trkpt lat="48.14530422" lon="6.43088856"><ele>389.951904</ele><time>2008-03-02T10:20:10Z</time></trkpt>
<trkpt lat="48.14546918" lon="6.43040350"><ele>387.548584</ele><time>2008-03-02T10:20:18Z</time></trkpt>
<trkpt lat="48.14558216" lon="6.43013829"><ele>385.625977</ele><time>2008-03-02T10:20:23Z</time></trkpt>
<trkpt lat="48.14563958" lon="6.42995649"><ele>383.703247</ele><time>2008-03-02T10:20:26Z</time></trkpt>
<trkpt lat="48.14572038" lon="6.42973873"><ele>380.819458</ele><time>2008-03-02T10:20:30Z</time></trkpt>
<trkpt lat="48.14584326" lon="6.42936783"><ele>375.532104</ele><time>2008-03-02T10:20:36Z</time></trkpt>
<trkpt lat="48.14588316" lon="6.42923330"><ele>375.051514</ele><time>2008-03-02T10:20:38Z</time></trkpt>
<trkpt lat="48.14596765" lon="6.42906164"><ele>372.16748</ele><time>2008-03-02T10:20:41Z</time></trkpt>
<trkpt lat="48.14614274" lon="6.42895569"><ele>373.609497</ele><time>2008-03-02T10:20:46Z</time></trkpt>
<trkpt lat="48.14617787" lon="6.42891009"><ele>376.012817</ele><time>2008-03-02T10:20:50Z</time></trkpt>
<trkpt lat="48.14617828" lon="6.42890037"><ele>375.532104</ele><time>2008-03-02T10:20:53Z</time></trkpt>
<trkpt lat="48.14618776" lon="6.42887447"><ele>376.974243</ele><time>2008-03-02T10:20:56Z</time></trkpt>
<trkpt lat="48.14620050" lon="6.42887598"><ele>377.935425</ele><time>2008-03-02T10:20:59Z</time></trkpt>
<trkpt lat="48.14623319" lon="6.42888922"><ele>377.454834</ele><time>2008-03-02T10:21:02Z</time></trkpt>
<trkpt lat="48.14629513" lon="6.42891479"><ele>380.819458</ele><time>2008-03-02T10:21:07Z</time></trkpt>
<trkpt lat="48.14630426" lon="6.42891923"><ele>383.222656</ele><time>2008-03-02T10:21:11Z</time></trkpt>
<trkpt lat="48.14631105" lon="6.42894479"><ele>386.106689</ele><time>2008-03-02T10:21:15Z</time></trkpt>
<trkpt lat="48.14630343" lon="6.42895175"><ele>388.029297</ele><time>2008-03-02T10:21:16Z</time></trkpt>
<trkpt lat="48.14628926" lon="6.42897447"><ele>392.355347</ele><time>2008-03-02T10:21:20Z</time></trkpt>
<trkpt lat="48.14632589" lon="6.42900347"><ele>391.393799</ele><time>2008-03-02T10:21:23Z</time></trkpt>
<trkpt lat="48.14643636" lon="6.42911553"><ele>388.029297</ele><time>2008-03-02T10:21:28Z</time></trkpt>
<trkpt lat="48.14650183" lon="6.42930195"><ele>388.029297</ele><time>2008-03-02T10:21:32Z</time></trkpt>
<trkpt lat="48.14649847" lon="6.42958366"><ele>389.951904</ele><time>2008-03-02T10:21:37Z</time></trkpt>
<trkpt lat="48.14648942" lon="6.42970352"><ele>389.951904</ele><time>2008-03-02T10:21:39Z</time></trkpt>
<trkpt lat="48.14647182" lon="6.42989916"><ele>388.51001</ele><time>2008-03-02T10:21:42Z</time></trkpt>
<trkpt lat="48.14646109" lon="6.43035790"><ele>389.951904</ele><time>2008-03-02T10:21:49Z</time></trkpt>
<trkpt lat="48.14646092" lon="6.43049285"><ele>388.990601</ele><time>2008-03-02T10:21:51Z</time></trkpt>
<trkpt lat="48.14645883" lon="6.43063442"><ele>388.029297</ele><time>2008-03-02T10:21:53Z</time></trkpt>
<trkpt lat="48.14646076" lon="6.43078295"><ele>386.587402</ele><time>2008-03-02T10:21:55Z</time></trkpt>
<trkpt lat="48.14646369" lon="6.43099819"><ele>385.145386</ele><time>2008-03-02T10:21:58Z</time></trkpt>
<trkpt lat="48.14649487" lon="6.43141989"><ele>385.625977</ele><time>2008-03-02T10:22:04Z</time></trkpt>
<trkpt lat="48.14654558" lon="6.43193915"><ele>385.145386</ele><time>2008-03-02T10:22:11Z</time></trkpt>
<trkpt lat="48.14655974" lon="6.43237123"><ele>385.625977</ele><time>2008-03-02T10:22:17Z</time></trkpt>
<trkpt lat="48.14653787" lon="6.43265085"><ele>384.664795</ele><time>2008-03-02T10:22:21Z</time></trkpt>
<trkpt lat="48.14651725" lon="6.43299703"><ele>383.703247</ele><time>2008-03-02T10:22:26Z</time></trkpt>
<trkpt lat="48.14651716" lon="6.43333817"><ele>383.222656</ele><time>2008-03-02T10:22:31Z</time></trkpt>
<trkpt lat="48.14656276" lon="6.43378819"><ele>383.222656</ele><time>2008-03-02T10:22:37Z</time></trkpt>
<trkpt lat="48.14659067" lon="6.43393932"><ele>382.261353</ele><time>2008-03-02T10:22:39Z</time></trkpt>
<trkpt lat="48.14668975" lon="6.43422497"><ele>379.858032</ele><time>2008-03-02T10:22:43Z</time></trkpt>
<trkpt lat="48.14680534" lon="6.43447953"><ele>377.454834</ele><time>2008-03-02T10:22:47Z</time></trkpt>
<trkpt lat="48.14700935" lon="6.43499837"><ele>376.974243</ele><time>2008-03-02T10:22:55Z</time></trkpt>
<trkpt lat="48.14715427" lon="6.43549534"><ele>377.454834</ele><time>2008-03-02T10:23:02Z</time></trkpt>
<trkpt lat="48.14724220" lon="6.43569105"><ele>376.012817</ele><time>2008-03-02T10:23:05Z</time></trkpt>
<trkpt lat="48.14748863" lon="6.43599909"><ele>376.974243</ele><time>2008-03-02T10:23:11Z</time></trkpt>
<trkpt lat="48.14757295" lon="6.43609087"><ele>377.454834</ele><time>2008-03-02T10:23:13Z</time></trkpt>
<trkpt lat="48.14780882" lon="6.43621869"><ele>378.896851</ele><time>2008-03-02T10:23:18Z</time></trkpt>
<trkpt lat="48.14798106" lon="6.43629598"><ele>382.261353</ele><time>2008-03-02T10:23:22Z</time></trkpt>
<trkpt lat="48.14805047" lon="6.43646453"><ele>384.664795</ele><time>2008-03-02T10:23:25Z</time></trkpt>
<trkpt lat="48.14802557" lon="6.43659010"><ele>388.990601</ele><time>2008-03-02T10:23:27Z</time></trkpt>
<trkpt lat="48.14796455" lon="6.43712176"><ele>390.432617</ele><time>2008-03-02T10:23:34Z</time></trkpt>
<trkpt lat="48.14795634" lon="6.43727934"><ele>389.951904</ele><time>2008-03-02T10:23:36Z</time></trkpt>
<trkpt lat="48.14796413" lon="6.43761445"><ele>389.471191</ele><time>2008-03-02T10:23:40Z</time></trkpt>
<trkpt lat="48.14808735" lon="6.43824284"><ele>385.145386</ele><time>2008-03-02T10:23:48Z</time></trkpt>
<trkpt lat="48.14821626" lon="6.43875263"><ele>383.222656</ele><time>2008-03-02T10:23:55Z</time></trkpt>
<trkpt lat="48.14823629" lon="6.43881843"><ele>381.78064</ele><time>2008-03-02T10:23:56Z</time></trkpt>
<trkpt lat="48.14856780" lon="6.43950356"><ele>378.416138</ele><time>2008-03-02T10:24:06Z</time></trkpt>
<trkpt lat="48.14887684" lon="6.44015576"><ele>376.974243</ele><time>2008-03-02T10:24:15Z</time></trkpt>
<trkpt lat="48.14898488" lon="6.44036078"><ele>376.49353</ele><time>2008-03-02T10:24:18Z</time></trkpt>
<trkpt lat="48.14918865" lon="6.44094525"><ele>376.012817</ele><time>2008-03-02T10:24:26Z</time></trkpt>
<trkpt lat="48.14931588" lon="6.44150617"><ele>376.012817</ele><time>2008-03-02T10:24:33Z</time></trkpt>
<trkpt lat="48.14951889" lon="6.44215099"><ele>376.012817</ele><time>2008-03-02T10:24:41Z</time></trkpt>
<trkpt lat="48.14975115" lon="6.44281098"><ele>375.532104</ele><time>2008-03-02T10:24:49Z</time></trkpt>
<trkpt lat="48.15001007" lon="6.44352059"><ele>375.532104</ele><time>2008-03-02T10:24:58Z</time></trkpt>
<trkpt lat="48.15006137" lon="6.44366643"><ele>375.532104</ele><time>2008-03-02T10:25:00Z</time></trkpt>
<trkpt lat="48.15024686" lon="6.44392275"><ele>376.012817</ele><time>2008-03-02T10:25:05Z</time></trkpt>
<trkpt lat="48.15043495" lon="6.44391119"><ele>376.012817</ele><time>2008-03-02T10:25:09Z</time></trkpt>
<trkpt lat="48.15069747" lon="6.44380105"><ele>377.454834</ele><time>2008-03-02T10:25:16Z</time></trkpt>
<trkpt lat="48.15073988" lon="6.44376886"><ele>377.454834</ele><time>2008-03-02T10:25:19Z</time></trkpt>
<trkpt lat="48.15074986" lon="6.44372226"><ele>378.416138</ele><time>2008-03-02T10:25:25Z</time></trkpt>
<trkpt lat="48.15076176" lon="6.44371144"><ele>378.896851</ele><time>2008-03-02T10:25:26Z</time></trkpt>
<trkpt lat="48.15078942" lon="6.44369133"><ele>377.935425</ele><time>2008-03-02T10:25:32Z</time></trkpt>
<trkpt lat="48.15087643" lon="6.44356526"><ele>377.935425</ele><time>2008-03-02T10:25:36Z</time></trkpt>
<trkpt lat="48.15096209" lon="6.44334784"><ele>376.49353</ele><time>2008-03-02T10:25:41Z</time></trkpt>
<trkpt lat="48.15100785" lon="6.44324189"><ele>376.974243</ele><time>2008-03-02T10:25:43Z</time></trkpt>
<trkpt lat="48.15113308" lon="6.44278860"><ele>372.648193</ele><time>2008-03-02T10:25:50Z</time></trkpt>
<trkpt lat="48.15114909" lon="6.44265742"><ele>372.16748</ele><time>2008-03-02T10:25:52Z</time></trkpt>
<trkpt lat="48.15109704" lon="6.44241435"><ele>373.609497</ele><time>2008-03-02T10:25:55Z</time></trkpt>
<trkpt lat="48.15091607" lon="6.44194270"><ele>384.664795</ele><time>2008-03-02T10:26:02Z</time></trkpt>
<trkpt lat="48.15076738" lon="6.44160155"><ele>393.797241</ele><time>2008-03-02T10:26:07Z</time></trkpt>
<trkpt lat="48.15066344" lon="6.44128664"><ele>399.084351</ele><time>2008-03-02T10:26:12Z</time></trkpt>
<trkpt lat="48.15059345" lon="6.44068088"><ele>395.239136</ele><time>2008-03-02T10:26:20Z</time></trkpt>
<trkpt lat="48.15063679" lon="6.44025114"><ele>391.874512</ele><time>2008-03-02T10:26:26Z</time></trkpt>
<trkpt lat="48.15079143" lon="6.44016624"><ele>388.51001</ele><time>2008-03-02T10:26:30Z</time></trkpt>
<trkpt lat="48.15087693" lon="6.44020898"><ele>388.990601</ele><time>2008-03-02T10:26:32Z</time></trkpt>
<trkpt lat="48.15104163" lon="6.44032859"><ele>387.548584</ele><time>2008-03-02T10:26:36Z</time></trkpt>
<trkpt lat="48.15128320" lon="6.44035969"><ele>386.587402</ele><time>2008-03-02T10:26:41Z</time></trkpt>
<trkpt lat="48.15138278" lon="6.44020747"><ele>388.990601</ele><time>2008-03-02T10:26:44Z</time></trkpt>
<trkpt lat="48.15141253" lon="6.44007286"><ele>390.432617</ele><time>2008-03-02T10:26:46Z</time></trkpt>
<trkpt lat="48.15141773" lon="6.43957129"><ele>393.797241</ele><time>2008-03-02T10:26:53Z</time></trkpt>
<trkpt lat="48.15166114" lon="6.43936526"><ele>396.681152</ele><time>2008-03-02T10:26:59Z</time></trkpt>
<trkpt lat="48.15186365" lon="6.43913777"><ele>394.758545</ele><time>2008-03-02T10:27:04Z</time></trkpt>
<trkpt lat="48.15205014" lon="6.43871206"><ele>387.548584</ele><time>2008-03-02T10:27:11Z</time></trkpt>
<trkpt lat="48.15218065" lon="6.43827016"><ele>377.935425</ele><time>2008-03-02T10:27:18Z</time></trkpt>
<trkpt lat="48.15222675" lon="6.43793397"><ele>376.012817</ele><time>2008-03-02T10:27:23Z</time></trkpt>
<trkpt lat="48.15222709" lon="6.43766047"><ele>380.338745</ele><time>2008-03-02T10:27:27Z</time></trkpt>
<trkpt lat="48.15220320" lon="6.43731815"><ele>384.664795</ele><time>2008-03-02T10:27:32Z</time></trkpt>
<trkpt lat="48.15222239" lon="6.43716778"><ele>385.145386</ele><time>2008-03-02T10:27:34Z</time></trkpt>
<trkpt lat="48.15231233" lon="6.43691699"><ele>384.184082</ele><time>2008-03-02T10:27:38Z</time></trkpt>
<trkpt lat="48.15250805" lon="6.43644769"><ele>385.145386</ele><time>2008-03-02T10:27:46Z</time></trkpt>
<trkpt lat="48.15261869" lon="6.43613496"><ele>384.664795</ele><time>2008-03-02T10:27:51Z</time></trkpt>
<trkpt lat="48.15268918" lon="6.43579432"><ele>381.78064</ele><time>2008-03-02T10:27:56Z</time></trkpt>
<trkpt lat="48.15270443" lon="6.43572785"><ele>382.261353</ele><time>2008-03-02T10:27:57Z</time></trkpt>
<trkpt lat="48.15274567" lon="6.43535343"><ele>380.338745</ele><time>2008-03-02T10:28:02Z</time></trkpt>
<trkpt lat="48.15279555" lon="6.43504967"><ele>388.029297</ele><time>2008-03-02T10:28:07Z</time></trkpt>
<trkpt lat="48.15282404" lon="6.43477793"><ele>388.990601</ele><time>2008-03-02T10:28:11Z</time></trkpt>
<trkpt lat="48.15289915" lon="6.43433629"><ele>394.758545</ele><time>2008-03-02T10:28:18Z</time></trkpt>
<trkpt lat="48.15294810" lon="6.43403563"><ele>398.60376</ele><time>2008-03-02T10:28:23Z</time></trkpt>
<trkpt lat="48.15300509" lon="6.43348033"><ele>407.736328</ele><time>2008-03-02T10:28:32Z</time></trkpt>
<trkpt lat="48.15301515" lon="6.43321428"><ele>404.852295</ele><time>2008-03-02T10:28:37Z</time></trkpt>
<trkpt lat="48.15308699" lon="6.43295906"><ele>406.294312</ele><time>2008-03-02T10:28:42Z</time></trkpt>
<trkpt lat="48.15316787" lon="6.43272285"><ele>411.100952</ele><time>2008-03-02T10:28:48Z</time></trkpt>
<trkpt lat="48.15317147" lon="6.43241934"><ele>425.520752</ele><time>2008-03-02T10:28:55Z</time></trkpt>
<trkpt lat="48.15317290" lon="6.43211248"><ele>433.691895</ele><time>2008-03-02T10:29:02Z</time></trkpt>
<trkpt lat="48.15319142" lon="6.43181778"><ele>431.288574</ele><time>2008-03-02T10:29:10Z</time></trkpt>
<trkpt lat="48.15325068" lon="6.43172574"><ele>431.769165</ele><time>2008-03-02T10:29:16Z</time></trkpt>
<trkpt lat="48.15340214" lon="6.43166095"><ele>427.443359</ele><time>2008-03-02T10:29:24Z</time></trkpt>
<trkpt lat="48.15353877" lon="6.43161736"><ele>423.117432</ele><time>2008-03-02T10:29:30Z</time></trkpt>
<trkpt lat="48.15367548" lon="6.43158384"><ele>413.984863</ele><time>2008-03-02T10:29:36Z</time></trkpt>
<trkpt lat="48.15377464" lon="6.43151502"><ele>412.062256</ele><time>2008-03-02T10:29:42Z</time></trkpt>
<trkpt lat="48.15395283" lon="6.43143808"><ele>418.791504</ele><time>2008-03-02T10:29:51Z</time></trkpt>
<trkpt lat="48.15416817" lon="6.43129449"><ele>419.752808</ele><time>2008-03-02T10:30:01Z</time></trkpt>
<trkpt lat="48.15432273" lon="6.43120875"><ele>419.272217</ele><time>2008-03-02T10:30:09Z</time></trkpt>
<trkpt lat="48.15446807" lon="6.43114387"><ele>417.349609</ele><time>2008-03-02T10:30:16Z</time></trkpt>
<trkpt lat="48.15462632" lon="6.43108453"><ele>418.791504</ele><time>2008-03-02T10:30:24Z</time></trkpt>
<trkpt lat="48.15477653" lon="6.43099099"><ele>418.791504</ele><time>2008-03-02T10:30:31Z</time></trkpt>
<trkpt lat="48.15492539" lon="6.43090457"><ele>421.194824</ele><time>2008-03-02T10:30:38Z</time></trkpt>
<trkpt lat="48.15505564" lon="6.43089258"><ele>426.482056</ele><time>2008-03-02T10:30:44Z</time></trkpt>
<trkpt lat="48.15517416" lon="6.43087615"><ele>429.365967</ele><time>2008-03-02T10:30:51Z</time></trkpt>
<trkpt lat="48.15530115" lon="6.43089267"><ele>431.288574</ele><time>2008-03-02T10:30:58Z</time></trkpt>
<trkpt lat="48.15542135" lon="6.43090918"><ele>429.365967</ele><time>2008-03-02T10:31:04Z</time></trkpt>
<trkpt lat="48.15554506" lon="6.43088805"><ele>424.078735</ele><time>2008-03-02T10:31:11Z</time></trkpt>
<trkpt lat="48.15565554" lon="6.43087196"><ele>421.675415</ele><time>2008-03-02T10:31:18Z</time></trkpt>
<trkpt lat="48.15578939" lon="6.43087632"><ele>422.636719</ele><time>2008-03-02T10:31:26Z</time></trkpt>
<trkpt lat="48.15588738" lon="6.43088847"><ele>424.078735</ele><time>2008-03-02T10:31:32Z</time></trkpt>
<trkpt lat="48.15598796" lon="6.43085562"><ele>424.078735</ele><time>2008-03-02T10:31:38Z</time></trkpt>
<trkpt lat="48.15609575" lon="6.43082284"><ele>425.520752</ele><time>2008-03-02T10:31:44Z</time></trkpt>
<trkpt lat="48.15619416" lon="6.43078512"><ele>429.365967</ele><time>2008-03-02T10:31:50Z</time></trkpt>
<trkpt lat="48.15622576" lon="6.43078102"><ele>432.25</ele><time>2008-03-02T10:31:53Z</time></trkpt>
<trkpt lat="48.15622735" lon="6.43078253"><ele>433.211304</ele><time>2008-03-02T10:31:56Z</time></trkpt>
<trkpt lat="48.15622777" lon="6.43078295"><ele>434.172607</ele><time>2008-03-02T10:31:57Z</time></trkpt>
<trkpt lat="48.15621679" lon="6.43076015"><ele>437.537109</ele><time>2008-03-02T10:32:03Z</time></trkpt>
<trkpt lat="48.15622089" lon="6.43074908"><ele>435.133911</ele><time>2008-03-02T10:32:05Z</time></trkpt>
<trkpt lat="48.15622903" lon="6.43073995"><ele>432.25</ele><time>2008-03-02T10:32:08Z</time></trkpt>
<trkpt lat="48.15623146" lon="6.43074187"><ele>431.769165</ele><time>2008-03-02T10:32:11Z</time></trkpt>
<trkpt lat="48.15623565" lon="6.43074489"><ele>431.769165</ele><time>2008-03-02T10:32:12Z</time></trkpt>
<trkpt lat="48.15625317" lon="6.43073425"><ele>431.769165</ele><time>2008-03-02T10:32:14Z</time></trkpt>
<trkpt lat="48.15630086" lon="6.43067960"><ele>431.288574</ele><time>2008-03-02T10:32:20Z</time></trkpt>
<trkpt lat="48.15631812" lon="6.43059377"><ele>432.25</ele><time>2008-03-02T10:32:26Z</time></trkpt>
<trkpt lat="48.15631854" lon="6.43053174"><ele>432.25</ele><time>2008-03-02T10:32:31Z</time></trkpt>
<trkpt lat="48.15632114" lon="6.43052185"><ele>432.730713</ele><time>2008-03-02T10:32:34Z</time></trkpt>
<trkpt lat="48.15632039" lon="6.43049662"><ele>433.691895</ele><time>2008-03-02T10:32:35Z</time></trkpt>
<trkpt lat="48.15632986" lon="6.43043979"><ele>434.172607</ele><time>2008-03-02T10:32:40Z</time></trkpt>
<trkpt lat="48.15633187" lon="6.43042839"><ele>434.65332</ele><time>2008-03-02T10:32:41Z</time></trkpt>
<trkpt lat="48.15634034" lon="6.43041087"><ele>434.65332</ele><time>2008-03-02T10:32:44Z</time></trkpt>
<trkpt lat="48.15637227" lon="6.43038883"><ele>436.095215</ele><time>2008-03-02T10:32:47Z</time></trkpt>
<trkpt lat="48.15639415" lon="6.43036804"><ele>438.979126</ele><time>2008-03-02T10:32:51Z</time></trkpt>
<trkpt lat="48.15640286" lon="6.43035555"><ele>439.459717</ele><time>2008-03-02T10:32:56Z</time></trkpt>
<trkpt lat="48.15646280" lon="6.43031004"><ele>437.056519</ele><time>2008-03-02T10:33:00Z</time></trkpt>
<trkpt lat="48.15660638" lon="6.43024206"><ele>437.537109</ele><time>2008-03-02T10:33:08Z</time></trkpt>
<trkpt lat="48.15675524" lon="6.43020636"><ele>442.343872</ele><time>2008-03-02T10:33:15Z</time></trkpt>
<trkpt lat="48.15687996" lon="6.43015296"><ele>439.94043</ele><time>2008-03-02T10:33:22Z</time></trkpt>
<trkpt lat="48.15703319" lon="6.43008624"><ele>445.708374</ele><time>2008-03-02T10:33:30Z</time></trkpt>
<trkpt lat="48.15723058" lon="6.42993889"><ele>441.382446</ele><time>2008-03-02T10:33:40Z</time></trkpt>
<trkpt lat="48.15741506" lon="6.42977687"><ele>440.901855</ele><time>2008-03-02T10:33:50Z</time></trkpt>
<trkpt lat="48.15756292" lon="6.42958785"><ele>443.785767</ele><time>2008-03-02T10:34:00Z</time></trkpt>
<trkpt lat="48.15764054" lon="6.42938828"><ele>446.669678</ele><time>2008-03-02T10:34:08Z</time></trkpt>
<trkpt lat="48.15770273" lon="6.42907379"><ele>443.785767</ele><time>2008-03-02T10:34:19Z</time></trkpt>
<trkpt lat="48.15770558" lon="6.42881035"><ele>446.189087</ele><time>2008-03-02T10:34:28Z</time></trkpt>
<trkpt lat="48.15766719" lon="6.42859552"><ele>445.708374</ele><time>2008-03-02T10:34:35Z</time></trkpt>
<trkpt lat="48.15766074" lon="6.42856652"><ele>445.708374</ele><time>2008-03-02T10:34:36Z</time></trkpt>
<trkpt lat="48.15762227" lon="6.42846786"><ele>446.189087</ele><time>2008-03-02T10:34:40Z</time></trkpt>
<trkpt lat="48.15754524" lon="6.42823527"><ele>450.034424</ele><time>2008-03-02T10:34:49Z</time></trkpt>
<trkpt lat="48.15750592" lon="6.42807685"><ele>455.321533</ele><time>2008-03-02T10:34:54Z</time></trkpt>
<trkpt lat="48.15748849" lon="6.42781709"><ele>456.282959</ele><time>2008-03-02T10:35:02Z</time></trkpt>
<trkpt lat="48.15752948" lon="6.42760143"><ele>449.553711</ele><time>2008-03-02T10:35:09Z</time></trkpt>
<trkpt lat="48.15763065" lon="6.42747436"><ele>446.669678</ele><time>2008-03-02T10:35:16Z</time></trkpt>
<trkpt lat="48.15774774" lon="6.42748794"><ele>446.669678</ele><time>2008-03-02T10:35:23Z</time></trkpt>
<trkpt lat="48.15779535" lon="6.42758458"><ele>446.669678</ele><time>2008-03-02T10:35:28Z</time></trkpt>
<trkpt lat="48.15785126" lon="6.42774099"><ele>446.189087</ele><time>2008-03-02T10:35:35Z</time></trkpt>
<trkpt lat="48.15787992" lon="6.42777359"><ele>446.669678</ele><time>2008-03-02T10:35:37Z</time></trkpt>
<trkpt lat="48.15803063" lon="6.42792564"><ele>445.708374</ele><time>2008-03-02T10:35:46Z</time></trkpt>
<trkpt lat="48.15816902" lon="6.42805858"><ele>445.708374</ele><time>2008-03-02T10:35:54Z</time></trkpt>
<trkpt lat="48.15823582" lon="6.42819503"><ele>446.669678</ele><time>2008-03-02T10:36:00Z</time></trkpt>
<trkpt lat="48.15827513" lon="6.42838639"><ele>448.111816</ele><time>2008-03-02T10:36:06Z</time></trkpt>
<trkpt lat="48.15827899" lon="6.42846543"><ele>448.111816</ele><time>2008-03-02T10:36:09Z</time></trkpt>
<trkpt lat="48.15831444" lon="6.42864782"><ele>450.034424</ele><time>2008-03-02T10:36:15Z</time></trkpt>
<trkpt lat="48.15840866" lon="6.42884346"><ele>450.034424</ele><time>2008-03-02T10:36:22Z</time></trkpt>
<trkpt lat="48.15855534" lon="6.42891387"><ele>450.995605</ele><time>2008-03-02T10:36:29Z</time></trkpt>
<trkpt lat="48.15868727" lon="6.42885000"><ele>451.957031</ele><time>2008-03-02T10:36:36Z</time></trkpt>
<trkpt lat="48.15883035" lon="6.42870893"><ele>451.476318</ele><time>2008-03-02T10:36:44Z</time></trkpt>
<trkpt lat="48.15900452" lon="6.42854204"><ele>450.995605</ele><time>2008-03-02T10:36:52Z</time></trkpt>
<trkpt lat="48.15923553" lon="6.42829042"><ele>450.515015</ele><time>2008-03-02T10:37:01Z</time></trkpt>
<trkpt lat="48.15936243" lon="6.42817559"><ele>451.476318</ele><time>2008-03-02T10:37:07Z</time></trkpt>
<trkpt lat="48.15950274" lon="6.42798565"><ele>450.034424</ele><time>2008-03-02T10:37:12Z</time></trkpt>
<trkpt lat="48.15973358" lon="6.42773202"><ele>449.553711</ele><time>2008-03-02T10:37:17Z</time></trkpt>
<trkpt lat="48.15983232" lon="6.42761853"><ele>449.072998</ele><time>2008-03-02T10:37:19Z</time></trkpt>
<trkpt lat="48.15992159" lon="6.42731393"><ele>446.669678</ele><time>2008-03-02T10:37:23Z</time></trkpt>
<trkpt lat="48.15987892" lon="6.42711846"><ele>447.150269</ele><time>2008-03-02T10:37:25Z</time></trkpt>
<trkpt lat="48.15981514" lon="6.42687480"><ele>446.189087</ele><time>2008-03-02T10:37:27Z</time></trkpt>
<trkpt lat="48.15959687" lon="6.42644824"><ele>447.630981</ele><time>2008-03-02T10:37:32Z</time></trkpt>
<trkpt lat="48.15928356" lon="6.42612085"><ele>446.669678</ele><time>2008-03-02T10:37:39Z</time></trkpt>
<trkpt lat="48.15895189" lon="6.42570837"><ele>446.669678</ele><time>2008-03-02T10:37:48Z</time></trkpt>
<trkpt lat="48.15892179" lon="6.42565616"><ele>446.669678</ele><time>2008-03-02T10:37:49Z</time></trkpt>
<trkpt lat="48.15888232" lon="6.42541132"><ele>444.74707</ele><time>2008-03-02T10:37:53Z</time></trkpt>
<trkpt lat="48.15893990" lon="6.42513505"><ele>442.824463</ele><time>2008-03-02T10:37:57Z</time></trkpt>
<trkpt lat="48.15895398" lon="6.42496138"><ele>441.382446</ele><time>2008-03-02T10:37:59Z</time></trkpt>
<trkpt lat="48.15899212" lon="6.42434665"><ele>439.94043</ele><time>2008-03-02T10:38:05Z</time></trkpt>
<trkpt lat="48.15903319" lon="6.42382328"><ele>436.575928</ele><time>2008-03-02T10:38:09Z</time></trkpt>
<trkpt lat="48.15913394" lon="6.42327519"><ele>434.65332</ele><time>2008-03-02T10:38:13Z</time></trkpt>
<trkpt lat="48.15921642" lon="6.42253029"><ele>429.365967</ele><time>2008-03-02T10:38:18Z</time></trkpt>
<trkpt lat="48.15924358" lon="6.42197994"><ele>420.233398</ele><time>2008-03-02T10:38:22Z</time></trkpt>
<trkpt lat="48.15929177" lon="6.42152463"><ele>418.310791</ele><time>2008-03-02T10:38:26Z</time></trkpt>
<trkpt lat="48.15939294" lon="6.42121299"><ele>414.465454</ele><time>2008-03-02T10:38:29Z</time></trkpt>
<trkpt lat="48.15947928" lon="6.42107025"><ele>412.062256</ele><time>2008-03-02T10:38:31Z</time></trkpt>
<trkpt lat="48.15974205" lon="6.42060304"><ele>418.791504</ele><time>2008-03-02T10:38:36Z</time></trkpt>
<trkpt lat="48.15984389" lon="6.42040330"><ele>420.233398</ele><time>2008-03-02T10:38:38Z</time></trkpt>
<trkpt lat="48.15994682" lon="6.42004782"><ele>417.8302</ele><time>2008-03-02T10:38:42Z</time></trkpt>
<trkpt lat="48.15998864" lon="6.41948406"><ele>421.194824</ele><time>2008-03-02T10:38:47Z</time></trkpt>
<trkpt lat="48.16001044" lon="6.41878719"><ele>422.156006</ele><time>2008-03-02T10:38:53Z</time></trkpt>
<trkpt lat="48.16002628" lon="6.41866984"><ele>423.598022</ele><time>2008-03-02T10:38:54Z</time></trkpt>
<trkpt lat="48.16022049" lon="6.41823792"><ele>431.769165</ele><time>2008-03-02T10:38:58Z</time></trkpt>
<trkpt lat="48.16045946" lon="6.41772293"><ele>431.769165</ele><time>2008-03-02T10:39:03Z</time></trkpt>
<trkpt lat="48.16071024" lon="6.41723268"><ele>439.94043</ele><time>2008-03-02T10:39:08Z</time></trkpt>
<trkpt lat="48.16087838" lon="6.41692129"><ele>436.095215</ele><time>2008-03-02T10:39:11Z</time></trkpt>
<trkpt lat="48.16113755" lon="6.41661703"><ele>427.92395</ele><time>2008-03-02T10:39:15Z</time></trkpt>
<trkpt lat="48.16119363" lon="6.41654989"><ele>427.443359</ele><time>2008-03-02T10:39:16Z</time></trkpt>
<trkpt lat="48.16157693" lon="6.41614823"><ele>424.078735</ele><time>2008-03-02T10:39:22Z</time></trkpt>
<trkpt lat="48.16190936" lon="6.41588177"><ele>423.598022</ele><time>2008-03-02T10:39:27Z</time></trkpt>
<trkpt lat="48.16223449" lon="6.41554490"><ele>423.117432</ele><time>2008-03-02T10:39:32Z</time></trkpt>
<trkpt lat="48.16241370" lon="6.41531993"><ele>416.868896</ele><time>2008-03-02T10:39:35Z</time></trkpt>
<trkpt lat="48.16278183" lon="6.41497518"><ele>409.178345</ele><time>2008-03-02T10:39:41Z</time></trkpt>
<trkpt lat="48.16305173" lon="6.41480645"><ele>400.526489</ele><time>2008-03-02T10:39:45Z</time></trkpt>
<trkpt lat="48.16344618" lon="6.41461627"><ele>390.913208</ele><time>2008-03-02T10:39:50Z</time></trkpt>
<trkpt lat="48.16353813" lon="6.41460512"><ele>387.548584</ele><time>2008-03-02T10:39:51Z</time></trkpt>
<trkpt lat="48.16388866" lon="6.41457972"><ele>379.377441</ele><time>2008-03-02T10:39:55Z</time></trkpt>
<trkpt lat="48.16429015" lon="6.41469028"><ele>372.16748</ele><time>2008-03-02T10:40:00Z</time></trkpt>
<trkpt lat="48.16459492" lon="6.41485758"><ele>367.841553</ele><time>2008-03-02T10:40:04Z</time></trkpt>
<trkpt lat="48.16475334" lon="6.41493394"><ele>365.438354</ele><time>2008-03-02T10:40:06Z</time></trkpt>
<trkpt lat="48.16508903" lon="6.41525572"><ele>363.996338</ele><time>2008-03-02T10:40:11Z</time></trkpt>
<trkpt lat="48.16537703" lon="6.41563769"><ele>363.515747</ele><time>2008-03-02T10:40:16Z</time></trkpt>
<trkpt lat="48.16543252" lon="6.41571329"><ele>363.515747</ele><time>2008-03-02T10:40:17Z</time></trkpt>
<trkpt lat="48.16561148" lon="6.41590373"><ele>363.035034</ele><time>2008-03-02T10:40:20Z</time></trkpt>
<trkpt lat="48.16578054" lon="6.41612769"><ele>362.554321</ele><time>2008-03-02T10:40:24Z</time></trkpt>
<trkpt lat="48.16582027" lon="6.41619558"><ele>362.554321</ele><time>2008-03-02T10:40:26Z</time></trkpt>
<trkpt lat="48.16588883" lon="6.41625334"><ele>362.554321</ele><time>2008-03-02T10:40:32Z</time></trkpt>
<trkpt lat="48.16589110" lon="6.41625443"><ele>362.554321</ele><time>2008-03-02T10:40:35Z</time></trkpt>
<trkpt lat="48.16590560" lon="6.41625560"><ele>363.035034</ele><time>2008-03-02T10:40:38Z</time></trkpt>
<trkpt lat="48.16590954" lon="6.41626105"><ele>362.554321</ele><time>2008-03-02T10:40:41Z</time></trkpt>
<trkpt lat="48.16593946" lon="6.41630237"><ele>362.554321</ele><time>2008-03-02T10:40:42Z</time></trkpt>
<trkpt lat="48.16596620" lon="6.41638225"><ele>361.59314</ele><time>2008-03-02T10:40:45Z</time></trkpt>
<trkpt lat="48.16605337" lon="6.41647554"><ele>362.07373</ele><time>2008-03-02T10:40:51Z</time></trkpt>
<trkpt lat="48.16606494" lon="6.41649717"><ele>362.554321</ele><time>2008-03-02T10:40:52Z</time></trkpt>
<trkpt lat="48.16616435" lon="6.41659884"><ele>362.554321</ele><time>2008-03-02T10:40:57Z</time></trkpt>
<trkpt lat="48.16622025" lon="6.41663773"><ele>361.59314</ele><time>2008-03-02T10:41:00Z</time></trkpt>
<trkpt lat="48.16637892" lon="6.41680956"><ele>363.515747</ele><time>2008-03-02T10:41:06Z</time></trkpt>
<trkpt lat="48.16642553" lon="6.41691408"><ele>364.476929</ele><time>2008-03-02T10:41:09Z</time></trkpt>
<trkpt lat="48.16651789" lon="6.41701877"><ele>363.515747</ele><time>2008-03-02T10:41:13Z</time></trkpt>
<trkpt lat="48.16672962" lon="6.41728649"><ele>361.112427</ele><time>2008-03-02T10:41:20Z</time></trkpt>
<trkpt lat="48.16690304" lon="6.41754742"><ele>360.151123</ele><time>2008-03-02T10:41:26Z</time></trkpt>
<trkpt lat="48.16717437" lon="6.41789912"><ele>365.918945</ele><time>2008-03-02T10:41:33Z</time></trkpt>
<trkpt lat="48.16721234" lon="6.41795905"><ele>367.360962</ele><time>2008-03-02T10:41:34Z</time></trkpt>
<trkpt lat="48.16730554" lon="6.41809207"><ele>368.322266</ele><time>2008-03-02T10:41:37Z</time></trkpt>
<trkpt lat="48.16733932" lon="6.41817950"><ele>370.725586</ele><time>2008-03-02T10:41:40Z</time></trkpt>
<trkpt lat="48.16743487" lon="6.41828159"><ele>375.051514</ele><time>2008-03-02T10:41:45Z</time></trkpt>
<trkpt lat="48.16758659" lon="6.41846214"><ele>381.78064</ele><time>2008-03-02T10:41:51Z</time></trkpt>
<trkpt lat="48.16761752" lon="6.41848929"><ele>381.78064</ele><time>2008-03-02T10:41:52Z</time></trkpt>
<trkpt lat="48.16772707" lon="6.41861670"><ele>381.300049</ele><time>2008-03-02T10:41:55Z</time></trkpt>
<trkpt lat="48.16788222" lon="6.41880286"><ele>382.261353</ele><time>2008-03-02T10:41:59Z</time></trkpt>
<trkpt lat="48.16801256" lon="6.41891040"><ele>380.819458</ele><time>2008-03-02T10:42:02Z</time></trkpt>
<trkpt lat="48.16819352" lon="6.41910855"><ele>378.416138</ele><time>2008-03-02T10:42:07Z</time></trkpt>
<trkpt lat="48.16830978" lon="6.41928339"><ele>376.49353</ele><time>2008-03-02T10:42:12Z</time></trkpt>
<trkpt lat="48.16841246" lon="6.41941407"><ele>375.532104</ele><time>2008-03-02T10:42:15Z</time></trkpt>
<trkpt lat="48.16859577" lon="6.41960668"><ele>374.090088</ele><time>2008-03-02T10:42:19Z</time></trkpt>
<trkpt lat="48.16868923" lon="6.41971665"><ele>371.206299</ele><time>2008-03-02T10:42:21Z</time></trkpt>
<trkpt lat="48.16884345" lon="6.41970534"><ele>367.841553</ele><time>2008-03-02T10:42:25Z</time></trkpt>
<trkpt lat="48.16891545" lon="6.41953024"><ele>367.360962</ele><time>2008-03-02T10:42:28Z</time></trkpt>
<trkpt lat="48.16894286" lon="6.41924475"><ele>365.438354</ele><time>2008-03-02T10:42:33Z</time></trkpt>
<trkpt lat="48.16904688" lon="6.41912967"><ele>366.880249</ele><time>2008-03-02T10:42:37Z</time></trkpt>
<trkpt lat="48.16919658" lon="6.41913705"><ele>366.880249</ele><time>2008-03-02T10:42:42Z</time></trkpt>
<trkpt lat="48.16922450" lon="6.41915155"><ele>366.880249</ele><time>2008-03-02T10:42:43Z</time></trkpt>
<trkpt lat="48.16948442" lon="6.41925179"><ele>367.841553</ele><time>2008-03-02T10:42:52Z</time></trkpt>
<trkpt lat="48.16952792" lon="6.41920016"><ele>368.322266</ele><time>2008-03-02T10:42:54Z</time></trkpt>
<trkpt lat="48.16946707" lon="6.41906153"><ele>368.802979</ele><time>2008-03-02T10:42:59Z</time></trkpt>
<trkpt lat="48.16921310" lon="6.41881937"><ele>371.68689</ele><time>2008-03-02T10:43:09Z</time></trkpt>
<trkpt lat="48.16897790" lon="6.41862416"><ele>379.377441</ele><time>2008-03-02T10:43:17Z</time></trkpt>
<trkpt lat="48.16883147" lon="6.41848653"><ele>380.338745</ele><time>2008-03-02T10:43:23Z</time></trkpt>
<trkpt lat="48.16870616" lon="6.41836558"><ele>382.261353</ele><time>2008-03-02T10:43:28Z</time></trkpt>
<trkpt lat="48.16854154" lon="6.41821110"><ele>387.548584</ele><time>2008-03-02T10:43:34Z</time></trkpt>
<trkpt lat="48.16833300" lon="6.41800063"><ele>391.393799</ele><time>2008-03-02T10:43:42Z</time></trkpt>
<trkpt lat="48.16812194" lon="6.41774339"><ele>390.432617</ele><time>2008-03-02T10:43:51Z</time></trkpt>
<trkpt lat="48.16793217" lon="6.41748548"><ele>392.835938</ele><time>2008-03-02T10:43:59Z</time></trkpt>
<trkpt lat="48.16776269" lon="6.41722463"><ele>390.432617</ele><time>2008-03-02T10:44:06Z</time></trkpt>
<trkpt lat="48.16756354" lon="6.41687879"><ele>392.835938</ele><time>2008-03-02T10:44:14Z</time></trkpt>
<trkpt lat="48.16737645" lon="6.41650236"><ele>395.719849</ele><time>2008-03-02T10:44:22Z</time></trkpt>
<trkpt lat="48.16721845" lon="6.41621277"><ele>402.929688</ele><time>2008-03-02T10:44:28Z</time></trkpt>
<trkpt lat="48.16701846" lon="6.41584539"><ele>402.449097</ele><time>2008-03-02T10:44:35Z</time></trkpt>
<trkpt lat="48.16676633" lon="6.41545303"><ele>389.471191</ele><time>2008-03-02T10:44:43Z</time></trkpt>
<trkpt lat="48.16647423" lon="6.41499840"><ele>380.338745</ele><time>2008-03-02T10:44:52Z</time></trkpt>
<trkpt lat="48.16626593" lon="6.41467637"><ele>377.935425</ele><time>2008-03-02T10:44:58Z</time></trkpt>
<trkpt lat="48.16600325" lon="6.41428342"><ele>376.012817</ele><time>2008-03-02T10:45:05Z</time></trkpt>
<trkpt lat="48.16569647" lon="6.41384773"><ele>379.377441</ele><time>2008-03-02T10:45:13Z</time></trkpt>
<trkpt lat="48.16543948" lon="6.41348798"><ele>381.300049</ele><time>2008-03-02T10:45:20Z</time></trkpt>
<trkpt lat="48.16518752" lon="6.41308330"><ele>378.416138</ele><time>2008-03-02T10:45:28Z</time></trkpt>
<trkpt lat="48.16490924" lon="6.41268306"><ele>380.338745</ele><time>2008-03-02T10:45:37Z</time></trkpt>
<trkpt lat="48.16476474" lon="6.41249942"><ele>385.145386</ele><time>2008-03-02T10:45:42Z</time></trkpt>
<trkpt lat="48.16468536" lon="6.41238408"><ele>387.067993</ele><time>2008-03-02T10:45:45Z</time></trkpt>
<trkpt lat="48.16450800" lon="6.41216582"><ele>393.316528</ele><time>2008-03-02T10:45:51Z</time></trkpt>
<trkpt lat="48.16435117" lon="6.41188620"><ele>397.161743</ele><time>2008-03-02T10:45:57Z</time></trkpt>
<trkpt lat="48.16420348" lon="6.41154598"><ele>403.4104</ele><time>2008-03-02T10:46:04Z</time></trkpt>
<trkpt lat="48.16404842" lon="6.41128002"><ele>407.736328</ele><time>2008-03-02T10:46:10Z</time></trkpt>
<trkpt lat="48.16388103" lon="6.41101272"><ele>407.255615</ele><time>2008-03-02T10:46:16Z</time></trkpt>
<trkpt lat="48.16378196" lon="6.41086008"><ele>407.736328</ele><time>2008-03-02T10:46:20Z</time></trkpt>
<trkpt lat="48.16361876" lon="6.41065029"><ele>408.697632</ele><time>2008-03-02T10:46:25Z</time></trkpt>
<trkpt lat="48.16340787" lon="6.41032079"><ele>409.659058</ele><time>2008-03-02T10:46:32Z</time></trkpt>
<trkpt lat="48.16328776" lon="6.41006229"><ele>406.774902</ele><time>2008-03-02T10:46:37Z</time></trkpt>
<trkpt lat="48.16318466" lon="6.40977127"><ele>402.929688</ele><time>2008-03-02T10:46:42Z</time></trkpt>
<trkpt lat="48.16304913" lon="6.40936073"><ele>404.371704</ele><time>2008-03-02T10:46:49Z</time></trkpt>
<trkpt lat="48.16298484" lon="6.40918907"><ele>404.852295</ele><time>2008-03-02T10:46:52Z</time></trkpt>
<trkpt lat="48.16293455" lon="6.40900685"><ele>404.852295</ele><time>2008-03-02T10:46:55Z</time></trkpt>
<trkpt lat="48.16276817" lon="6.40867073"><ele>412.542847</ele><time>2008-03-02T10:47:02Z</time></trkpt>
<trkpt lat="48.16257832" lon="6.40844576"><ele>418.791504</ele><time>2008-03-02T10:47:08Z</time></trkpt>
<trkpt lat="48.16237816" lon="6.40820906"><ele>413.02356</ele><time>2008-03-02T10:47:14Z</time></trkpt>
<trkpt lat="48.16219753" lon="6.40795173"><ele>411.100952</ele><time>2008-03-02T10:47:20Z</time></trkpt>
<trkpt lat="48.16207373" lon="6.40768586"><ele>402.929688</ele><time>2008-03-02T10:47:25Z</time></trkpt>
<trkpt lat="48.16193593" lon="6.40739517"><ele>404.371704</ele><time>2008-03-02T10:47:31Z</time></trkpt>
<trkpt lat="48.16179176" lon="6.40711228"><ele>408.217041</ele><time>2008-03-02T10:47:37Z</time></trkpt>
<trkpt lat="48.16170853" lon="6.40694029"><ele>408.217041</ele><time>2008-03-02T10:47:41Z</time></trkpt>
<trkpt lat="48.16165363" lon="6.40683736"><ele>407.736328</ele><time>2008-03-02T10:47:43Z</time></trkpt>
<trkpt lat="48.16153469" lon="6.40657098"><ele>407.736328</ele><time>2008-03-02T10:47:48Z</time></trkpt>
<trkpt lat="48.16138733" lon="6.40620628"><ele>411.581665</ele><time>2008-03-02T10:47:55Z</time></trkpt>
<trkpt lat="48.16131240" lon="6.40586305"><ele>414.946167</ele><time>2008-03-02T10:48:01Z</time></trkpt>
<trkpt lat="48.16130653" lon="6.40553883"><ele>414.946167</ele><time>2008-03-02T10:48:07Z</time></trkpt>
<trkpt lat="48.16131583" lon="6.40533674"><ele>416.388184</ele><time>2008-03-02T10:48:11Z</time></trkpt>
<trkpt lat="48.16129362" lon="6.40512653"><ele>421.194824</ele><time>2008-03-02T10:48:15Z</time></trkpt>
<trkpt lat="48.16127317" lon="6.40488706"><ele>418.791504</ele><time>2008-03-02T10:48:20Z</time></trkpt>
<trkpt lat="48.16122028" lon="6.40468924"><ele>419.272217</ele><time>2008-03-02T10:48:24Z</time></trkpt>
<trkpt lat="48.16119564" lon="6.40461632"><ele>419.752808</ele><time>2008-03-02T10:48:26Z</time></trkpt>
<trkpt lat="48.16116186" lon="6.40452404"><ele>419.752808</ele><time>2008-03-02T10:48:29Z</time></trkpt>
<trkpt lat="48.16112665" lon="6.40442689"><ele>421.194824</ele><time>2008-03-02T10:48:30Z</time></trkpt>
<trkpt lat="48.16098358" lon="6.40411517"><ele>427.92395</ele><time>2008-03-02T10:48:35Z</time></trkpt>
<trkpt lat="48.16087956" lon="6.40390914"><ele>423.598022</ele><time>2008-03-02T10:48:40Z</time></trkpt>
<trkpt lat="48.16071879" lon="6.40353715"><ele>417.349609</ele><time>2008-03-02T10:48:47Z</time></trkpt>
<trkpt lat="48.16056255" lon="6.40327337"><ele>414.946167</ele><time>2008-03-02T10:48:53Z</time></trkpt>
<trkpt lat="48.16038016" lon="6.40307782"><ele>416.388184</ele><time>2008-03-02T10:48:59Z</time></trkpt>
<trkpt lat="48.16021496" lon="6.40291303"><ele>420.233398</ele><time>2008-03-02T10:49:04Z</time></trkpt>
<trkpt lat="48.15999627" lon="6.40270189"><ele>422.156006</ele><time>2008-03-02T10:49:11Z</time></trkpt>
<trkpt lat="48.15981229" lon="6.40252428"><ele>421.194824</ele><time>2008-03-02T10:49:17Z</time></trkpt>
<trkpt lat="48.15968463" lon="6.40233602"><ele>417.8302</ele><time>2008-03-02T10:49:22Z</time></trkpt>
<trkpt lat="48.15957952" lon="6.40216596"><ele>414.465454</ele><time>2008-03-02T10:49:27Z</time></trkpt>
<trkpt lat="48.15941742" lon="6.40192238"><ele>413.984863</ele><time>2008-03-02T10:49:33Z</time></trkpt>
<trkpt lat="48.15928825" lon="6.40171493"><ele>413.984863</ele><time>2008-03-02T10:49:38Z</time></trkpt>
<trkpt lat="48.15916613" lon="6.40151652"><ele>413.02356</ele><time>2008-03-02T10:49:43Z</time></trkpt>
<trkpt lat="48.15905037" lon="6.40134118"><ele>415.907471</ele><time>2008-03-02T10:49:48Z</time></trkpt>
<trkpt lat="48.15889137" lon="6.40109802"><ele>417.8302</ele><time>2008-03-02T10:49:54Z</time></trkpt>
<trkpt lat="48.15875206" lon="6.40085402"><ele>415.907471</ele><time>2008-03-02T10:50:00Z</time></trkpt>
<trkpt lat="48.15863363" lon="6.40055864"><ele>415.42688</ele><time>2008-03-02T10:50:06Z</time></trkpt>
<trkpt lat="48.15853782" lon="6.40025832"><ele>418.310791</ele><time>2008-03-02T10:50:12Z</time></trkpt>
<trkpt lat="48.15850538" lon="6.39999546"><ele>421.194824</ele><time>2008-03-02T10:50:17Z</time></trkpt>
<trkpt lat="48.15851904" lon="6.39974945"><ele>422.156006</ele><time>2008-03-02T10:50:22Z</time></trkpt>
<trkpt lat="48.15850228" lon="6.39947905"><ele>427.443359</ele><time>2008-03-02T10:50:27Z</time></trkpt>
<trkpt lat="48.15845224" lon="6.39915677"><ele>434.65332</ele><time>2008-03-02T10:50:33Z</time></trkpt>
<trkpt lat="48.15842332" lon="6.39892316"><ele>440.421265</ele><time>2008-03-02T10:50:38Z</time></trkpt>
<trkpt lat="48.15839667" lon="6.39864195"><ele>440.901855</ele><time>2008-03-02T10:50:44Z</time></trkpt>
<trkpt lat="48.15834252" lon="6.39837725"><ele>442.343872</ele><time>2008-03-02T10:50:49Z</time></trkpt>
<trkpt lat="48.15829868" lon="6.39809487"><ele>441.863159</ele><time>2008-03-02T10:50:54Z</time></trkpt>
<trkpt lat="48.15825535" lon="6.39774534"><ele>437.056519</ele><time>2008-03-02T10:51:00Z</time></trkpt>
<trkpt lat="48.15821948" lon="6.39741937"><ele>434.65332</ele><time>2008-03-02T10:51:06Z</time></trkpt>
<trkpt lat="48.15820715" lon="6.39720186"><ele>434.172607</ele><time>2008-03-02T10:51:10Z</time></trkpt>
<trkpt lat="48.15823230" lon="6.39680816"><ele>433.691895</ele><time>2008-03-02T10:51:17Z</time></trkpt>
<trkpt lat="48.15832282" lon="6.39645176"><ele>436.575928</ele><time>2008-03-02T10:51:24Z</time></trkpt>
<trkpt lat="48.15845040" lon="6.39615077"><ele>428.885376</ele><time>2008-03-02T10:51:30Z</time></trkpt>
<trkpt lat="48.15871820" lon="6.39572865"><ele>429.846558</ele><time>2008-03-02T10:51:40Z</time></trkpt>
<trkpt lat="48.15888190" lon="6.39541064"><ele>431.769165</ele><time>2008-03-02T10:51:47Z</time></trkpt>
<trkpt lat="48.15899933" lon="6.39510789"><ele>431.288574</ele><time>2008-03-02T10:51:53Z</time></trkpt>
<trkpt lat="48.15909463" lon="6.39461587"><ele>426.482056</ele><time>2008-03-02T10:52:02Z</time></trkpt>
<trkpt lat="48.15916303" lon="6.39429493"><ele>423.598022</ele><time>2008-03-02T10:52:08Z</time></trkpt>
<trkpt lat="48.15927434" lon="6.39399528"><ele>420.714111</ele><time>2008-03-02T10:52:14Z</time></trkpt>
<trkpt lat="48.15941809" lon="6.39367006"><ele>419.752808</ele><time>2008-03-02T10:52:21Z</time></trkpt>
<trkpt lat="48.15955949" lon="6.39330176"><ele>420.714111</ele><time>2008-03-02T10:52:29Z</time></trkpt>
<trkpt lat="48.15965219" lon="6.39302474"><ele>420.714111</ele><time>2008-03-02T10:52:35Z</time></trkpt>
<trkpt lat="48.15969637" lon="6.39278216"><ele>421.194824</ele><time>2008-03-02T10:52:40Z</time></trkpt>
<trkpt lat="48.15969528" lon="6.39251562"><ele>421.675415</ele><time>2008-03-02T10:52:45Z</time></trkpt>
<trkpt lat="48.15968757" lon="6.39224212"><ele>421.194824</ele><time>2008-03-02T10:52:51Z</time></trkpt>
<trkpt lat="48.15967633" lon="6.39206107"><ele>421.675415</ele><time>2008-03-02T10:52:55Z</time></trkpt>
<trkpt lat="48.15967038" lon="6.39196795"><ele>422.636719</ele><time>2008-03-02T10:52:57Z</time></trkpt>
<trkpt lat="48.15967466" lon="6.39172948"><ele>424.078735</ele><time>2008-03-02T10:53:02Z</time></trkpt>
<trkpt lat="48.15964566" lon="6.39137769"><ele>427.92395</ele><time>2008-03-02T10:53:08Z</time></trkpt>
<trkpt lat="48.15967742" lon="6.39110235"><ele>428.885376</ele><time>2008-03-02T10:53:13Z</time></trkpt>
<trkpt lat="48.15972545" lon="6.39082423"><ele>428.885376</ele><time>2008-03-02T10:53:18Z</time></trkpt>
<trkpt lat="48.15981120" lon="6.39056892"><ele>428.404663</ele><time>2008-03-02T10:53:23Z</time></trkpt>
<trkpt lat="48.15991907" lon="6.39018025"><ele>426.962769</ele><time>2008-03-02T10:53:30Z</time></trkpt>
<trkpt lat="48.15993684" lon="6.39012963"><ele>426.482056</ele><time>2008-03-02T10:53:31Z</time></trkpt>
<trkpt lat="48.15994523" lon="6.38990097"><ele>425.520752</ele><time>2008-03-02T10:53:35Z</time></trkpt>
<trkpt lat="48.15980122" lon="6.38969176"><ele>426.001343</ele><time>2008-03-02T10:53:42Z</time></trkpt>
<trkpt lat="48.15971883" lon="6.38952227"><ele>426.482056</ele><time>2008-03-02T10:53:47Z</time></trkpt>
<trkpt lat="48.15957877" lon="6.38929403"><ele>426.482056</ele><time>2008-03-02T10:53:54Z</time></trkpt>
<trkpt lat="48.15943502" lon="6.38905079"><ele>426.482056</ele><time>2008-03-02T10:54:01Z</time></trkpt>
<trkpt lat="48.15922832" lon="6.38872482"><ele>427.443359</ele><time>2008-03-02T10:54:10Z</time></trkpt>
<trkpt lat="48.15915666" lon="6.38855316"><ele>427.92395</ele><time>2008-03-02T10:54:15Z</time></trkpt>
<trkpt lat="48.15913352" lon="6.38852944"><ele>428.404663</ele><time>2008-03-02T10:54:16Z</time></trkpt>
<trkpt lat="48.15914308" lon="6.38837840"><ele>428.885376</ele><time>2008-03-02T10:54:20Z</time></trkpt>
<trkpt lat="48.15919119" lon="6.38829986"><ele>429.365967</ele><time>2008-03-02T10:54:22Z</time></trkpt>
<trkpt lat="48.15936897" lon="6.38804530"><ele>430.327271</ele><time>2008-03-02T10:54:29Z</time></trkpt>
<trkpt lat="48.15949696" lon="6.38786995"><ele>430.327271</ele><time>2008-03-02T10:54:34Z</time></trkpt>
<trkpt lat="48.15962537" lon="6.38784505"><ele>428.404663</ele><time>2008-03-02T10:54:37Z</time></trkpt>
<trkpt lat="48.15983618" lon="6.38770608"><ele>428.404663</ele><time>2008-03-02T10:54:41Z</time></trkpt>
<trkpt lat="48.15994254" lon="6.38759318"><ele>428.885376</ele><time>2008-03-02T10:54:43Z</time></trkpt>
<trkpt lat="48.16010046" lon="6.38739394"><ele>429.365967</ele><time>2008-03-02T10:54:46Z</time></trkpt>
<trkpt lat="48.16025209" lon="6.38726033"><ele>431.769165</ele><time>2008-03-02T10:54:49Z</time></trkpt>
<trkpt lat="48.16050237" lon="6.38713754"><ele>428.885376</ele><time>2008-03-02T10:54:54Z</time></trkpt>
<trkpt lat="48.16055308" lon="6.38708875"><ele>430.327271</ele><time>2008-03-02T10:54:55Z</time></trkpt>
<trkpt lat="48.16091116" lon="6.38664309"><ele>438.498535</ele><time>2008-03-02T10:55:02Z</time></trkpt>
<trkpt lat="48.16104787" lon="6.38632894"><ele>440.901855</ele><time>2008-03-02T10:55:06Z</time></trkpt>
<trkpt lat="48.16109422" lon="6.38617102"><ele>440.421265</ele><time>2008-03-02T10:55:09Z</time></trkpt>
<trkpt lat="48.16118935" lon="6.38596047"><ele>440.901855</ele><time>2008-03-02T10:55:13Z</time></trkpt>
<trkpt lat="48.16129480" lon="6.38562796"><ele>439.94043</ele><time>2008-03-02T10:55:17Z</time></trkpt>
<trkpt lat="48.16137685" lon="6.38509026"><ele>434.65332</ele><time>2008-03-02T10:55:22Z</time></trkpt>
<trkpt lat="48.16143905" lon="6.38478356"><ele>431.288574</ele><time>2008-03-02T10:55:25Z</time></trkpt>
<trkpt lat="48.16143427" lon="6.38451803"><ele>428.885376</ele><time>2008-03-02T10:55:28Z</time></trkpt>
<trkpt lat="48.16144072" lon="6.38434569"><ele>426.001343</ele><time>2008-03-02T10:55:30Z</time></trkpt>
<trkpt lat="48.16145564" lon="6.38410614"><ele>422.156006</ele><time>2008-03-02T10:55:33Z</time></trkpt>
<trkpt lat="48.16146847" lon="6.38376114"><ele>416.388184</ele><time>2008-03-02T10:55:38Z</time></trkpt>
<trkpt lat="48.16136998" lon="6.38352477"><ele>413.504272</ele><time>2008-03-02T10:55:42Z</time></trkpt>
<trkpt lat="48.16129304" lon="6.38328077"><ele>410.139648</ele><time>2008-03-02T10:55:46Z</time></trkpt>
<trkpt lat="48.16128465" lon="6.38305186"><ele>407.255615</ele><time>2008-03-02T10:55:49Z</time></trkpt>
<trkpt lat="48.16130678" lon="6.38263830"><ele>402.929688</ele><time>2008-03-02T10:55:54Z</time></trkpt>
<trkpt lat="48.16135095" lon="6.38224930"><ele>402.929688</ele><time>2008-03-02T10:55:58Z</time></trkpt>
<trkpt lat="48.16140728" lon="6.38206280"><ele>403.891113</ele><time>2008-03-02T10:56:00Z</time></trkpt>
<trkpt lat="48.16160635" lon="6.38173054"><ele>404.371704</ele><time>2008-03-02T10:56:05Z</time></trkpt>
<trkpt lat="48.16164583" lon="6.38167908"><ele>404.371704</ele><time>2008-03-02T10:56:06Z</time></trkpt>
<trkpt lat="48.16171364" lon="6.38155226"><ele>403.891113</ele><time>2008-03-02T10:56:08Z</time></trkpt>
<trkpt lat="48.16186485" lon="6.38130549"><ele>406.294312</ele><time>2008-03-02T10:56:12Z</time></trkpt>
<trkpt lat="48.16201966" lon="6.38104775"><ele>409.178345</ele><time>2008-03-02T10:56:16Z</time></trkpt>
<trkpt lat="48.16232896" lon="6.38060770"><ele>407.255615</ele><time>2008-03-02T10:56:22Z</time></trkpt>
<trkpt lat="48.16256809" lon="6.38044920"><ele>402.929688</ele><time>2008-03-02T10:56:26Z</time></trkpt>
<trkpt lat="48.16276574" lon="6.38029640"><ele>401.487793</ele><time>2008-03-02T10:56:30Z</time></trkpt>
<trkpt lat="48.16299548" lon="6.38008266"><ele>396.681152</ele><time>2008-03-02T10:56:34Z</time></trkpt>
<trkpt lat="48.16313378" lon="6.37997973"><ele>396.200562</ele><time>2008-03-02T10:56:37Z</time></trkpt>
<trkpt lat="48.16320042" lon="6.37968318"><ele>400.045898</ele><time>2008-03-02T10:56:42Z</time></trkpt>
<trkpt lat="48.16322146" lon="6.37932904"><ele>397.642456</ele><time>2008-03-02T10:56:48Z</time></trkpt>
<trkpt lat="48.16322884" lon="6.37905939"><ele>399.084351</ele><time>2008-03-02T10:56:52Z</time></trkpt>
<trkpt lat="48.16325683" lon="6.37885362"><ele>399.565063</ele><time>2008-03-02T10:56:55Z</time></trkpt>
<trkpt lat="48.16325926" lon="6.37850585"><ele>391.874512</ele><time>2008-03-02T10:57:00Z</time></trkpt>
<trkpt lat="48.16326697" lon="6.37819857"><ele>388.990601</ele><time>2008-03-02T10:57:05Z</time></trkpt>
<trkpt lat="48.16327728" lon="6.37807092"><ele>387.067993</ele><time>2008-03-02T10:57:08Z</time></trkpt>
<trkpt lat="48.16332137" lon="6.37794762"><ele>384.664795</ele><time>2008-03-02T10:57:13Z</time></trkpt>
<trkpt lat="48.16332062" lon="6.37790957"><ele>383.703247</ele><time>2008-03-02T10:57:14Z</time></trkpt>
<trkpt lat="48.16335255" lon="6.37771217"><ele>388.029297</ele><time>2008-03-02T10:57:19Z</time></trkpt>
<trkpt lat="48.16340184" lon="6.37754705"><ele>393.316528</ele><time>2008-03-02T10:57:23Z</time></trkpt>
<trkpt lat="48.16342195" lon="6.37726550"><ele>390.913208</ele><time>2008-03-02T10:57:28Z</time></trkpt>
<trkpt lat="48.16344358" lon="6.37692830"><ele>393.797241</ele><time>2008-03-02T10:57:34Z</time></trkpt>
<trkpt lat="48.16342782" lon="6.37661456"><ele>391.874512</ele><time>2008-03-02T10:57:40Z</time></trkpt>
<trkpt lat="48.16342564" lon="6.37627074"><ele>393.797241</ele><time>2008-03-02T10:57:46Z</time></trkpt>
<trkpt lat="48.16338248" lon="6.37580847"><ele>395.719849</ele><time>2008-03-02T10:57:53Z</time></trkpt>
<trkpt lat="48.16337225" lon="6.37559759"><ele>396.681152</ele><time>2008-03-02T10:57:57Z</time></trkpt>
<trkpt lat="48.16339807" lon="6.37527103"><ele>398.60376</ele><time>2008-03-02T10:58:03Z</time></trkpt>
<trkpt lat="48.16342145" lon="6.37497749"><ele>399.084351</ele><time>2008-03-02T10:58:08Z</time></trkpt>
<trkpt lat="48.16332866" lon="6.37478739"><ele>393.316528</ele><time>2008-03-02T10:58:12Z</time></trkpt>
<trkpt lat="48.16314317" lon="6.37468186"><ele>388.990601</ele><time>2008-03-02T10:58:15Z</time></trkpt>
<trkpt lat="48.16277747" lon="6.37462738"><ele>383.222656</ele><time>2008-03-02T10:58:22Z</time></trkpt>
<trkpt lat="48.16273866" lon="6.37462210"><ele>383.222656</ele><time>2008-03-02T10:58:23Z</time></trkpt>
<trkpt lat="48.16267890" lon="6.37449914"><ele>388.029297</ele><time>2008-03-02T10:58:27Z</time></trkpt>
<trkpt lat="48.16268980" lon="6.37443359"><ele>388.990601</ele><time>2008-03-02T10:58:28Z</time></trkpt>
<trkpt lat="48.16269776" lon="6.37405674"><ele>394.758545</ele><time>2008-03-02T10:58:34Z</time></trkpt>
<trkpt lat="48.16270304" lon="6.37396613"><ele>397.161743</ele><time>2008-03-02T10:58:36Z</time></trkpt>
<trkpt lat="48.16277345" lon="6.37378869"><ele>402.449097</ele><time>2008-03-02T10:58:42Z</time></trkpt>
<trkpt lat="48.16282349" lon="6.37365525"><ele>410.139648</ele><time>2008-03-02T10:58:47Z</time></trkpt>
<trkpt lat="48.16283153" lon="6.37361954"><ele>409.178345</ele><time>2008-03-02T10:58:48Z</time></trkpt>
<trkpt lat="48.16285609" lon="6.37344595"><ele>413.504272</ele><time>2008-03-02T10:58:53Z</time></trkpt>
<trkpt lat="48.16283723" lon="6.37326038"><ele>410.139648</ele><time>2008-03-02T10:58:57Z</time></trkpt>
<trkpt lat="48.16284528" lon="6.37300548"><ele>409.178345</ele><time>2008-03-02T10:59:02Z</time></trkpt>
<trkpt lat="48.16289716" lon="6.37282678"><ele>408.697632</ele><time>2008-03-02T10:59:06Z</time></trkpt>
<trkpt lat="48.16296506" lon="6.37252956"><ele>408.697632</ele><time>2008-03-02T10:59:11Z</time></trkpt>
<trkpt lat="48.16296975" lon="6.37245454"><ele>407.255615</ele><time>2008-03-02T10:59:12Z</time></trkpt>
<trkpt lat="48.16299968" lon="6.37205749"><ele>400.526489</ele><time>2008-03-02T10:59:18Z</time></trkpt>
<trkpt lat="48.16300889" lon="6.37192614"><ele>400.526489</ele><time>2008-03-02T10:59:21Z</time></trkpt>
<trkpt lat="48.16301292" lon="6.37175817"><ele>401.00708</ele><time>2008-03-02T10:59:25Z</time></trkpt>
<trkpt lat="48.16301853" lon="6.37153932"><ele>394.758545</ele><time>2008-03-02T10:59:29Z</time></trkpt>
<trkpt lat="48.16303865" lon="6.37134746"><ele>395.719849</ele><time>2008-03-02T10:59:33Z</time></trkpt>
<trkpt lat="48.16306413" lon="6.37107069"><ele>393.316528</ele><time>2008-03-02T10:59:38Z</time></trkpt>
<trkpt lat="48.16310839" lon="6.37081370"><ele>389.471191</ele><time>2008-03-02T10:59:43Z</time></trkpt>
<trkpt lat="48.16310537" lon="6.37060155"><ele>388.51001</ele><time>2008-03-02T10:59:47Z</time></trkpt>
<trkpt lat="48.16306564" lon="6.37035940"><ele>386.587402</ele><time>2008-03-02T10:59:52Z</time></trkpt>
<trkpt lat="48.16303035" lon="6.37003653"><ele>379.858032</ele><time>2008-03-02T10:59:58Z</time></trkpt>
<trkpt lat="48.16303873" lon="6.36989957"><ele>380.338745</ele><time>2008-03-02T11:00:01Z</time></trkpt>
<trkpt lat="48.16302734" lon="6.36966127"><ele>382.261353</ele><time>2008-03-02T11:00:06Z</time></trkpt>
<trkpt lat="48.16303245" lon="6.36955683"><ele>381.78064</ele><time>2008-03-02T11:00:08Z</time></trkpt>
<trkpt lat="48.16300504" lon="6.36923052"><ele>385.145386</ele><time>2008-03-02T11:00:14Z</time></trkpt>
<trkpt lat="48.16299314" lon="6.36908493"><ele>388.51001</ele><time>2008-03-02T11:00:18Z</time></trkpt>
<trkpt lat="48.16291116" lon="6.36888158"><ele>388.990601</ele><time>2008-03-02T11:00:23Z</time></trkpt>
<trkpt lat="48.16287998" lon="6.36871537"><ele>391.874512</ele><time>2008-03-02T11:00:27Z</time></trkpt>
<trkpt lat="48.16285970" lon="6.36870246"><ele>396.200562</ele><time>2008-03-02T11:00:30Z</time></trkpt>
<trkpt lat="48.16285576" lon="6.36870657"><ele>400.045898</ele><time>2008-03-02T11:00:33Z</time></trkpt>
<trkpt lat="48.16284872" lon="6.36870515"><ele>400.526489</ele><time>2008-03-02T11:00:34Z</time></trkpt>
<trkpt lat="48.16280429" lon="6.36863055"><ele>396.681152</ele><time>2008-03-02T11:00:38Z</time></trkpt>
<trkpt lat="48.16277135" lon="6.36856969"><ele>392.355347</ele><time>2008-03-02T11:00:42Z</time></trkpt>
<trkpt lat="48.16276364" lon="6.36855134"><ele>391.393799</ele><time>2008-03-02T11:00:43Z</time></trkpt>
<trkpt lat="48.16273556" lon="6.36841689"><ele>382.742065</ele><time>2008-03-02T11:00:47Z</time></trkpt>
<trkpt lat="48.16276649" lon="6.36827624"><ele>383.703247</ele><time>2008-03-02T11:00:51Z</time></trkpt>
<trkpt lat="48.16279155" lon="6.36819016"><ele>381.300049</ele><time>2008-03-02T11:00:53Z</time></trkpt>
<trkpt lat="48.16282676" lon="6.36810073"><ele>380.338745</ele><time>2008-03-02T11:00:55Z</time></trkpt>
<trkpt lat="48.16302306" lon="6.36805002"><ele>379.377441</ele><time>2008-03-02T11:01:01Z</time></trkpt>
<trkpt lat="48.16316505" lon="6.36811908"><ele>378.896851</ele><time>2008-03-02T11:01:05Z</time></trkpt>
<trkpt lat="48.16332188" lon="6.36809427"><ele>377.935425</ele><time>2008-03-02T11:01:09Z</time></trkpt>
<trkpt lat="48.16340402" lon="6.36798028"><ele>377.935425</ele><time>2008-03-02T11:01:12Z</time></trkpt>
<trkpt lat="48.16344098" lon="6.36786696"><ele>376.49353</ele><time>2008-03-02T11:01:14Z</time></trkpt>
<trkpt lat="48.16354492" lon="6.36736739"><ele>376.012817</ele><time>2008-03-02T11:01:21Z</time></trkpt>
<trkpt lat="48.16361549" lon="6.36709297"><ele>375.051514</ele><time>2008-03-02T11:01:25Z</time></trkpt>
<trkpt lat="48.16367953" lon="6.36669776"><ele>375.051514</ele><time>2008-03-02T11:01:31Z</time></trkpt>
<trkpt lat="48.16369663" lon="6.36637632"><ele>373.128906</ele><time>2008-03-02T11:01:36Z</time></trkpt>
<trkpt lat="48.16370007" lon="6.36613576"><ele>374.570801</ele><time>2008-03-02T11:01:40Z</time></trkpt>
<trkpt lat="48.16373427" lon="6.36571214"><ele>376.012817</ele><time>2008-03-02T11:01:47Z</time></trkpt>
<trkpt lat="48.16375623" lon="6.36534073"><ele>374.570801</ele><time>2008-03-02T11:01:54Z</time></trkpt>
<trkpt lat="48.16375706" lon="6.36504728"><ele>375.051514</ele><time>2008-03-02T11:02:00Z</time></trkpt>
<trkpt lat="48.16382320" lon="6.36476289"><ele>374.090088</ele><time>2008-03-02T11:02:06Z</time></trkpt>
<trkpt lat="48.16384357" lon="6.36470924"><ele>374.090088</ele><time>2008-03-02T11:02:07Z</time></trkpt>
<trkpt lat="48.16390467" lon="6.36432242"><ele>374.090088</ele><time>2008-03-02T11:02:12Z</time></trkpt>
<trkpt lat="48.16390115" lon="6.36424187"><ele>374.090088</ele><time>2008-03-02T11:02:13Z</time></trkpt>
<trkpt lat="48.16382764" lon="6.36370660"><ele>371.206299</ele><time>2008-03-02T11:02:20Z</time></trkpt>
<trkpt lat="48.16379629" lon="6.36349177"><ele>370.244873</ele><time>2008-03-02T11:02:23Z</time></trkpt>
<trkpt lat="48.16379855" lon="6.36328365"><ele>369.764282</ele><time>2008-03-02T11:02:26Z</time></trkpt>
<trkpt lat="48.16382152" lon="6.36301283"><ele>369.283691</ele><time>2008-03-02T11:02:30Z</time></trkpt>
<trkpt lat="48.16390920" lon="6.36247194"><ele>371.68689</ele><time>2008-03-02T11:02:38Z</time></trkpt>
<trkpt lat="48.16397139" lon="6.36203139"><ele>371.206299</ele><time>2008-03-02T11:02:45Z</time></trkpt>
<trkpt lat="48.16413442" lon="6.36178949"><ele>373.128906</ele><time>2008-03-02T11:02:51Z</time></trkpt>
<trkpt lat="48.16427557" lon="6.36164222"><ele>373.609497</ele><time>2008-03-02T11:02:55Z</time></trkpt>
<trkpt lat="48.16444882" lon="6.36151616"><ele>375.532104</ele><time>2008-03-02T11:02:59Z</time></trkpt>
<trkpt lat="48.16472786" lon="6.36117459"><ele>376.012817</ele><time>2008-03-02T11:03:06Z</time></trkpt>
<trkpt lat="48.16505173" lon="6.36077796"><ele>376.012817</ele><time>2008-03-02T11:03:14Z</time></trkpt>
<trkpt lat="48.16536647" lon="6.36039223"><ele>376.012817</ele><time>2008-03-02T11:03:22Z</time></trkpt>
<trkpt lat="48.16552799" lon="6.36020875"><ele>376.49353</ele><time>2008-03-02T11:03:26Z</time></trkpt>
<trkpt lat="48.16583443" lon="6.36002569"><ele>376.974243</ele><time>2008-03-02T11:03:33Z</time></trkpt>
<trkpt lat="48.16613426" lon="6.35985444"><ele>376.974243</ele><time>2008-03-02T11:03:39Z</time></trkpt>
<trkpt lat="48.16630994" lon="6.35975788"><ele>376.012817</ele><time>2008-03-02T11:03:42Z</time></trkpt>
<trkpt lat="48.16653156" lon="6.35977054"><ele>375.532104</ele><time>2008-03-02T11:03:46Z</time></trkpt>
<trkpt lat="48.16657397" lon="6.35980365"><ele>376.012817</ele><time>2008-03-02T11:03:47Z</time></trkpt>
<trkpt lat="48.16674345" lon="6.35989359"><ele>376.974243</ele><time>2008-03-02T11:03:53Z</time></trkpt>
<trkpt lat="48.16673549" lon="6.35984598"><ele>380.819458</ele><time>2008-03-02T11:08:12Z</time></trkpt>
<trkpt lat="48.16673708" lon="6.35984724"><ele>380.819458</ele><time>2008-03-02T11:08:13Z</time></trkpt>
<trkpt lat="48.16674697" lon="6.35985034"><ele>378.896851</ele><time>2008-03-02T11:08:38Z</time></trkpt>
<trkpt lat="48.16674647" lon="6.35985285"><ele>378.896851</ele><time>2008-03-02T11:08:39Z</time></trkpt>
<trkpt lat="48.16674664" lon="6.35985738"><ele>378.416138</ele><time>2008-03-02T11:08:46Z</time></trkpt>
<trkpt lat="48.16676835" lon="6.35986593"><ele>378.416138</ele><time>2008-03-02T11:08:47Z</time></trkpt>
<trkpt lat="48.16684336" lon="6.35993063"><ele>378.416138</ele><time>2008-03-02T11:08:50Z</time></trkpt>
<trkpt lat="48.16701972" lon="6.36008872"><ele>379.858032</ele><time>2008-03-02T11:08:55Z</time></trkpt>
<trkpt lat="48.16714914" lon="6.36010540"><ele>380.338745</ele><time>2008-03-02T11:08:58Z</time></trkpt>
<trkpt lat="48.16725408" lon="6.36009844"><ele>380.819458</ele><time>2008-03-02T11:09:00Z</time></trkpt>
<trkpt lat="48.16747754" lon="6.36022350"><ele>379.858032</ele><time>2008-03-02T11:09:04Z</time></trkpt>
<trkpt lat="48.16786487" lon="6.36068677"><ele>378.896851</ele><time>2008-03-02T11:09:11Z</time></trkpt>
<trkpt lat="48.16827927" lon="6.36124198"><ele>378.896851</ele><time>2008-03-02T11:09:19Z</time></trkpt>
<trkpt lat="48.16836066" lon="6.36140158"><ele>378.896851</ele><time>2008-03-02T11:09:21Z</time></trkpt>
<trkpt lat="48.16846157" lon="6.36183417"><ele>379.858032</ele><time>2008-03-02T11:09:26Z</time></trkpt>
<trkpt lat="48.16846317" lon="6.36224555"><ele>380.338745</ele><time>2008-03-02T11:09:31Z</time></trkpt>
<trkpt lat="48.16841162" lon="6.36280093"><ele>381.300049</ele><time>2008-03-02T11:09:37Z</time></trkpt>
<trkpt lat="48.16841656" lon="6.36309765"><ele>381.78064</ele><time>2008-03-02T11:09:40Z</time></trkpt>
<trkpt lat="48.16839636" lon="6.36342572"><ele>381.78064</ele><time>2008-03-02T11:09:43Z</time></trkpt>
<trkpt lat="48.16828136" lon="6.36383778"><ele>381.300049</ele><time>2008-03-02T11:09:47Z</time></trkpt>
<trkpt lat="48.16820576" lon="6.36400382"><ele>381.300049</ele><time>2008-03-02T11:09:49Z</time></trkpt>
<trkpt lat="48.16814239" lon="6.36417565"><ele>381.300049</ele><time>2008-03-02T11:09:51Z</time></trkpt>
<trkpt lat="48.16807089" lon="6.36468133"><ele>381.300049</ele><time>2008-03-02T11:09:56Z</time></trkpt>
<trkpt lat="48.16811792" lon="6.36512239"><ele>381.78064</ele><time>2008-03-02T11:10:01Z</time></trkpt>
<trkpt lat="48.16835705" lon="6.36565187"><ele>380.338745</ele><time>2008-03-02T11:10:08Z</time></trkpt>
<trkpt lat="48.16864489" lon="6.36621228"><ele>379.858032</ele><time>2008-03-02T11:10:15Z</time></trkpt>
<trkpt lat="48.16872007" lon="6.36635964"><ele>379.858032</ele><time>2008-03-02T11:10:17Z</time></trkpt>
<trkpt lat="48.16880448" lon="6.36654823"><ele>379.858032</ele><time>2008-03-02T11:10:21Z</time></trkpt>
<trkpt lat="48.16887505" lon="6.36664345"><ele>379.377441</ele><time>2008-03-02T11:10:24Z</time></trkpt>
<trkpt lat="48.16901143" lon="6.36691553"><ele>378.896851</ele><time>2008-03-02T11:10:29Z</time></trkpt>
<trkpt lat="48.16914034" lon="6.36709339"><ele>378.896851</ele><time>2008-03-02T11:10:32Z</time></trkpt>
<trkpt lat="48.16950445" lon="6.36736027"><ele>378.416138</ele><time>2008-03-02T11:10:38Z</time></trkpt>
<trkpt lat="48.16956723" lon="6.36740536"><ele>378.416138</ele><time>2008-03-02T11:10:39Z</time></trkpt>
<trkpt lat="48.16974082" lon="6.36768524"><ele>378.416138</ele><time>2008-03-02T11:10:43Z</time></trkpt>
<trkpt lat="48.16975423" lon="6.36777794"><ele>378.416138</ele><time>2008-03-02T11:10:44Z</time></trkpt>
<trkpt lat="48.16980620" lon="6.36838529"><ele>379.377441</ele><time>2008-03-02T11:10:51Z</time></trkpt>
<trkpt lat="48.16988482" lon="6.36862678"><ele>379.377441</ele><time>2008-03-02T11:10:55Z</time></trkpt>
<trkpt lat="48.16991357" lon="6.36865905"><ele>379.377441</ele><time>2008-03-02T11:10:56Z</time></trkpt>
<trkpt lat="48.17003025" lon="6.36871747"><ele>378.896851</ele><time>2008-03-02T11:11:01Z</time></trkpt>
<trkpt lat="48.17019998" lon="6.36870456"><ele>378.416138</ele><time>2008-03-02T11:11:05Z</time></trkpt>
<trkpt lat="48.17032093" lon="6.36872476"><ele>378.416138</ele><time>2008-03-02T11:11:07Z</time></trkpt>
<trkpt lat="48.17058597" lon="6.36886398"><ele>377.935425</ele><time>2008-03-02T11:11:11Z</time></trkpt>
<trkpt lat="48.17109383" lon="6.36929976"><ele>377.935425</ele><time>2008-03-02T11:11:19Z</time></trkpt>
<trkpt lat="48.17134109" lon="6.36953487"><ele>377.935425</ele><time>2008-03-02T11:11:23Z</time></trkpt>
<trkpt lat="48.17151753" lon="6.36984617"><ele>380.338745</ele><time>2008-03-02T11:11:27Z</time></trkpt>
<trkpt lat="48.17173513" lon="6.37067649"><ele>382.742065</ele><time>2008-03-02T11:11:36Z</time></trkpt>
<trkpt lat="48.17189849" lon="6.37133866"><ele>383.222656</ele><time>2008-03-02T11:11:43Z</time></trkpt>
<trkpt lat="48.17205573" lon="6.37191357"><ele>384.184082</ele><time>2008-03-02T11:11:50Z</time></trkpt>
<trkpt lat="48.17220384" lon="6.37240869"><ele>385.145386</ele><time>2008-03-02T11:11:57Z</time></trkpt>
<trkpt lat="48.17236612" lon="6.37293306"><ele>384.184082</ele><time>2008-03-02T11:12:04Z</time></trkpt>
<trkpt lat="48.17251984" lon="6.37337303"><ele>382.261353</ele><time>2008-03-02T11:12:09Z</time></trkpt>
<trkpt lat="48.17256845" lon="6.37349398"><ele>382.261353</ele><time>2008-03-02T11:12:11Z</time></trkpt>
<trkpt lat="48.17266678" lon="6.37346657"><ele>381.78064</ele><time>2008-03-02T11:12:15Z</time></trkpt>
<trkpt lat="48.17272142" lon="6.37339884"><ele>381.300049</ele><time>2008-03-02T11:12:17Z</time></trkpt>
<trkpt lat="48.17294019" lon="6.37304949"><ele>380.819458</ele><time>2008-03-02T11:12:23Z</time></trkpt>
<trkpt lat="48.17318595" lon="6.37248647"><ele>381.78064</ele><time>2008-03-02T11:12:30Z</time></trkpt>
<trkpt lat="48.17322124" lon="6.37240307"><ele>381.78064</ele><time>2008-03-02T11:12:31Z</time></trkpt>
<trkpt lat="48.17350388" lon="6.37186948"><ele>381.78064</ele><time>2008-03-02T11:12:38Z</time></trkpt>
<trkpt lat="48.17370445" lon="6.37181517"><ele>381.78064</ele><time>2008-03-02T11:12:42Z</time></trkpt>
<trkpt lat="48.17396262" lon="6.37213695"><ele>382.261353</ele><time>2008-03-02T11:12:48Z</time></trkpt>
<trkpt lat="48.17405633" lon="6.37225279"><ele>382.742065</ele><time>2008-03-02T11:12:50Z</time></trkpt>
<trkpt lat="48.17415884" lon="6.37234767"><ele>383.222656</ele><time>2008-03-02T11:12:52Z</time></trkpt>
<trkpt lat="48.17438473" lon="6.37245563"><ele>383.703247</ele><time>2008-03-02T11:12:56Z</time></trkpt>
<trkpt lat="48.17482763" lon="6.37238983"><ele>385.145386</ele><time>2008-03-02T11:13:03Z</time></trkpt>
<trkpt lat="48.17506417" lon="6.37216017"><ele>383.703247</ele><time>2008-03-02T11:13:07Z</time></trkpt>
<trkpt lat="48.17510398" lon="6.37195540"><ele>381.78064</ele><time>2008-03-02T11:13:10Z</time></trkpt>
<trkpt lat="48.17504766" lon="6.37171467"><ele>380.338745</ele><time>2008-03-02T11:13:14Z</time></trkpt>
<trkpt lat="48.17496333" lon="6.37131116"><ele>379.377441</ele><time>2008-03-02T11:13:19Z</time></trkpt>
<trkpt lat="48.17494850" lon="6.37121913"><ele>379.377441</ele><time>2008-03-02T11:13:20Z</time></trkpt>
<trkpt lat="48.17500407" lon="6.37095896"><ele>378.416138</ele><time>2008-03-02T11:13:23Z</time></trkpt>
<trkpt lat="48.17512628" lon="6.37086156"><ele>377.935425</ele><time>2008-03-02T11:13:25Z</time></trkpt>
<trkpt lat="48.17541109" lon="6.37063935"><ele>375.051514</ele><time>2008-03-02T11:13:29Z</time></trkpt>
<trkpt lat="48.17552777" lon="6.37049728"><ele>373.609497</ele><time>2008-03-02T11:13:31Z</time></trkpt>
<trkpt lat="48.17557496" lon="6.37010274"><ele>371.206299</ele><time>2008-03-02T11:13:35Z</time></trkpt>
<trkpt lat="48.17550967" lon="6.36974257"><ele>369.764282</ele><time>2008-03-02T11:13:38Z</time></trkpt>
<trkpt lat="48.17557152" lon="6.36926263"><ele>367.360962</ele><time>2008-03-02T11:13:42Z</time></trkpt>
<trkpt lat="48.17561327" lon="6.36915173"><ele>366.880249</ele><time>2008-03-02T11:13:43Z</time></trkpt>
<trkpt lat="48.17591032" lon="6.36867656"><ele>365.438354</ele><time>2008-03-02T11:13:48Z</time></trkpt>
<trkpt lat="48.17639806" lon="6.36841404"><ele>364.957642</ele><time>2008-03-02T11:13:54Z</time></trkpt>
<trkpt lat="48.17704867" lon="6.36805865"><ele>364.476929</ele><time>2008-03-02T11:14:02Z</time></trkpt>
<trkpt lat="48.17712326" lon="6.36800769"><ele>364.476929</ele><time>2008-03-02T11:14:03Z</time></trkpt>
<trkpt lat="48.17728587" lon="6.36781817"><ele>364.476929</ele><time>2008-03-02T11:14:06Z</time></trkpt>
<trkpt lat="48.17745863" lon="6.36776118"><ele>364.476929</ele><time>2008-03-02T11:14:10Z</time></trkpt>
<trkpt lat="48.17761109" lon="6.36779764"><ele>364.476929</ele><time>2008-03-02T11:14:13Z</time></trkpt>
<trkpt lat="48.17769558" lon="6.36774693"><ele>364.957642</ele><time>2008-03-02T11:14:15Z</time></trkpt>
<trkpt lat="48.17796833" lon="6.36752313"><ele>366.399536</ele><time>2008-03-02T11:14:23Z</time></trkpt>
<trkpt lat="48.17799574" lon="6.36750645"><ele>366.399536</ele><time>2008-03-02T11:14:24Z</time></trkpt>
<trkpt lat="48.17807126" lon="6.36765112"><ele>364.476929</ele><time>2008-03-02T11:14:28Z</time></trkpt>
<trkpt lat="48.17814368" lon="6.36807567"><ele>363.035034</ele><time>2008-03-02T11:14:33Z</time></trkpt>
<trkpt lat="48.17823839" lon="6.36866827"><ele>361.112427</ele><time>2008-03-02T11:14:38Z</time></trkpt>
<trkpt lat="48.17818760" lon="6.36938986"><ele>361.112427</ele><time>2008-03-02T11:14:44Z</time></trkpt>
<trkpt lat="48.17808567" lon="6.37006033"><ele>360.631714</ele><time>2008-03-02T11:14:50Z</time></trkpt>
<trkpt lat="48.17791477" lon="6.37084555"><ele>359.67041</ele><time>2008-03-02T11:14:57Z</time></trkpt>
<trkpt lat="48.17774193" lon="6.37159849"><ele>359.67041</ele><time>2008-03-02T11:15:04Z</time></trkpt>
<trkpt lat="48.17757606" lon="6.37240307"><ele>360.151123</ele><time>2008-03-02T11:15:12Z</time></trkpt>
<trkpt lat="48.17752317" lon="6.37312903"><ele>360.631714</ele><time>2008-03-02T11:15:19Z</time></trkpt>
<trkpt lat="48.17755049" lon="6.37352684"><ele>360.631714</ele><time>2008-03-02T11:15:23Z</time></trkpt>
<trkpt lat="48.17769860" lon="6.37416235"><ele>361.112427</ele><time>2008-03-02T11:15:30Z</time></trkpt>
<trkpt lat="48.17791225" lon="6.37464825"><ele>362.554321</ele><time>2008-03-02T11:15:36Z</time></trkpt>
<trkpt lat="48.17822725" lon="6.37514429"><ele>362.554321</ele><time>2008-03-02T11:15:43Z</time></trkpt>
<trkpt lat="48.17864248" lon="6.37569238"><ele>363.515747</ele><time>2008-03-02T11:15:51Z</time></trkpt>
<trkpt lat="48.17892009" lon="6.37617267"><ele>363.035034</ele><time>2008-03-02T11:15:57Z</time></trkpt>
<trkpt lat="48.17911439" lon="6.37672378"><ele>362.554321</ele><time>2008-03-02T11:16:03Z</time></trkpt>
<trkpt lat="48.17921849" lon="6.37733909"><ele>362.554321</ele><time>2008-03-02T11:16:09Z</time></trkpt>
<trkpt lat="48.17923777" lon="6.37796966"><ele>362.554321</ele><time>2008-03-02T11:16:15Z</time></trkpt>
<trkpt lat="48.17909955" lon="6.37876745"><ele>361.59314</ele><time>2008-03-02T11:16:23Z</time></trkpt>
<trkpt lat="48.17902420" lon="6.37903056"><ele>361.59314</ele><time>2008-03-02T11:16:26Z</time></trkpt>
<trkpt lat="48.17911824" lon="6.37930188"><ele>360.151123</ele><time>2008-03-02T11:16:30Z</time></trkpt>
<trkpt lat="48.17942519" lon="6.37972467"><ele>358.708984</ele><time>2008-03-02T11:16:36Z</time></trkpt>
<trkpt lat="48.17980539" lon="6.38023722"><ele>356.305786</ele><time>2008-03-02T11:16:43Z</time></trkpt>
<trkpt lat="48.17992886" lon="6.38036177"><ele>355.825195</ele><time>2008-03-02T11:16:45Z</time></trkpt>
<trkpt lat="48.18013053" lon="6.38068364"><ele>354.383179</ele><time>2008-03-02T11:16:49Z</time></trkpt>
<trkpt lat="48.18035717" lon="6.38113677"><ele>354.383179</ele><time>2008-03-02T11:16:54Z</time></trkpt>
<trkpt lat="48.18060754" lon="6.38139057"><ele>353.902588</ele><time>2008-03-02T11:16:58Z</time></trkpt>
<trkpt lat="48.18066286" lon="6.38166675"><ele>354.383179</ele><time>2008-03-02T11:17:02Z</time></trkpt>
<trkpt lat="48.18059916" lon="6.38178904"><ele>354.383179</ele><time>2008-03-02T11:17:04Z</time></trkpt>
<trkpt lat="48.18041920" lon="6.38217403"><ele>354.86377</ele><time>2008-03-02T11:17:09Z</time></trkpt>
<trkpt lat="48.18027914" lon="6.38230998"><ele>354.383179</ele><time>2008-03-02T11:17:13Z</time></trkpt>
<trkpt lat="48.18018928" lon="6.38218492"><ele>354.383179</ele><time>2008-03-02T11:17:16Z</time></trkpt>
<trkpt lat="48.18012105" lon="6.38213312"><ele>354.383179</ele><time>2008-03-02T11:17:18Z</time></trkpt>
<trkpt lat="48.18003329" lon="6.38209599"><ele>353.902588</ele><time>2008-03-02T11:17:23Z</time></trkpt>
<trkpt lat="48.18003380" lon="6.38209138"><ele>353.902588</ele><time>2008-03-02T11:17:25Z</time></trkpt>
</trkseg></trk></gpx>